Provisional Data: Baldwin Run near Wellsboro Junction, PA


Please select a monitoring station.
Please select start date.
Please select start date.

Toggle Unit: C/F Toggle Unit: C/F
Sample Time Temperature (C) Temperature (F) Specific Conductivity (mS/cm) pH   Turbidity (NTU+) DO (mg/L)
4/13/2022 12:00:00 AM 7.49 45.482 0.052 7.44 22.28 11.63
4/13/2022 12:15:00 AM 7.4 45.32 0.052 7.44 22.49 11.65
4/13/2022 12:30:00 AM 7.32 45.176 0.052 7.44 21.85 11.68
4/13/2022 12:45:00 AM 7.24 45.032 0.052 7.45 21.69 11.7
4/13/2022 1:00:00 AM 7.16 44.888 0.052 7.44 23.66 11.73
4/13/2022 1:15:00 AM 7.09 44.762 0.052 7.44 24.3 11.75
4/13/2022 1:30:00 AM 7.01 44.618 0.052 7.43 22.91 11.78
4/13/2022 1:45:00 AM 6.94 44.492 0.052 7.43 23.97 11.79
4/13/2022 2:00:00 AM 6.87 44.366 0.052 7.44 22.74 11.82
4/13/2022 2:15:00 AM 6.81 44.258 0.052 7.43 21.03 11.83
4/13/2022 2:30:00 AM 6.76 44.168 0.052 7.43 23.46 11.85
4/13/2022 2:45:00 AM 6.72 44.096 0.052 7.43 21.79 11.86
4/13/2022 3:00:00 AM 6.67 44.006 0.052 7.43 22.9 11.88
4/13/2022 3:15:00 AM 6.62 43.916 0.052 7.43 20.68 11.9
4/13/2022 3:30:00 AM 6.61 43.898 0.052 7.43 20.6 11.9
4/13/2022 3:45:00 AM 6.59 43.862 0.052 7.43 19.75 11.91
4/13/2022 4:00:00 AM 6.57 43.826 0.052 7.43 20.75 11.92
4/13/2022 4:15:00 AM 6.55 43.79 0.052 7.42 21.34 11.93
4/13/2022 4:30:00 AM 6.53 43.754 0.052 7.42 19.95 11.93
4/13/2022 4:45:00 AM 6.53 43.754 0.052 7.42 20.34 11.92
4/13/2022 5:00:00 AM 6.52 43.736 0.052 7.42 19.83 11.92
4/13/2022 5:15:00 AM 6.51 43.718 0.052 7.42 19.87 11.93
4/13/2022 5:30:00 AM 6.51 43.718 0.052 7.42 19.98 11.93
4/13/2022 5:45:00 AM 6.51 43.718 0.052 7.41 19.83 11.94
4/13/2022 6:00:00 AM 6.51 43.718 0.052 7.42 18.88 11.93
4/13/2022 6:15:00 AM 6.5 43.7 0.052 7.41 21.55 11.93
4/13/2022 6:30:00 AM 6.5 43.7 0.052 7.42 19.88 11.93
4/13/2022 6:45:00 AM 6.51 43.718 0.052 7.42 21.76 11.94
4/13/2022 7:00:00 AM 6.51 43.718 0.052 7.43 19.69 11.94
4/13/2022 7:15:00 AM 6.52 43.736 0.052 7.43 19.86 11.96
4/13/2022 7:30:00 AM 6.55 43.79 0.052 7.44 20.88 11.98
4/13/2022 7:45:00 AM 6.57 43.826 0.052 7.45 22.78 11.99
4/13/2022 8:00:00 AM 6.59 43.862 0.052 7.45 21.52 12
4/13/2022 8:15:00 AM 6.66 43.988 0.052 7.46 20.83 12
4/13/2022 8:30:00 AM 6.78 44.204 0.052 7.47 21.57 11.98
4/13/2022 8:45:00 AM 6.82 44.276 0.052 7.48 21.63 11.97
4/13/2022 9:00:00 AM 6.93 44.474 0.052 7.48 19.94 11.94
4/13/2022 9:15:00 AM 7.07 44.726 0.051 7.5 22.59 11.91
4/13/2022 9:30:00 AM 7.19 44.942 0.051 7.5 20.79 11.87
4/13/2022 9:45:00 AM 7.28 45.104 0.051 7.51 20.39 11.84
4/13/2022 10:00:00 AM 7.38 45.284 0.051 7.51 20.99 11.82
4/13/2022 10:15:00 AM 7.49 45.482 0.051 7.53 23.66 11.77
4/13/2022 10:30:00 AM 7.59 45.662 0.051 7.52 22.48 11.74
4/13/2022 10:45:00 AM 7.71 45.878 0.051 7.51 22.12 11.7
4/13/2022 11:00:00 AM 7.85 46.13 0.051 7.52 22.32 11.66
4/13/2022 11:15:00 AM 7.93 46.274 0.051 7.52 22.66 11.62
4/13/2022 11:30:00 AM 8.27 46.886 0.051 7.52 23.58 11.59
4/13/2022 11:45:00 AM 8.68 47.624 0.051 7.53 24.23 11.49
4/13/2022 12:00:00 PM 8.99 48.182 0.051 7.54 22.93 11.41
4/13/2022 12:15:00 PM 9.23 48.614 0.051 7.54 21.21 11.34
4/13/2022 12:30:00 PM 9.45 49.01 0.051 7.54 22.41 11.26
4/13/2022 12:45:00 PM 9.54 49.172 0.051 7.54 22.18 11.2
4/13/2022 1:00:00 PM 9.68 49.424 0.051 7.54 23.08 11.18
4/13/2022 1:15:00 PM 9.93 49.874 0.051 7.54 24.67 11.12
4/13/2022 1:30:00 PM 10.08 50.144 0.051 7.55 26.05 11.06
4/13/2022 1:45:00 PM 10.24 50.432 0.051 7.55 24.06 11.01
4/13/2022 2:00:00 PM 10.19 50.342 0.051 7.55 24.67 10.99
4/13/2022 2:15:00 PM 10.21 50.378 0.051 7.55 23.66 10.97
4/13/2022 2:30:00 PM 10.4 50.72 0.051 7.55 25.83 10.96
4/13/2022 2:45:00 PM 10.49 50.882 0.051 7.55 24.61 10.91
4/13/2022 3:00:00 PM 10.48 50.864 0.051 7.55 23.92 10.91
4/13/2022 3:15:00 PM 10.58 51.044 0.051 7.55 25.09 10.9
4/13/2022 3:30:00 PM 10.59 51.062 0.051 7.55 25.03 10.86
4/13/2022 3:45:00 PM 10.58 51.044 0.051 7.54 24.04 10.85
4/13/2022 4:00:00 PM 10.62 51.116 0.051 7.54 24.93 10.85
4/13/2022 4:15:00 PM 10.71 51.278 0.051 7.55 24.02 10.84
4/13/2022 4:30:00 PM 10.77 51.386 0.051 7.55 25.98 10.82
4/13/2022 4:45:00 PM 10.72 51.296 0.051 7.55 24.07 10.81
4/13/2022 5:00:00 PM 10.72 51.296 0.051 7.55 25.77 10.81
4/13/2022 5:15:00 PM 10.73 51.314 0.051 7.55 24.34 10.79
4/13/2022 5:30:00 PM 10.73 51.314 0.051 7.54 25.06 10.79
4/13/2022 5:45:00 PM 10.74 51.332 0.051 7.54 25.65 10.77
4/13/2022 6:00:00 PM 10.71 51.278 0.051 7.53 26.3 10.74
4/13/2022 6:15:00 PM 10.66 51.188 0.052 7.51 24.95 10.72
4/13/2022 6:30:00 PM 10.63 51.134 0.052 7.49 25.13 10.74
4/13/2022 6:45:00 PM 10.6 51.08 0.052 7.49 26.16 10.74
4/13/2022 7:00:00 PM 10.57 51.026 0.052 7.48 23.9 10.73
4/13/2022 7:15:00 PM 10.52 50.936 0.052 7.48 26.07 10.74
4/13/2022 7:30:00 PM 10.46 50.828 0.052 7.47 25.59 10.73
4/13/2022 7:45:00 PM 10.39 50.702 0.052 7.46 25.75 10.74
4/13/2022 8:00:00 PM 10.34 50.612 0.052 7.46 25.5 10.74
4/13/2022 8:15:00 PM 10.28 50.504 0.052 7.45 29.55 10.75
4/13/2022 8:30:00 PM 10.22 50.396 0.053 7.45 29.95 10.76
4/13/2022 8:45:00 PM 10.17 50.306 0.053 7.45 27.06 10.77
4/13/2022 9:00:00 PM 10.12 50.216 0.053 7.44 32.53 10.79
4/13/2022 9:15:00 PM 10.06 50.108 0.053 7.45 31.27 10.8
4/13/2022 9:30:00 PM 10.02 50.036 0.053 7.44 30.03 10.82
4/13/2022 9:45:00 PM 9.98 49.964 0.053 7.44 29.26 10.83
4/13/2022 10:00:00 PM 9.94 49.892 0.053 7.44 27.03 10.84
4/13/2022 10:15:00 PM 9.89 49.802 0.053 7.43 27.33 10.85
4/13/2022 10:30:00 PM 9.84 49.712 0.053 7.43 29.15 10.85
4/13/2022 10:45:00 PM 9.78 49.604 0.053 7.42 27.35 10.87
4/13/2022 11:00:00 PM 9.71 49.478 0.053 7.43 26.15 10.88
4/13/2022 11:15:00 PM 9.66 49.388 0.053 7.43 27.88 10.89
4/13/2022 11:30:00 PM 9.6 49.28 0.053 7.42 26.64 10.91
4/13/2022 11:45:00 PM 9.54 49.172 0.053 7.43 24.64 10.93
4/14/2022 12:00:00 AM 9.49 49.082 0.053 7.43 24.44 10.94
4/14/2022 12:15:00 AM 9.43 48.974 0.053 7.43 23.02 10.96
4/14/2022 12:30:00 AM 9.37 48.866 0.053 7.42 23.19 10.96
4/14/2022 12:45:00 AM 9.32 48.776 0.053 7.42 26.64 10.97
4/14/2022 1:00:00 AM 9.29 48.722 0.053 7.42 26.76 10.99
4/14/2022 1:15:00 AM 9.25 48.65 0.053 7.42 25.43 11
4/14/2022 1:30:00 AM 9.2 48.56 0.053 7.42 22.45 11.02
4/14/2022 1:45:00 AM 9.14 48.452 0.053 7.42 24.21 11.03
4/14/2022 2:00:00 AM 9.09 48.362 0.053 7.42 25.54 11.03
4/14/2022 2:15:00 AM 9.05 48.29 0.053 7.42 24.66 11.06
4/14/2022 2:30:00 AM 9 48.2 0.053 7.42 23.56 11.07
4/14/2022 2:45:00 AM 8.96 48.128 0.053 7.42 26.16 11.08
4/14/2022 3:00:00 AM 8.91 48.038 0.053 7.41 25.64 11.08
4/14/2022 3:15:00 AM 8.88 47.984 0.053 7.41 24.01 11.1
4/14/2022 3:30:00 AM 8.84 47.912 0.053 7.41 25.35 11.11
4/14/2022 3:45:00 AM 8.8 47.84 0.053 7.41 21.09 11.1
4/14/2022 4:00:00 AM 8.76 47.768 0.053 7.41 22.83 11.12
4/14/2022 4:15:00 AM 8.72 47.696 0.053 7.42 23.17 11.12
4/14/2022 4:30:00 AM 8.69 47.642 0.053 7.41 24.66 11.13
4/14/2022 4:45:00 AM 8.65 47.57 0.053 7.41 22.33 11.14
4/14/2022 5:00:00 AM 8.61 47.498 0.053 7.42 21.8 11.16
4/14/2022 5:15:00 AM 8.57 47.426 0.053 7.41 21.9 11.16
4/14/2022 5:30:00 AM 8.53 47.354 0.053 7.41 22.14 11.17
4/14/2022 5:45:00 AM 8.5 47.3 0.053 7.41 21.3 11.19
4/14/2022 6:00:00 AM 8.46 47.228 0.053 7.41 20.86 11.19
4/14/2022 6:15:00 AM 8.42 47.156 0.053 7.41 19.07 11.2
4/14/2022 6:30:00 AM 8.39 47.102 0.053 7.41 23.34 11.22
4/14/2022 6:45:00 AM 8.36 47.048 0.053 7.41 21.71 11.23
4/14/2022 7:00:00 AM 8.34 47.012 0.053 7.41 21.15 11.26
4/14/2022 7:15:00 AM 8.33 46.994 0.053 7.41 20.16 11.28
4/14/2022 7:30:00 AM 8.34 47.012 0.053 7.42 21.68 11.3
4/14/2022 7:45:00 AM 8.36 47.048 0.053 7.44 21.31 11.31
4/14/2022 8:00:00 AM 8.4 47.12 0.053 7.45 23.41 11.32
4/14/2022 8:15:00 AM 8.47 47.246 0.053 7.46 23.28 11.33
4/14/2022 8:30:00 AM 8.54 47.372 0.053 7.47 21.88 11.34
4/14/2022 8:45:00 AM 8.66 47.588 0.053 7.5 21.83 11.33
4/14/2022 9:00:00 AM 8.8 47.84 0.053 7.51 22.28 11.3
4/14/2022 9:15:00 AM 8.99 48.182 0.053 7.53 22.21 11.27
4/14/2022 9:30:00 AM 9.11 48.398 0.053 7.54 23.22 11.23
4/14/2022 9:45:00 AM 9.36 48.848 0.053 7.54 22.24 11.19
4/14/2022 10:00:00 AM 9.6 49.28 0.053 7.55 24.43 11.11
4/14/2022 10:15:00 AM 9.81 49.658 0.053 7.55 24.49 11.08
4/14/2022 10:30:00 AM 9.94 49.892 0.052 7.56 22.49 11.04
4/14/2022 10:45:00 AM 10.03 50.054 0.052 7.56 21.39 10.98
4/14/2022 11:00:00 AM 9.93 49.874 0.052 7.55 22.96 10.97
4/14/2022 11:15:00 AM 9.96 49.928 0.052 7.55 20.94 10.97
4/14/2022 11:30:00 AM 10 50 0.052 7.55 24.09 10.94
4/14/2022 11:45:00 AM 10.08 50.144 0.052 7.55 22.46 10.94
4/14/2022 12:00:00 PM 10.21 50.378 0.052 7.56 26.56 10.91
4/14/2022 12:15:00 PM 10.23 50.414 0.052 7.55 23.68 10.89
4/14/2022 12:30:00 PM 10.24 50.432 0.052 7.54 21.35 10.87
4/14/2022 12:45:00 PM 10.23 50.414 0.052 7.54 21.4 10.86
4/14/2022 1:00:00 PM 10.22 50.396 0.052 7.53 20.89 10.88
4/14/2022 1:15:00 PM 10.23 50.414 0.052 7.54 20.85 10.93
4/14/2022 1:30:00 PM 10.2 50.36 0.052 7.55 23.99 10.91
4/14/2022 1:45:00 PM 10.12 50.216 0.052 7.55 24.34 10.93
4/14/2022 2:00:00 PM 10.02 50.036 0.052 7.54 21.19 10.95
4/14/2022 2:15:00 PM 9.96 49.928 0.052 7.55 24.85 10.98
4/14/2022 2:30:00 PM 9.96 49.928 0.052 7.55 22.73 11
4/14/2022 2:45:00 PM 10 50 0.052 7.56 23.84 11.02
4/14/2022 3:00:00 PM 10.01 50.018 0.052 7.55 21.04 11.01
4/14/2022 3:15:00 PM 9.97 49.946 0.052 7.56 23.79 11.02
4/14/2022 3:30:00 PM 9.95 49.91 0.052 7.56 22.03 11.03
4/14/2022 3:45:00 PM 9.95 49.91 0.052 7.56 22.1 11.04
4/14/2022 4:00:00 PM 9.91 49.838 0.052 7.56 23.2 11.03
4/14/2022 4:15:00 PM 9.87 49.766 0.052 7.56 21.42 11.04
4/14/2022 4:30:00 PM 9.8 49.64 0.052 7.56 20.71 11.05
4/14/2022 4:45:00 PM 9.79 49.622 0.052 7.56 19.99 11.06
4/14/2022 5:00:00 PM 9.79 49.622 0.052 7.56 21.31 11.07
4/14/2022 5:15:00 PM 9.74 49.532 0.052 7.55 21.72 11.06
4/14/2022 5:30:00 PM 9.65 49.37 0.052 7.55 23.01 11.07
4/14/2022 5:45:00 PM 9.61 49.298 0.052 7.56 20.88 11.1
4/14/2022 6:00:00 PM 9.52 49.136 0.052 7.55 20.36 11.09
4/14/2022 6:15:00 PM 9.39 48.902 0.053 7.54 20.64 11.09
4/14/2022 6:30:00 PM 9.29 48.722 0.053 7.53 28.95 11.11
4/14/2022 6:45:00 PM 9.2 48.56 0.053 7.52 20.61 11.13
4/14/2022 7:00:00 PM 9.11 48.398 0.053 7.52 21.44 11.15
4/14/2022 7:15:00 PM 9.02 48.236 0.053 7.51 27.93 11.15
4/14/2022 7:30:00 PM 8.94 48.092 0.053 7.5 26.61 11.16
4/14/2022 7:45:00 PM 8.84 47.912 0.053 7.49 24.96 11.18
4/14/2022 8:00:00 PM 8.74 47.732 0.053 7.48 22.34 11.2
4/14/2022 8:15:00 PM 8.63 47.534 0.053 7.48 18.63 11.22
4/14/2022 8:30:00 PM 8.52 47.336 0.053 7.47 18.82 11.25
4/14/2022 8:45:00 PM 8.42 47.156 0.053 7.47 19.03 11.3
4/14/2022 9:00:00 PM 8.31 46.958 0.053 7.47 19.52 11.33
4/14/2022 9:15:00 PM 8.2 46.76 0.054 7.46 17.61 11.37
4/14/2022 9:30:00 PM 8.1 46.58 0.054 7.47 18.86 11.39
4/14/2022 9:45:00 PM 8 46.4 0.054 7.47 16.54 11.42
4/14/2022 10:00:00 PM 7.9 46.22 0.054 7.46 16.02 11.46
4/14/2022 10:15:00 PM 7.79 46.022 0.054 7.46 17.68 11.48
4/14/2022 10:30:00 PM 7.68 45.824 0.054 7.46 18.78 11.52
4/14/2022 10:45:00 PM 7.57 45.626 0.054 7.46 17.35 11.56
4/14/2022 11:00:00 PM 7.47 45.446 0.054 7.46 18.29 11.59
4/14/2022 11:15:00 PM 7.36 45.248 0.054 7.46 16.64 11.62
4/14/2022 11:30:00 PM 7.25 45.05 0.054 7.46 17.41 11.65
4/14/2022 11:45:00 PM 7.15 44.87 0.054 7.46 16.74 11.69
4/15/2022 12:00:00 AM 7.04 44.672 0.054 7.46 15.18 11.72
4/15/2022 12:15:00 AM 6.94 44.492 0.054 7.46 16.55 11.75
4/15/2022 12:30:00 AM 6.84 44.312 0.054 7.46 14.25 11.79
4/15/2022 12:45:00 AM 6.74 44.132 0.054 7.45 15.97 11.81
4/15/2022 1:00:00 AM 6.64 43.952 0.054 7.45 15.56 11.84
4/15/2022 1:15:00 AM 6.54 43.772 0.054 7.45 14.55 11.88
4/15/2022 1:30:00 AM 6.45 43.61 0.054 7.45 14.82 11.91
4/15/2022 1:45:00 AM 6.36 43.448 0.054 7.45 14.92 11.94
4/15/2022 2:00:00 AM 6.27 43.286 0.054 7.45 13.84 11.97
4/15/2022 2:15:00 AM 6.18 43.124 0.054 7.45 12.91 12
4/15/2022 2:30:00 AM 6.1 42.98 0.054 7.44 14.54 12.03
4/15/2022 2:45:00 AM 6.01 42.818 0.054 7.45 14.83 12.06
4/15/2022 3:00:00 AM 5.93 42.674 0.054 7.44 13.6 12.08
4/15/2022 3:15:00 AM 5.86 42.548 0.054 7.44 14.52 12.11
4/15/2022 3:30:00 AM 5.78 42.404 0.054 7.44 13.49 12.13
4/15/2022 3:45:00 AM 5.7 42.26 0.054 7.44 14.33 12.16
4/15/2022 4:00:00 AM 5.63 42.134 0.054 7.44 13.7 12.19
4/15/2022 4:15:00 AM 5.55 41.99 0.054 7.44 12.46 12.21
4/15/2022 4:30:00 AM 5.48 41.864 0.054 7.44 12.85 12.24
4/15/2022 4:45:00 AM 5.41 41.738 0.054 7.44 13.11 12.26
4/15/2022 5:00:00 AM 5.35 41.63 0.054 7.43 12.7 12.28
4/15/2022 5:15:00 AM 5.28 41.504 0.054 7.44 12.04 12.31
4/15/2022 5:30:00 AM 5.22 41.396 0.054 7.43 12.34 12.32
4/15/2022 5:45:00 AM 5.16 41.288 0.054 7.43 12.81 12.34
4/15/2022 6:00:00 AM 5.1 41.18 0.054 7.43 12.7 12.36
4/15/2022 6:15:00 AM 5.04 41.072 0.054 7.43 12.77 12.4
4/15/2022 6:30:00 AM 4.98 40.964 0.054 7.43 12.14 12.42
4/15/2022 6:45:00 AM 4.93 40.874 0.054 7.43 11.47 12.45
4/15/2022 7:00:00 AM 4.89 40.802 0.054 7.44 13.31 12.49
4/15/2022 7:15:00 AM 4.87 40.766 0.054 7.45 13.29 12.51
4/15/2022 7:30:00 AM 4.85 40.73 0.054 7.45 12.95 12.54
4/15/2022 7:45:00 AM 4.85 40.73 0.054 7.46 11.88 12.56
4/15/2022 8:00:00 AM 4.87 40.766 0.054 7.47 12.5 12.57
4/15/2022 8:15:00 AM 4.92 40.856 0.054 7.47 15.71 12.58
4/15/2022 8:30:00 AM 4.99 40.982 0.054 7.49 13.52 12.57
4/15/2022 8:45:00 AM 5.08 41.144 0.054 7.47 12.68 12.54
4/15/2022 9:00:00 AM 5.2 41.36 0.054 7.48 14.46 12.51
4/15/2022 9:15:00 AM 5.35 41.63 0.054 7.48 11.72 12.48
4/15/2022 9:30:00 AM 5.52 41.936 0.054 7.49 12.54 12.43
4/15/2022 9:45:00 AM 5.73 42.314 0.054 7.5 12.62 12.38
4/15/2022 10:00:00 AM 5.95 42.71 0.054 7.52 12.5 12.32
4/15/2022 10:15:00 AM 6.16 43.088 0.054 7.51 13.66 12.26
4/15/2022 10:30:00 AM 6.39 43.502 0.054 7.52 14.73 12.2
4/15/2022 10:45:00 AM 6.6 43.88 0.053 7.52 13.1 12.13
4/15/2022 11:00:00 AM 6.8 44.24 0.053 7.53 12.74 12.07
4/15/2022 11:15:00 AM 7 44.6 0.053 7.53 13.04 12.01
4/15/2022 11:30:00 AM 7.2 44.96 0.053 7.53 12.51 11.94
4/15/2022 11:45:00 AM 7.43 45.374 0.053 7.54 12.41 11.87
4/15/2022 12:00:00 PM 7.65 45.77 0.053 7.54 12.52 11.8
4/15/2022 12:15:00 PM 7.88 46.184 0.053 7.54 13.02 11.74
4/15/2022 12:30:00 PM 7.93 46.274 0.053 7.54 13.61 11.68
4/15/2022 12:45:00 PM 7.98 46.364 0.053 7.54 15.21 11.66
4/15/2022 1:00:00 PM 8.13 46.634 0.053 7.55 14.41 11.62
4/15/2022 1:15:00 PM 8.3 46.94 0.053 7.55 14.79 11.56
4/15/2022 1:30:00 PM 8.18 46.724 0.053 7.55 15.76 11.56
4/15/2022 1:45:00 PM 8.37 47.066 0.053 7.55 16.06 11.55
4/15/2022 2:00:00 PM 8.59 47.462 0.053 7.56 15.55 11.48
4/15/2022 2:15:00 PM 8.86 47.948 0.053 7.55 16.4 11.41
4/15/2022 2:30:00 PM 8.99 48.182 0.053 7.56 16.22 11.37
4/15/2022 2:45:00 PM 9.01 48.218 0.053 7.55 17.64 11.33
4/15/2022 3:00:00 PM 8.95 48.11 0.053 7.55 16.36 11.32
4/15/2022 3:15:00 PM 8.88 47.984 0.053 7.56 16.9 11.33
4/15/2022 3:30:00 PM 8.85 47.93 0.053 7.56 15.62 11.35
4/15/2022 3:45:00 PM 8.92 48.056 0.053 7.56 16.72 11.34
4/15/2022 4:00:00 PM 9 48.2 0.053 7.56 19.28 11.29
4/15/2022 4:15:00 PM 8.93 48.074 0.053 7.56 18.31 11.28
4/15/2022 4:30:00 PM 8.83 47.894 0.053 7.55 15.84 11.27
4/15/2022 4:45:00 PM 8.87 47.966 0.053 7.55 17.93 11.32
4/15/2022 5:00:00 PM 8.9 48.02 0.053 7.56 17.49 11.3
4/15/2022 5:15:00 PM 8.89 48.002 0.053 7.56 16.36 11.29
4/15/2022 5:30:00 PM 8.84 47.912 0.054 7.55 17.11 11.28
4/15/2022 5:45:00 PM 8.8 47.84 0.054 7.55 17.88 11.28
4/15/2022 6:00:00 PM 8.78 47.804 0.054 7.55 17.19 11.29
4/15/2022 6:15:00 PM 8.8 47.84 0.054 7.55 17.09 11.28
4/15/2022 6:30:00 PM 8.78 47.804 0.054 7.54 18.83 11.27
4/15/2022 6:45:00 PM 8.77 47.786 0.054 7.54 16.67 11.27
4/15/2022 7:00:00 PM 8.73 47.714 0.054 7.53 16.29 11.26
4/15/2022 7:15:00 PM 8.68 47.624 0.054 7.53 17.44 11.25
4/15/2022 7:30:00 PM 8.65 47.57 0.054 7.52 17.97 11.23
4/15/2022 7:45:00 PM 8.63 47.534 0.054 7.51 17.4 11.23
4/15/2022 8:00:00 PM 8.6 47.48 0.054 7.5 15.7 11.23
4/15/2022 8:15:00 PM 8.58 47.444 0.054 7.49 17.11 11.23
4/15/2022 8:30:00 PM 8.56 47.408 0.054 7.48 15.84 11.23
4/15/2022 8:45:00 PM 8.54 47.372 0.055 7.48 16.24 11.25
4/15/2022 9:00:00 PM 8.51 47.318 0.055 7.48 16.84 11.25
4/15/2022 9:15:00 PM 8.48 47.264 0.055 7.48 17.84 11.27
4/15/2022 9:30:00 PM 8.43 47.174 0.055 7.47 18.72 11.27
4/15/2022 9:45:00 PM 8.36 47.048 0.055 7.48 16.75 11.29
4/15/2022 10:00:00 PM 8.3 46.94 0.055 7.48 16.21 11.3
4/15/2022 10:15:00 PM 8.24 46.832 0.055 7.48 16.33 11.33
4/15/2022 10:30:00 PM 8.2 46.76 0.055 7.48 15.98 11.34
4/15/2022 10:45:00 PM 8.16 46.688 0.055 7.47 16.46 11.34
4/15/2022 11:00:00 PM 8.12 46.616 0.055 7.47 17.98 11.35
4/15/2022 11:15:00 PM 8.07 46.526 0.055 7.49 15.43 11.36
4/15/2022 11:30:00 PM 8.02 46.436 0.055 7.47 16.75 11.38
4/15/2022 11:45:00 PM 7.99 46.382 0.055 7.47 16.17 11.39
4/16/2022 12:00:00 AM 7.95 46.31 0.055 7.47 16.36 11.41
4/16/2022 12:15:00 AM 7.9 46.22 0.055 7.48 15.47 11.43
4/16/2022 12:30:00 AM 7.87 46.166 0.055 7.48 15.68 11.43
4/16/2022 12:45:00 AM 7.84 46.112 0.055 7.48 16.67 11.44
4/16/2022 1:00:00 AM 7.79 46.022 0.055 7.48 14.89 11.45
4/16/2022 1:15:00 AM 7.73 45.914 0.055 7.47 15.24 11.46
4/16/2022 1:30:00 AM 7.68 45.824 0.055 7.47 16 11.48
4/16/2022 1:45:00 AM 7.64 45.752 0.055 7.47 16.64 11.5
4/16/2022 2:00:00 AM 7.61 45.698 0.055 7.48 16.46 11.5
4/16/2022 2:15:00 AM 7.59 45.662 0.055 7.48 17.52 11.52
4/16/2022 2:30:00 AM 7.57 45.626 0.055 7.48 16.73 11.52
4/16/2022 2:45:00 AM 7.54 45.572 0.055 7.47 15.26 11.53
4/16/2022 3:00:00 AM 7.52 45.536 0.055 7.47 16.64 11.54
4/16/2022 3:15:00 AM 7.5 45.5 0.055 7.47 16.38 11.54
4/16/2022 3:30:00 AM 7.49 45.482 0.055 7.46 16.11 11.54
4/16/2022 3:45:00 AM 7.47 45.446 0.055 7.47 17.73 11.56
4/16/2022 4:00:00 AM 7.46 45.428 0.055 7.47 16.76 11.56
4/16/2022 4:15:00 AM 7.44 45.392 0.055 7.47 16.99 11.58
4/16/2022 4:30:00 AM 7.43 45.374 0.055 7.47 16.31 11.58
4/16/2022 4:45:00 AM 7.4 45.32 0.055 7.47 16.63 11.58
4/16/2022 5:00:00 AM 7.38 45.284 0.055 7.46 16.28 11.59
4/16/2022 5:15:00 AM 7.36 45.248 0.055 7.46 15.65 11.59
4/16/2022 5:30:00 AM 7.34 45.212 0.055 7.47 18.01 11.6
4/16/2022 5:45:00 AM 7.32 45.176 0.055 7.47 17.66 11.61
4/16/2022 6:00:00 AM 7.3 45.14 0.055 7.47 16.84 11.61
4/16/2022 6:15:00 AM 7.3 45.14 0.055 7.47 16.06 11.61
4/16/2022 6:30:00 AM 7.29 45.122 0.055 7.46 16.47 11.62
4/16/2022 6:45:00 AM 7.29 45.122 0.055 7.46 15.57 11.62
4/16/2022 7:00:00 AM 7.28 45.104 0.055 7.47 17.65 11.63
4/16/2022 7:15:00 AM 7.29 45.122 0.055 7.47 28.61 11.65
4/16/2022 7:30:00 AM 7.29 45.122 0.055 7.47 1093.15 11.65
4/16/2022 7:45:00 AM 7.3 45.14 0.055 7.47 14.89 11.67
4/16/2022 8:00:00 AM 7.32 45.176 0.055 7.49 17.43 11.69
4/16/2022 8:15:00 AM 7.34 45.212 0.055 7.5 16.03 11.69
4/16/2022 8:30:00 AM 7.37 45.266 0.055 7.51 16.79 11.69
4/16/2022 8:45:00 AM 7.41 45.338 0.055 7.52 17.7 11.7
4/16/2022 9:00:00 AM 7.45 45.41 0.055 7.54 17.62 11.71
4/16/2022 9:15:00 AM 7.48 45.464 0.055 7.54 15.36 11.69
4/16/2022 9:30:00 AM 7.56 45.608 0.055 7.55 16.91 11.69
4/16/2022 9:45:00 AM 7.6 45.68 0.055 7.56 14.74 11.67
4/16/2022 10:00:00 AM 7.65 45.77 0.055 7.56 17.6 11.66
4/16/2022 10:15:00 AM 7.71 45.878 0.055 7.56 14.95 11.64
4/16/2022 10:30:00 AM 7.73 45.914 0.055 7.56 14.24 11.63
4/16/2022 10:45:00 AM 7.74 45.932 0.055 7.56 15.54 11.6
4/16/2022 11:00:00 AM 7.72 45.896 0.055 7.54 14.75 11.57
4/16/2022 11:15:00 AM 7.71 45.878 0.055 7.53 16.65 11.56
4/16/2022 11:30:00 AM 7.71 45.878 0.055 7.53 15.57 11.57
4/16/2022 11:45:00 AM 7.67 45.806 0.055 7.53 16.95 11.57
4/16/2022 12:00:00 PM 7.65 45.77 0.054 7.53 17.71 11.61
4/16/2022 12:15:00 PM 7.63 45.734 0.055 7.53 20.41 11.61
4/16/2022 12:30:00 PM 7.59 45.662 0.056 7.53 25.68 11.62
4/16/2022 12:45:00 PM 7.55 45.59 0.056 7.54 23.02 11.63
4/16/2022 1:00:00 PM 7.52 45.536 0.057 7.54 35.91 11.63
4/16/2022 1:15:00 PM 7.47 45.446 0.057 7.54 37 11.62
4/16/2022 1:30:00 PM 7.42 45.356 0.058 7.54 45.14 11.66
4/16/2022 1:45:00 PM 7.4 45.32 0.059 7.57 74.76 11.66
4/16/2022 2:00:00 PM 7.37 45.266 0.06 7.57 78.98 11.66
4/16/2022 2:15:00 PM 7.36 45.248 0.06 7.58 59.1 11.67
4/16/2022 2:30:00 PM 7.35 45.23 0.06 7.59 57.25 11.69
4/16/2022 2:45:00 PM 7.39 45.302 0.058 7.58 44.14 11.72
4/16/2022 3:00:00 PM 7.39 45.302 0.058 7.59 40.7 11.7
4/16/2022 3:15:00 PM 7.38 45.284 0.057 7.58 37.4 11.71
4/16/2022 3:30:00 PM 7.36 45.248 0.057 7.57 34.08 11.67
4/16/2022 3:45:00 PM 7.29 45.122 0.058 7.57 33.91 11.68
4/16/2022 4:00:00 PM 7.24 45.032 0.059 7.57 32.39 11.69
4/16/2022 4:15:00 PM 7.21 44.978 0.06 7.59 34.6 11.73
4/16/2022 4:30:00 PM 7.23 45.014 0.061 7.61 39.05 11.75
4/16/2022 4:45:00 PM 7.21 44.978 0.062 7.62 37.9 11.73
4/16/2022 5:00:00 PM 7.17 44.906 0.063 7.63 39.46 11.74
4/16/2022 5:15:00 PM 7.15 44.87 0.063 7.64 35.66 11.73
4/16/2022 5:30:00 PM 7.16 44.888 0.063 7.64 34.75 11.76
4/16/2022 5:45:00 PM 7.14 44.852 0.062 7.65 30.54 11.75
4/16/2022 6:00:00 PM 7.14 44.852 0.062 7.64 23.71 11.77
4/16/2022 6:15:00 PM 7.1 44.78 0.061 7.63 28.74 11.76
4/16/2022 6:30:00 PM 7.06 44.708 0.061 7.64 24.17 11.76
4/16/2022 6:45:00 PM 6.99 44.582 0.06 7.62 22.88 11.76
4/16/2022 7:00:00 PM 6.94 44.492 0.06 7.59 20.76 11.77
4/16/2022 7:15:00 PM 6.9 44.42 0.06 7.58 20.38 11.76
4/16/2022 7:30:00 PM 6.84 44.312 0.059 7.58 20.62 11.77
4/16/2022 7:45:00 PM 6.78 44.204 0.059 7.56 15.54 11.77
4/16/2022 8:00:00 PM 6.72 44.096 0.059 7.55 22.58 11.78
4/16/2022 8:15:00 PM 6.66 43.988 0.059 7.54 18.05 11.79
4/16/2022 8:30:00 PM 6.6 43.88 0.059 7.53 17.8 11.82
4/16/2022 8:45:00 PM 6.55 43.79 0.058 7.53 17.48 11.84
4/16/2022 9:00:00 PM 6.5 43.7 0.058 7.52 17.54 11.86
4/16/2022 9:15:00 PM 6.44 43.592 0.058 7.53 16.13 11.88
4/16/2022 9:30:00 PM 6.37 43.466 0.058 7.52 15.37 11.9
4/16/2022 9:45:00 PM 6.3 43.34 0.058 7.52 15.82 11.92
4/16/2022 10:00:00 PM 6.23 43.214 0.058 7.52 14.36 11.94
4/16/2022 10:15:00 PM 6.16 43.088 0.058 7.52 14.09 11.97
4/16/2022 10:30:00 PM 6.08 42.944 0.058 7.52 14.84 12
4/16/2022 10:45:00 PM 6.01 42.818 0.058 7.51 15.25 12.03
4/16/2022 11:00:00 PM 5.94 42.692 0.058 7.51 14.51 12.05
4/16/2022 11:15:00 PM 5.86 42.548 0.058 7.51 13.69 12.06
4/16/2022 11:30:00 PM 5.8 42.44 0.058 7.51 14.79 12.09
4/16/2022 11:45:00 PM 5.73 42.314 0.058 7.51 13.1 12.12
4/17/2022 12:00:00 AM 5.69 42.242 0.058 7.51 12.75 12.13
4/17/2022 12:15:00 AM 5.64 42.152 0.058 7.5 13.97 12.14
4/17/2022 12:30:00 AM 5.57 42.026 0.058 7.5 13.72 12.17
4/17/2022 12:45:00 AM 5.5 41.9 0.058 7.5 12.96 12.19
4/17/2022 1:00:00 AM 5.44 41.792 0.058 7.5 14.34 12.22
4/17/2022 1:15:00 AM 5.4 41.72 0.058 7.51 12.72 12.24
4/17/2022 1:30:00 AM 5.38 41.684 0.058 7.5 13.13 12.25
4/17/2022 1:45:00 AM 5.35 41.63 0.058 7.5 12.48 12.26
4/17/2022 2:00:00 AM 5.31 41.558 0.057 7.5 13.54 12.27
4/17/2022 2:15:00 AM 5.28 41.504 0.057 7.49 13.3 12.28
4/17/2022 2:30:00 AM 5.25 41.45 0.057 7.49 13.18 12.29
4/17/2022 2:45:00 AM 5.19 41.342 0.057 7.49 12.8 12.29
4/17/2022 3:00:00 AM 5.13 41.234 0.057 7.49 12.24 12.33
4/17/2022 3:15:00 AM 5.09 41.162 0.057 7.49 13.49 12.34
4/17/2022 3:30:00 AM 5.06 41.108 0.057 7.49 12.98 12.35
4/17/2022 3:45:00 AM 5.03 41.054 0.057 7.49 12.71 12.36
4/17/2022 4:00:00 AM 5.01 41.018 0.057 7.49 12.24 12.36
4/17/2022 4:15:00 AM 4.98 40.964 0.057 7.48 14.65 12.39
4/17/2022 4:30:00 AM 4.95 40.91 0.057 7.48 13.02 12.4
4/17/2022 4:45:00 AM 4.92 40.856 0.057 7.49 12.67 12.41
4/17/2022 5:00:00 AM 4.88 40.784 0.057 7.49 12.78 12.43
4/17/2022 5:15:00 AM 4.84 40.712 0.057 7.48 11.62 12.44
4/17/2022 5:30:00 AM 4.81 40.658 0.057 7.48 12.29 12.45
4/17/2022 5:45:00 AM 4.77 40.586 0.057 7.48 12.17 12.46
4/17/2022 6:00:00 AM 4.73 40.514 0.057 7.49 12.43 12.48
4/17/2022 6:15:00 AM 4.7 40.46 0.057 7.48 12.19 12.5
4/17/2022 6:30:00 AM 4.67 40.406 0.057 7.48 13.7 12.52
4/17/2022 6:45:00 AM 4.64 40.352 0.057 7.48 12.86 12.53
4/17/2022 7:00:00 AM 4.61 40.298 0.057 7.49 12.43 12.56
4/17/2022 7:15:00 AM 4.58 40.244 0.057 7.49 11.24 12.57
4/17/2022 7:30:00 AM 4.58 40.244 0.057 7.5 12.11 12.62
4/17/2022 7:45:00 AM 4.56 40.208 0.057 7.51 12.36 12.64
4/17/2022 8:00:00 AM 4.27 39.686 0.057 7.51 11.58 12.66
4/17/2022 8:15:00 AM 4.01 39.218 0.056 7.49 14.41 12.76
4/17/2022 8:30:00 AM 3.74 38.732 0.056 7.5 15.74 12.88
4/17/2022 8:45:00 AM 3.88 38.984 0.056 7.52 14.26 12.93
4/17/2022 9:00:00 AM 4.03 39.254 0.056 7.53 15.17 12.92
4/17/2022 9:15:00 AM 4.11 39.398 0.056 7.51 14.3 12.91
4/17/2022 9:30:00 AM 4.13 39.434 0.057 7.53 14.86 12.89
4/17/2022 9:45:00 AM 4.12 39.416 0.057 7.53 14.27 12.9
4/17/2022 10:00:00 AM 4.25 39.65 0.056 7.53 13.09 12.89
4/17/2022 10:15:00 AM 4.51 40.118 0.056 7.53 13.08 12.83
4/17/2022 10:30:00 AM 4.53 40.154 0.057 7.53 14.19 12.78
4/17/2022 10:45:00 AM 4.43 39.974 0.057 7.55 12.2 12.82
4/17/2022 11:00:00 AM 4.43 39.974 0.057 7.53 13.38 12.82
4/17/2022 11:15:00 AM 4.42 39.956 0.057 7.53 13.06 12.83
4/17/2022 11:30:00 AM 4.56 40.208 0.057 7.54 18.81 12.8
4/17/2022 11:45:00 AM 4.63 40.334 0.056 7.53 13.25 12.76
4/17/2022 12:00:00 PM 4.56 40.208 0.056 7.54 13.32 12.76
4/17/2022 12:15:00 PM 4.64 40.352 0.056 7.54 13.88 12.78
4/17/2022 12:30:00 PM 5 41 0.056 7.55 14.07 12.67
4/17/2022 12:45:00 PM 4.95 40.91 0.056 7.55 13.4 12.65
4/17/2022 1:00:00 PM 5.13 41.234 0.057 7.54 14.01 12.65
4/17/2022 1:15:00 PM 5.27 41.486 0.057 7.55 14.03 12.58
4/17/2022 1:30:00 PM 5.46 41.828 0.057 7.55 13.25 12.49
4/17/2022 1:45:00 PM 5.44 41.792 0.057 7.55 13.21 12.5
4/17/2022 2:00:00 PM 5.6 42.08 0.056 7.56 15.06 12.44
4/17/2022 2:15:00 PM 5.74 42.332 0.056 7.56 12.2 12.39
4/17/2022 2:30:00 PM 5.89 42.602 0.056 7.55 13.7 12.33
4/17/2022 2:45:00 PM 5.86 42.548 0.056 7.55 13.25 12.34
4/17/2022 3:00:00 PM 6.03 42.854 0.056 7.55 14.2 12.29
4/17/2022 3:15:00 PM 6.17 43.106 0.056 7.56 13.4 12.25
4/17/2022 3:30:00 PM 5.98 42.764 0.056 7.56 12.34 12.28
4/17/2022 3:45:00 PM 6.05 42.89 0.056 7.55 13.06 12.28
4/17/2022 4:00:00 PM 6.09 42.962 0.056 7.57 13.28 12.27
4/17/2022 4:15:00 PM 6.01 42.818 0.056 7.55 13.73 12.27
4/17/2022 4:30:00 PM 5.95 42.71 0.056 7.55 13.86 12.27
4/17/2022 4:45:00 PM 5.82 42.476 0.056 7.55 13.67 12.28
4/17/2022 5:00:00 PM 5.79 42.422 0.056 7.55 13.86 12.31
4/17/2022 5:15:00 PM 5.84 42.512 0.056 7.55 13.97 12.32
4/17/2022 5:30:00 PM 5.78 42.404 0.056 7.55 14.73 12.32
4/17/2022 5:45:00 PM 5.65 42.17 0.056 7.55 14.39 12.34
4/17/2022 6:00:00 PM 5.56 42.008 0.056 7.54 14.43 12.36
4/17/2022 6:15:00 PM 5.54 41.972 0.056 7.53 11.87 12.38
4/17/2022 6:30:00 PM 5.5 41.9 0.056 7.53 14.84 12.38
4/17/2022 6:45:00 PM 5.48 41.864 0.056 7.53 13.71 12.39
4/17/2022 7:00:00 PM 5.47 41.846 0.056 7.53 15.25 12.39
4/17/2022 7:15:00 PM 5.43 41.774 0.057 7.53 14.86 12.38
4/17/2022 7:30:00 PM 5.38 41.684 0.057 7.52 15.05 12.39
4/17/2022 7:45:00 PM 5.32 41.576 0.057 7.5 14.05 12.38
4/17/2022 8:00:00 PM 5.25 41.45 0.057 7.5 15.31 12.39
4/17/2022 8:15:00 PM 5.17 41.306 0.057 7.49 14.21 12.41
4/17/2022 8:30:00 PM 5.1 41.18 0.057 7.49 14.87 12.43
4/17/2022 8:45:00 PM 5.03 41.054 0.057 7.48 15.27 12.46
4/17/2022 9:00:00 PM 4.95 40.91 0.057 7.48 15.57 12.49
4/17/2022 9:15:00 PM 4.88 40.784 0.057 7.48 15.66 12.51
4/17/2022 9:30:00 PM 4.8 40.64 0.057 7.48 16.14 12.54
4/17/2022 9:45:00 PM 4.73 40.514 0.057 7.48 12.99 12.56
4/17/2022 10:00:00 PM 4.65 40.37 0.057 7.47 14.12 12.6
4/17/2022 10:15:00 PM 4.58 40.244 0.057 7.48 14.53 12.62
4/17/2022 10:30:00 PM 4.51 40.118 0.057 7.48 13.72 12.64
4/17/2022 10:45:00 PM 4.44 39.992 0.057 7.47 13.48 12.67
4/17/2022 11:00:00 PM 4.37 39.866 0.057 7.47 12.26 12.69
4/17/2022 11:15:00 PM 4.3 39.74 0.057 7.47 13.9 12.73
4/17/2022 11:30:00 PM 4.23 39.614 0.057 7.47 14.32 12.75
4/17/2022 11:45:00 PM 4.16 39.488 0.057 7.47 12.87 12.76
4/18/2022 12:00:00 AM 4.1 39.38 0.057 7.47 13.54 12.8
4/18/2022 12:15:00 AM 4.03 39.254 0.057 7.47 14.45 12.82
4/18/2022 12:30:00 AM 3.97 39.146 0.057 7.47 17.84 12.84
4/18/2022 12:45:00 AM 3.91 39.038 0.057 7.46 15.2 12.85
4/18/2022 1:00:00 AM 3.84 38.912 0.057 7.47 12.49 12.89
4/18/2022 1:15:00 AM 3.79 38.822 0.057 7.46 13.25 12.9
4/18/2022 1:30:00 AM 3.73 38.714 0.057 7.46 13.36 12.92
4/18/2022 1:45:00 AM 3.67 38.606 0.057 7.46 12.45 12.95
4/18/2022 2:00:00 AM 3.61 38.498 0.057 7.46 12.4 12.97
4/18/2022 2:15:00 AM 3.55 38.39 0.058 7.46 13.23 12.98
4/18/2022 2:30:00 AM 3.5 38.3 0.058 7.46 13.03 13.01
4/18/2022 2:45:00 AM 3.44 38.192 0.058 7.46 12.22 13.03
4/18/2022 3:00:00 AM 3.39 38.102 0.058 7.46 15.52 13.05
4/18/2022 3:15:00 AM 3.33 37.994 0.058 7.46 12.62 13.07
4/18/2022 3:30:00 AM 3.28 37.904 0.058 7.46 12.62 13.08
4/18/2022 3:45:00 AM 3.22 37.796 0.057 7.46 12.03 13.1
4/18/2022 4:00:00 AM 3.17 37.706 0.058 7.45 12.11 13.12
4/18/2022 4:15:00 AM 3.12 37.616 0.058 7.46 11.97 13.14
4/18/2022 4:30:00 AM 3.07 37.526 0.058 7.46 13.62 13.16
4/18/2022 4:45:00 AM 3.02 37.436 0.058 7.45 12.72 13.18
4/18/2022 5:00:00 AM 2.97 37.346 0.058 7.45 11.99 13.2
4/18/2022 5:15:00 AM 2.92 37.256 0.058 7.45 11.55 13.22
4/18/2022 5:30:00 AM 2.87 37.166 0.058 7.45 14.06 13.24
4/18/2022 5:45:00 AM 2.82 37.076 0.058 7.45 12.42 13.25
4/18/2022 6:00:00 AM 2.77 36.986 0.058 7.44 11.51 13.25
4/18/2022 6:15:00 AM 2.72 36.896 0.058 7.45 12.36 13.29
4/18/2022 6:30:00 AM 2.67 36.806 0.058 7.44 11.22 13.3
4/18/2022 6:45:00 AM 2.63 36.734 0.058 7.45 13.07 13.33
4/18/2022 7:00:00 AM 2.61 36.698 0.057 7.46 12.06 13.36
4/18/2022 7:15:00 AM 2.59 36.662 0.057 7.46 12.42 13.39
4/18/2022 7:30:00 AM 2.59 36.662 0.057 7.47 12.71 13.43
4/18/2022 7:45:00 AM 2.62 36.716 0.057 7.47 11.65 13.43
4/18/2022 8:00:00 AM 2.66 36.788 0.057 7.48 12.46 13.44
4/18/2022 8:15:00 AM 2.71 36.878 0.057 7.48 12.58 13.42
4/18/2022 8:30:00 AM 2.81 37.058 0.057 7.49 12.08 13.4
4/18/2022 8:45:00 AM 2.95 37.31 0.057 7.49 11.49 13.37
4/18/2022 9:00:00 AM 3.12 37.616 0.057 7.5 11.99 13.32
4/18/2022 9:15:00 AM 3.26 37.868 0.057 7.51 11.59 13.27
4/18/2022 9:30:00 AM 3.39 38.102 0.057 7.52 12.25 13.22
4/18/2022 9:45:00 AM 3.49 38.282 0.057 7.52 11.88 13.18
4/18/2022 10:00:00 AM 3.57 38.426 0.057 7.53 12.09 13.13
4/18/2022 10:15:00 AM 3.63 38.534 0.057 7.53 11.81 13.12
4/18/2022 10:30:00 AM 3.68 38.624 0.057 7.53 11.88 13.1
4/18/2022 10:45:00 AM 3.78 38.804 0.057 7.54 12.71 13.06
4/18/2022 11:00:00 AM 3.95 39.11 0.057 7.54 12.83 13.02
4/18/2022 11:15:00 AM 4.12 39.416 0.057 7.53 12.68 12.94
4/18/2022 11:30:00 AM 4.13 39.434 0.057 7.54 12.08 12.91
4/18/2022 11:45:00 AM 4.11 39.398 0.057 7.54 11.63 12.91
4/18/2022 12:00:00 PM 4.12 39.416 0.057 7.54 11.5 12.9
4/18/2022 12:15:00 PM 4.16 39.488 0.057 7.54 11.15 12.89
4/18/2022 12:30:00 PM 4.19 39.542 0.056 7.54 12.83 12.88
4/18/2022 12:45:00 PM 4.22 39.596 0.056 7.54 12.35 12.86
4/18/2022 1:00:00 PM 4.25 39.65 0.056 7.54 12.71 12.84
4/18/2022 1:15:00 PM 4.28 39.704 0.056 7.54 12.53 12.83
4/18/2022 1:30:00 PM 4.35 39.83 0.056 7.54 12.44 12.81
4/18/2022 1:45:00 PM 4.4 39.92 0.056 7.54 12.98 12.78
4/18/2022 2:00:00 PM 4.43 39.974 0.056 7.54 12.38 12.76
4/18/2022 2:15:00 PM 4.45 40.01 0.056 7.54 12.22 12.75
4/18/2022 2:30:00 PM 4.51 40.118 0.056 7.54 12.67 12.73
4/18/2022 2:45:00 PM 4.51 40.118 0.056 7.54 11.64 12.71
4/18/2022 3:00:00 PM 4.47 40.046 0.056 7.54 12.92 12.71
4/18/2022 3:15:00 PM 4.43 39.974 0.056 7.54 13.04 12.7
4/18/2022 3:30:00 PM 4.36 39.848 0.056 7.54 12.18 12.72
4/18/2022 3:45:00 PM 4.32 39.776 0.056 7.53 12.66 12.73
4/18/2022 4:00:00 PM 4.3 39.74 0.056 7.53 12.58 12.74
4/18/2022 4:15:00 PM 4.18 39.524 0.056 7.52 12.56 12.74
4/18/2022 4:30:00 PM 4.03 39.254 0.056 7.51 13.54 12.75
4/18/2022 4:45:00 PM 3.88 38.984 0.056 7.51 13.71 12.79
4/18/2022 5:00:00 PM 3.81 38.858 0.056 7.5 13.72 12.81
4/18/2022 5:15:00 PM 3.8 38.84 0.057 7.5 13.35 12.82
4/18/2022 5:30:00 PM 3.81 38.858 0.057 7.5 14.96 12.84
4/18/2022 5:45:00 PM 3.77 38.786 0.057 7.5 16.47 12.84
4/18/2022 6:00:00 PM 3.71 38.678 0.057 7.5 15.8 12.84
4/18/2022 6:15:00 PM 3.66 38.588 0.057 7.49 15.71 12.85
4/18/2022 6:30:00 PM 3.63 38.534 0.058 7.49 15.41 12.86
4/18/2022 6:45:00 PM 3.59 38.462 0.058 7.49 15.41 12.86
4/18/2022 7:00:00 PM 3.5 38.3 0.058 7.49 17.15 12.86
4/18/2022 7:15:00 PM 3.46 38.228 0.058 7.49 17.13 12.88
4/18/2022 7:30:00 PM 3.43 38.174 0.058 7.48 15.25 12.88
4/18/2022 7:45:00 PM 3.37 38.066 0.058 7.48 15.44 12.9
4/18/2022 8:00:00 PM 3.29 37.922 0.058 7.47 15.56 12.92
4/18/2022 8:15:00 PM 3.18 37.724 0.058 7.47 16.39 12.94
4/18/2022 8:30:00 PM 3.1 37.58 0.058 7.46 15.16 12.98
4/18/2022 8:45:00 PM 3.09 37.562 0.057 7.46 15.62 12.99
4/18/2022 9:00:00 PM 3.13 37.634 0.058 7.47 15.26 13
4/18/2022 9:15:00 PM 3.14 37.652 0.058 7.47 14.85 13
4/18/2022 9:30:00 PM 3.13 37.634 0.058 7.47 13.86 12.99
4/18/2022 9:45:00 PM 3.12 37.616 0.058 7.47 14.19 12.99
4/18/2022 10:00:00 PM 3.1 37.58 0.058 7.46 14.06 13
4/18/2022 10:15:00 PM 3.11 37.598 0.058 7.47 14.84 12.99
4/18/2022 10:30:00 PM 3.12 37.616 0.058 7.47 14.23 12.99
4/18/2022 10:45:00 PM 3.1 37.58 0.058 7.47 15.07 12.99
4/18/2022 11:00:00 PM 3.11 37.598 0.059 7.47 14.47 12.99
4/18/2022 11:15:00 PM 3.1 37.58 0.058 7.47 16.54 12.99
4/18/2022 11:30:00 PM 3.09 37.562 0.058 7.47 14.15 12.99
4/18/2022 11:45:00 PM 3.06 37.508 0.059 7.47 14.63 12.99
4/19/2022 12:00:00 AM 3.04 37.472 0.059 7.47 12.94 12.99
4/19/2022 12:15:00 AM 3.02 37.436 0.059 7.47 14.85 13
4/19/2022 12:30:00 AM 3.04 37.472 0.059 7.47 12.96 13
4/19/2022 12:45:00 AM 3.05 37.49 0.059 7.47 13.02 12.98
4/19/2022 1:00:00 AM 3.07 37.526 0.058 7.46 13.31 12.98
4/19/2022 1:15:00 AM 3.06 37.508 0.058 7.47 13.01 12.97
4/19/2022 1:30:00 AM 3.05 37.49 0.058 7.46 11.87 12.97
4/19/2022 1:45:00 AM 3.06 37.508 0.058 7.46 13.19 12.97
4/19/2022 2:00:00 AM 3.06 37.508 0.058 7.46 13.33 12.97
4/19/2022 2:15:00 AM 3.06 37.508 0.059 7.46 14.1 12.96
4/19/2022 2:30:00 AM 3.04 37.472 0.058 7.46 14.7 12.96
4/19/2022 2:45:00 AM 3.03 37.454 0.059 7.47 13.57 12.96
4/19/2022 3:00:00 AM 3.02 37.436 0.058 7.47 12.81 12.96
4/19/2022 3:15:00 AM 3.04 37.472 0.058 7.46 13.04 12.95
4/19/2022 3:30:00 AM 3.05 37.49 0.058 7.46 13.73 12.96
4/19/2022 3:45:00 AM 3.06 37.508 0.058 7.46 14.22 12.94
4/19/2022 4:00:00 AM 3.07 37.526 0.058 7.46 12.22 12.95
4/19/2022 4:15:00 AM 3.07 37.526 0.058 7.46 11.84 12.93
4/19/2022 4:30:00 AM 3.1 37.58 0.059 7.46 13.21 12.93
4/19/2022 4:45:00 AM 3.12 37.616 0.059 7.46 13.3 12.92
4/19/2022 5:00:00 AM 3.13 37.634 0.059 7.46 13.08 12.92
4/19/2022 5:15:00 AM 3.14 37.652 0.059 7.46 12.62 12.91
4/19/2022 5:30:00 AM 3.14 37.652 0.059 7.46 12.86 12.91
4/19/2022 5:45:00 AM 3.12 37.616 0.059 7.46 12.66 12.9
4/19/2022 6:00:00 AM 3.11 37.598 0.059 7.46 12.39 12.9
4/19/2022 6:15:00 AM 3.09 37.562 0.059 7.46 12.24 12.91
4/19/2022 6:30:00 AM 3.08 37.544 0.059 7.46 13.79 12.92
4/19/2022 6:45:00 AM 3.09 37.562 0.059 7.46 13.28 12.92
4/19/2022 7:00:00 AM 3.11 37.598 0.059 7.47 13.16 12.93
4/19/2022 7:15:00 AM 3.14 37.652 0.059 7.48 13 12.95
4/19/2022 7:30:00 AM 3.15 37.67 0.059 7.48 12.9 12.95
4/19/2022 7:45:00 AM 3.14 37.652 0.059 7.49 13.29 12.95
4/19/2022 8:00:00 AM 3.14 37.652 0.059 7.49 13.81 12.96
4/19/2022 8:15:00 AM 3.12 37.616 0.058 7.49 13.3 12.98
4/19/2022 8:30:00 AM 3.08 37.544 0.058 7.5 13.88 13.01
4/19/2022 8:45:00 AM 3.03 37.454 0.058 7.51 13.85 13.04
4/19/2022 9:00:00 AM 3 37.4 0.058 7.5 15.3 13.03
4/19/2022 9:15:00 AM 2.99 37.382 0.058 7.5 14.35 13.04
4/19/2022 9:30:00 AM 3.03 37.454 0.058 7.51 15.55 13.07
4/19/2022 9:45:00 AM 3.08 37.544 0.058 7.52 13.97 13.09
4/19/2022 10:00:00 AM 3 37.4 0.058 7.52 17.62 13.11
4/19/2022 10:15:00 AM 2.98 37.364 0.058 7.52 22.23 13.13
4/19/2022 10:30:00 AM 3.15 37.67 0.058 7.52 24.93 13.09
4/19/2022 10:45:00 AM 3.03 37.454 0.058 7.52 22.07 13.11
4/19/2022 11:00:00 AM 2.95 37.31 0.058 7.52 23.6 13.15
4/19/2022 11:15:00 AM 2.95 37.31 0.058 7.52 21.48 13.16
4/19/2022 11:30:00 AM 3.29 37.922 0.062 6.8 21.57 12.79
4/19/2022 11:45:00 AM 3.3 37.94 0.062 6.79 18.11 12.89
4/19/2022 12:00:00 PM 3.3 37.94 0.062 7.06 16.44 12.89
4/19/2022 12:15:00 PM 3.3 37.94 0.063 7.15 14.9 12.9
4/19/2022 12:30:00 PM 3.39 38.102 0.063 7.26 17.81 12.87
4/19/2022 12:45:00 PM 3.52 38.336 0.063 7.25 18.42 12.83
4/19/2022 1:00:00 PM 3.64 38.552 0.063 7.29 15.35 12.79
4/19/2022 1:15:00 PM 3.86 38.948 0.063 7.26 16.3 12.72
4/19/2022 1:30:00 PM 3.94 39.092 0.063 7.26 15.16 12.69
4/19/2022 1:45:00 PM 4.03 39.254 0.063 7.26 16.64 12.66
4/19/2022 2:00:00 PM 4.08 39.344 0.063 7.26 15 12.62
4/19/2022 2:15:00 PM 4.2 39.56 0.063 7.25 15.1 12.61
4/19/2022 2:30:00 PM 4.31 39.758 0.061 7.22 18.58 12.57
4/19/2022 2:45:00 PM 4.43 39.974 0.063 7.27 15.68 12.53
4/19/2022 3:00:00 PM 4.4 39.92 0.063 7.21 17.04 12.5
4/19/2022 3:15:00 PM 4.46 40.028 0.063 7.27 16.87 12.5
4/19/2022 3:30:00 PM 4.57 40.226 0.063 7.19 16.97 12.45
4/19/2022 3:45:00 PM 4.73 40.514 0.064 7.23 17.27 12.42
4/19/2022 4:00:00 PM 4.75 40.55 0.061 7.22 16.66 12.38
4/19/2022 4:15:00 PM 4.69 40.442 0.06 7.21 28.65 12.39
4/19/2022 4:30:00 PM 4.66 40.388 0.064 7.21 17.4 12.4
4/19/2022 4:45:00 PM 4.64 40.352 0.061 7.2 17.33 12.4
4/19/2022 5:00:00 PM 4.65 40.37 0.064 7.21 17.73 12.4
4/19/2022 5:15:00 PM 4.61 40.298 0.063 7.2 16.42 12.41
4/19/2022 5:30:00 PM 4.55 40.19 0.061 7.18 15.39 12.42
4/19/2022 5:45:00 PM 4.52 40.136 0.059 7.17 15.42 12.43
4/19/2022 6:00:00 PM 4.5 40.1 0.061 7.16 14.86 12.46
4/19/2022 6:15:00 PM 4.46 40.028 0.059 7.16 15.72 12.45
4/19/2022 6:30:00 PM 4.44 39.992 0.061 7.15 14.58 12.47
4/19/2022 6:45:00 PM 4.41 39.938 0.061 7.16 13.22 12.48
4/19/2022 7:00:00 PM 4.36 39.848 0.064 7.21 13.84 12.48
4/19/2022 7:15:00 PM 4.31 39.758 0.064 7.14 13.99 12.47
4/19/2022 7:30:00 PM 4.27 39.686 0.064 7.13 13.8 12.47
4/19/2022 7:45:00 PM 4.24 39.632 0.061 7.12 14.19 12.47
4/19/2022 8:00:00 PM 4.21 39.578 0.064 7.12 13.64 12.47
4/19/2022 8:15:00 PM 4.17 39.506 0.064 7.11 13.25 12.48
4/19/2022 8:30:00 PM 4.14 39.452 0.064 7.1 12.61 12.49
4/19/2022 8:45:00 PM 4.11 39.398 0.06 7.09 13.48 12.51
4/19/2022 9:00:00 PM 4.09 39.362 0.063 7.1 12.12 12.52
4/19/2022 9:15:00 PM 4.07 39.326 0.063 7.09 11.46 12.53
4/19/2022 9:30:00 PM 4.05 39.29 0.063 7.1 10.98 12.54
4/19/2022 9:45:00 PM 4.02 39.236 0.063 7.09 11.03 12.56
4/19/2022 10:00:00 PM 3.99 39.182 0.063 7.08 10.2 12.57
4/19/2022 10:15:00 PM 3.96 39.128 0.063 7.08 10.02 12.6
4/19/2022 10:30:00 PM 3.93 39.074 0.06 7.07 10.37 12.6
4/19/2022 10:45:00 PM 3.92 39.056 0.063 7.06 8.38 12.62
4/19/2022 11:00:00 PM 3.9 39.02 0.063 7.11 9.61 12.63
4/19/2022 11:15:00 PM 3.87 38.966 0.064 7.11 10.4 12.66
4/19/2022 11:30:00 PM 3.86 38.948 0.064 7.13 10.1 12.66
4/19/2022 11:45:00 PM 3.83 38.894 0.064 7.12 10.16 12.67
4/20/2022 12:00:00 AM 3.81 38.858 0.064 7.14 9.28 12.68
4/20/2022 12:15:00 AM 3.78 38.804 0.064 7.13 9.05 12.7
4/20/2022 12:30:00 AM 3.74 38.732 0.064 7.13 8.85 12.71
4/20/2022 12:45:00 AM 3.72 38.696 0.064 7.12 9.49 12.72
4/20/2022 1:00:00 AM 3.72 38.696 0.064 7.12 8.14 12.73
4/20/2022 1:15:00 AM 3.71 38.678 0.064 7.13 8.73 12.73
4/20/2022 1:30:00 AM 3.7 38.66 0.064 7.13 8.49 12.74
4/20/2022 1:45:00 AM 3.68 38.624 0.064 7.12 8.55 12.76
4/20/2022 2:00:00 AM 3.67 38.606 0.063 7.14 9.21 12.77
4/20/2022 2:15:00 AM 3.65 38.57 0.063 7.14 8.83 12.77
4/20/2022 2:30:00 AM 3.63 38.534 0.063 7.14 8.8 12.78
4/20/2022 2:45:00 AM 3.59 38.462 0.064 7.13 9 12.78
4/20/2022 3:00:00 AM 3.56 38.408 0.064 7.13 8.67 12.8
4/20/2022 3:15:00 AM 3.55 38.39 0.063 7.12 8.56 12.8
4/20/2022 3:30:00 AM 3.54 38.372 0.063 7.14 8.52 12.81
4/20/2022 3:45:00 AM 3.51 38.318 0.063 7.13 7.9 12.82
4/20/2022 4:00:00 AM 3.47 38.246 0.063 7.13 8.53 12.83
4/20/2022 4:15:00 AM 3.43 38.174 0.063 7.12 8.33 12.85
4/20/2022 4:30:00 AM 3.42 38.156 0.063 7.12 7.82 12.86
4/20/2022 4:45:00 AM 3.42 38.156 0.063 7.12 7.49 12.87
4/20/2022 5:00:00 AM 3.42 38.156 0.063 7.14 7 12.87
4/20/2022 5:15:00 AM 3.42 38.156 0.063 7.14 7.76 12.88
4/20/2022 5:30:00 AM 3.38 38.084 0.063 7.13 7.1 12.89
4/20/2022 5:45:00 AM 3.37 38.066 0.063 7.13 7.59 12.9
4/20/2022 6:00:00 AM 3.38 38.084 0.063 7.14 7.68 12.9
4/20/2022 6:15:00 AM 3.36 38.048 0.063 7.14 7.29 12.91
4/20/2022 6:30:00 AM 3.32 37.976 0.063 7.13 7.51 12.93
4/20/2022 6:45:00 AM 3.31 37.958 0.063 7.14 7.68 12.96
4/20/2022 7:00:00 AM 3.31 37.958 0.063 7.15 7.52 12.98
4/20/2022 7:15:00 AM 3.3 37.94 0.063 7.14 7.32 13
4/20/2022 7:30:00 AM 3.3 37.94 0.063 7.16 7.43 13.03
4/20/2022 7:45:00 AM 3.32 37.976 0.063 7.17 7.4 13.04
4/20/2022 8:00:00 AM 3.38 38.084 0.063 7.17 7.12 13.05
4/20/2022 8:15:00 AM 3.47 38.246 0.063 7.18 7.27 13.04
4/20/2022 8:30:00 AM 3.56 38.408 0.063 7.19 7.1 13.01
4/20/2022 8:45:00 AM 3.64 38.552 0.063 7.2 7.17 13
4/20/2022 9:00:00 AM 3.74 38.732 0.063 7.19 7.99 12.98
4/20/2022 9:15:00 AM 3.86 38.948 0.063 7.2 7.22 12.96
4/20/2022 9:30:00 AM 4 39.2 0.063 7.21 7.66 12.92
4/20/2022 9:45:00 AM 4.16 39.488 0.063 7.22 7.99 12.87
4/20/2022 10:00:00 AM 4.34 39.812 0.063 7.22 7.64 12.83
4/20/2022 10:15:00 AM 4.54 40.172 0.063 7.22 7.35 12.77
4/20/2022 10:30:00 AM 4.72 40.496 0.063 7.22 7.55 12.71
4/20/2022 10:45:00 AM 4.91 40.838 0.063 7.23 7.55 12.65
4/20/2022 11:00:00 AM 5.09 41.162 0.062 7.22 7.76 12.6
4/20/2022 11:15:00 AM 5.25 41.45 0.062 7.22 7.68 12.54
4/20/2022 11:30:00 AM 5.44 41.792 0.062 7.21 8.11 12.48
4/20/2022 11:45:00 AM 5.63 42.134 0.062 7.22 8.13 12.43
4/20/2022 12:00:00 PM 5.83 42.494 0.062 7.22 8.33 12.36
4/20/2022 12:15:00 PM 6 42.8 0.062 7.23 8.34 12.3
4/20/2022 12:30:00 PM 6.15 43.07 0.062 7.23 8.41 12.24
4/20/2022 12:45:00 PM 6.32 43.376 0.062 7.22 9.15 12.2
4/20/2022 1:00:00 PM 6.48 43.664 0.062 7.21 9.52 12.14
4/20/2022 1:15:00 PM 6.66 43.988 0.062 7.21 8.49 12.07
4/20/2022 1:30:00 PM 6.84 44.312 0.062 7.22 9.28 12.01
4/20/2022 1:45:00 PM 6.99 44.582 0.062 7.22 9.53 11.97
4/20/2022 2:00:00 PM 7.12 44.816 0.061 7.21 9.64 11.91
4/20/2022 2:15:00 PM 7.23 45.014 0.061 7.21 9.26 11.87
4/20/2022 2:30:00 PM 7.3 45.14 0.061 7.21 11.17 11.84
4/20/2022 2:45:00 PM 7.34 45.212 0.061 7.2 11.08 11.82
4/20/2022 3:00:00 PM 7.38 45.284 0.061 7.21 10.17 11.8
4/20/2022 3:15:00 PM 7.41 45.338 0.061 7.21 11.5 11.79
4/20/2022 3:30:00 PM 7.42 45.356 0.061 7.21 11.19 11.79
4/20/2022 3:45:00 PM 7.4 45.32 0.061 7.2 12.31 11.78
4/20/2022 4:00:00 PM 7.36 45.248 0.061 7.2 12.68 11.78
4/20/2022 4:15:00 PM 7.31 45.158 0.061 7.21 12.32 11.8
4/20/2022 4:30:00 PM 7.28 45.104 0.061 7.21 11.53 11.8
4/20/2022 4:45:00 PM 7.22 44.996 0.061 7.2 11.97 11.8
4/20/2022 5:00:00 PM 7.15 44.87 0.061 7.2 14.05 11.83
4/20/2022 5:15:00 PM 7.07 44.726 0.061 7.19 12.54 11.85
4/20/2022 5:30:00 PM 6.99 44.582 0.061 7.2 11.7 11.86
4/20/2022 5:45:00 PM 6.93 44.474 0.061 7.2 12.7 11.87
4/20/2022 6:00:00 PM 6.87 44.366 0.061 7.19 13.22 11.88
4/20/2022 6:15:00 PM 6.83 44.294 0.061 7.19 11.64 11.88
4/20/2022 6:30:00 PM 6.78 44.204 0.061 7.18 11.96 11.89
4/20/2022 6:45:00 PM 6.73 44.114 0.061 7.18 12.81 11.89
4/20/2022 7:00:00 PM 6.68 44.024 0.061 7.17 11.29 11.9
4/20/2022 7:15:00 PM 6.62 43.916 0.061 7.17 11.78 11.91
4/20/2022 7:30:00 PM 6.54 43.772 0.061 7.16 10.95 11.92
4/20/2022 7:45:00 PM 6.45 43.61 0.061 7.16 11.82 11.94
4/20/2022 8:00:00 PM 6.37 43.466 0.061 7.13 10.75 11.96
4/20/2022 8:15:00 PM 6.28 43.304 0.061 7.14 11.86 11.98
4/20/2022 8:30:00 PM 6.22 43.196 0.061 7.14 11.63 12
4/20/2022 8:45:00 PM 6.16 43.088 0.061 7.14 10.47 12.01
4/20/2022 9:00:00 PM 6.09 42.962 0.061 7.12 10.1 12.04
4/20/2022 9:15:00 PM 6 42.8 0.061 7.14 11.29 12.07
4/20/2022 9:30:00 PM 5.92 42.656 0.061 7.13 9.91 12.09
4/20/2022 9:45:00 PM 5.84 42.512 0.061 7.14 9.36 12.12
4/20/2022 10:00:00 PM 5.76 42.368 0.061 7.14 10.81 12.15
4/20/2022 10:15:00 PM 5.67 42.206 0.061 7.13 9.57 12.18
4/20/2022 10:30:00 PM 5.59 42.062 0.061 7.14 10.16 12.2
4/20/2022 10:45:00 PM 5.51 41.918 0.061 7.13 9.94 12.22
4/20/2022 11:00:00 PM 5.43 41.774 0.061 7.12 9.47 12.24
4/20/2022 11:15:00 PM 5.35 41.63 0.061 7.11 9.37 12.27
4/20/2022 11:30:00 PM 5.28 41.504 0.061 7.11 9.02 12.29
4/20/2022 11:45:00 PM 5.2 41.36 0.061 7.12 8.7 12.32
4/21/2022 12:00:00 AM 5.15 41.27 0.061 7.11 9.23 12.35
4/21/2022 12:15:00 AM 5.11 41.198 0.061 7.11 8.94 12.36
4/21/2022 12:30:00 AM 5.04 41.072 0.061 7.11 8.53 12.38
4/21/2022 12:45:00 AM 4.98 40.964 0.061 7.11 9.34 12.4
4/21/2022 1:00:00 AM 4.92 40.856 0.061 7.11 8.72 12.41
4/21/2022 1:15:00 AM 4.87 40.766 0.061 7.11 7.86 12.42
4/21/2022 1:30:00 AM 4.84 40.712 0.061 7.11 8.99 12.43
4/21/2022 1:45:00 AM 4.82 40.676 0.061 7.11 8.09 12.44
4/21/2022 2:00:00 AM 4.78 40.604 0.061 7.1 8.41 12.45
4/21/2022 2:15:00 AM 4.74 40.532 0.061 7.1 8.1 12.46
4/21/2022 2:30:00 AM 4.72 40.496 0.061 7.11 8.37 12.47
4/21/2022 2:45:00 AM 4.72 40.496 0.061 7.1 8.13 12.47
4/21/2022 3:00:00 AM 4.72 40.496 0.061 7.11 7.41 12.46
4/21/2022 3:15:00 AM 4.71 40.478 0.061 7.1 7.92 12.46
4/21/2022 3:30:00 AM 4.7 40.46 0.061 7.11 7.73 12.46
4/21/2022 3:45:00 AM 4.71 40.478 0.061 7.11 7.42 12.46
4/21/2022 4:00:00 AM 4.74 40.532 0.061 7.11 7.66 12.46
4/21/2022 4:15:00 AM 4.76 40.568 0.061 7.11 7.58 12.45
4/21/2022 4:30:00 AM 4.78 40.604 0.061 7.11 8.17 12.45
4/21/2022 4:45:00 AM 4.79 40.622 0.061 7.11 7.77 12.44
4/21/2022 5:00:00 AM 4.8 40.64 0.061 7.11 7.31 12.44
4/21/2022 5:15:00 AM 4.81 40.658 0.061 7.11 7.63 12.43
4/21/2022 5:30:00 AM 4.82 40.676 0.061 7.12 7.44 12.42
4/21/2022 5:45:00 AM 4.82 40.676 0.061 7.11 7.56 12.42
4/21/2022 6:00:00 AM 4.83 40.694 0.061 7.11 8.2 12.42
4/21/2022 6:15:00 AM 4.83 40.694 0.061 7.11 7.66 12.41
4/21/2022 6:30:00 AM 4.82 40.676 0.061 7.11 7.59 12.43
4/21/2022 6:45:00 AM 4.81 40.658 0.061 7.11 7.92 12.44
4/21/2022 7:00:00 AM 4.82 40.676 0.061 7.12 7.4 12.47
4/21/2022 7:15:00 AM 4.84 40.712 0.061 7.12 7.96 12.47
4/21/2022 7:30:00 AM 4.85 40.73 0.061 7.13 8.25 12.48
4/21/2022 7:45:00 AM 4.92 40.856 0.06 7.14 8.34 12.5
4/21/2022 8:00:00 AM 5.03 41.054 0.06 7.15 7.71 12.5
4/21/2022 8:15:00 AM 5.11 41.198 0.06 7.16 7.98 12.48
4/21/2022 8:30:00 AM 5.15 41.27 0.06 7.16 8.38 12.45
4/21/2022 8:45:00 AM 5.19 41.342 0.06 7.16 8.5 12.44
4/21/2022 9:00:00 AM 5.23 41.414 0.06 7.16 7.57 12.42
4/21/2022 9:15:00 AM 5.32 41.576 0.06 7.16 8.05 12.41
4/21/2022 9:30:00 AM 5.46 41.828 0.06 7.17 8.17 12.37
4/21/2022 9:45:00 AM 5.51 41.918 0.06 7.17 8.06 12.33
4/21/2022 10:00:00 AM 5.54 41.972 0.06 7.17 7.56 12.34
4/21/2022 10:15:00 AM 5.7 42.26 0.06 7.17 8.02 12.32
4/21/2022 10:30:00 AM 5.9 42.62 0.06 7.18 8.67 12.26
4/21/2022 10:45:00 AM 5.91 42.638 0.06 7.18 8.29 12.22
4/21/2022 11:00:00 AM 5.88 42.584 0.06 7.18 8.94 12.2
4/21/2022 11:15:00 AM 5.88 42.584 0.06 7.18 8.25 12.2
4/21/2022 11:30:00 AM 5.92 42.656 0.06 7.18 8.24 12.17
4/21/2022 11:45:00 AM 5.94 42.692 0.06 7.17 7.95 12.17
4/21/2022 12:00:00 PM 5.98 42.764 0.06 7.17 8.34 12.15
4/21/2022 12:15:00 PM 5.98 42.764 0.06 7.17 8.4 12.13
4/21/2022 12:30:00 PM 5.99 42.782 0.06 7.16 8.43 12.12
4/21/2022 12:45:00 PM 6.02 42.836 0.06 7.17 8.45 12.11
4/21/2022 1:00:00 PM 6.03 42.854 0.06 7.17 8.4 12.09
4/21/2022 1:15:00 PM 6.04 42.872 0.06 7.16 7.7 12.08
4/21/2022 1:30:00 PM 6.06 42.908 0.06 7.16 8.54 12.08
4/21/2022 1:45:00 PM 6.09 42.962 0.06 7.16 7.79 12.08
4/21/2022 2:00:00 PM 6.12 43.016 0.06 7.17 8.6 12.07
4/21/2022 2:15:00 PM 6.15 43.07 0.06 7.16 8.63 12.05
4/21/2022 2:30:00 PM 6.18 43.124 0.06 7.17 8.73 12.05
4/21/2022 2:45:00 PM 6.21 43.178 0.06 7.16 8.66 12.05
4/21/2022 3:00:00 PM 6.24 43.232 0.06 7.17 8.79 12.05
4/21/2022 3:15:00 PM 6.26 43.268 0.06 7.17 8.22 12.03
4/21/2022 3:30:00 PM 6.28 43.304 0.06 7.17 8.68 12.02
4/21/2022 3:45:00 PM 6.32 43.376 0.06 7.17 8.42 12.01
4/21/2022 4:00:00 PM 6.33 43.394 0.06 7.16 8.4 12
4/21/2022 4:15:00 PM 6.34 43.412 0.06 7.16 8.39 11.98
4/21/2022 4:30:00 PM 6.36 43.448 0.06 7.16 8.41 11.98
4/21/2022 4:45:00 PM 6.37 43.466 0.06 7.16 8.81 11.98
4/21/2022 5:00:00 PM 6.39 43.502 0.06 7.16 8.51 11.96
4/21/2022 5:15:00 PM 6.39 43.502 0.06 7.15 9.09 11.95
4/21/2022 5:30:00 PM 6.4 43.52 0.06 7.15 8.82 11.95
4/21/2022 5:45:00 PM 6.41 43.538 0.06 7.15 9.5 11.95
4/21/2022 6:00:00 PM 6.43 43.574 0.06 7.15 8.54 11.96
4/21/2022 6:15:00 PM 6.44 43.592 0.06 7.15 8.39 11.95
4/21/2022 6:30:00 PM 6.45 43.61 0.06 7.14 8.28 11.94
4/21/2022 6:45:00 PM 6.45 43.61 0.06 7.14 8.6 11.93
4/21/2022 7:00:00 PM 6.44 43.592 0.06 7.14 9.56 11.92
4/21/2022 7:15:00 PM 6.45 43.61 0.06 7.13 9.27 11.91
4/21/2022 7:30:00 PM 6.45 43.61 0.06 7.12 8.74 11.91
4/21/2022 7:45:00 PM 6.45 43.61 0.06 7.12 8.64 11.91
4/21/2022 8:00:00 PM 6.45 43.61 0.06 7.11 8.98 11.91
4/21/2022 8:15:00 PM 6.44 43.592 0.06 7.11 9.19 11.9
4/21/2022 8:30:00 PM 6.43 43.574 0.06 7.11 9.35 11.9
4/21/2022 8:45:00 PM 6.42 43.556 0.06 7.09 9.83 11.91
4/21/2022 9:00:00 PM 6.42 43.556 0.06 7.09 9.59 11.91
4/21/2022 9:15:00 PM 6.42 43.556 0.06 7.1 8.91 11.91
4/21/2022 9:30:00 PM 6.42 43.556 0.06 7.1 8.56 11.91
4/21/2022 9:45:00 PM 6.4 43.52 0.06 7.1 8.28 11.93
4/21/2022 10:00:00 PM 6.39 43.502 0.06 7.09 8.02 11.93
4/21/2022 10:15:00 PM 6.38 43.484 0.06 7.09 8.84 11.93
4/21/2022 10:30:00 PM 6.39 43.502 0.06 7.1 8.82 11.93
4/21/2022 10:45:00 PM 6.38 43.484 0.06 7.1 8.92 11.93
4/21/2022 11:00:00 PM 6.35 43.43 0.06 7.09 8.82 11.94
4/21/2022 11:15:00 PM 6.33 43.394 0.06 7.1 8.32 11.95
4/21/2022 11:30:00 PM 6.31 43.358 0.06 7.1 8.36 11.96
4/21/2022 11:45:00 PM 6.28 43.304 0.06 7.1 8.35 11.96
4/22/2022 12:00:00 AM 6.25 43.25 0.06 7.1 9.44 11.97
4/22/2022 12:15:00 AM 6.24 43.232 0.06 7.1 8.29 11.98
4/22/2022 12:30:00 AM 6.21 43.178 0.06 7.09 8.75 11.98
4/22/2022 12:45:00 AM 6.17 43.106 0.06 7.1 9.22 11.99
4/22/2022 1:00:00 AM 6.13 43.034 0.06 7.09 8.85 12.01
4/22/2022 1:15:00 AM 6.1 42.98 0.06 7.09 8.3 12.01
4/22/2022 1:30:00 AM 6.07 42.926 0.06 7.09 8.23 12.03
4/22/2022 1:45:00 AM 6.03 42.854 0.06 7.09 8.64 12.04
4/22/2022 2:00:00 AM 6.02 42.836 0.06 7.07 8.53 12.04
4/22/2022 2:15:00 AM 6 42.8 0.06 7.08 7.98 12.04
4/22/2022 2:30:00 AM 5.98 42.764 0.06 7.08 8.16 12.06
4/22/2022 2:45:00 AM 5.95 42.71 0.06 7.09 8.09 12.07
4/22/2022 3:00:00 AM 5.91 42.638 0.06 7.09 7.83 12.08
4/22/2022 3:15:00 AM 5.88 42.584 0.06 7.09 8.13 12.1
4/22/2022 3:30:00 AM 5.86 42.548 0.06 7.09 8.95 12.11
4/22/2022 3:45:00 AM 5.83 42.494 0.06 7.09 8.51 12.12
4/22/2022 4:00:00 AM 5.8 42.44 0.06 7.09 7.64 12.14
4/22/2022 4:15:00 AM 5.77 42.386 0.06 7.1 8.27 12.16
4/22/2022 4:30:00 AM 5.71 42.278 0.06 7.09 7.63 12.17
4/22/2022 4:45:00 AM 5.63 42.134 0.06 7.09 8.3 12.2
4/22/2022 5:00:00 AM 5.57 42.026 0.06 7.1 7.76 12.22
4/22/2022 5:15:00 AM 5.53 41.954 0.06 7.1 8.02 12.23
4/22/2022 5:30:00 AM 5.5 41.9 0.06 7.09 8.01 12.24
4/22/2022 5:45:00 AM 5.47 41.846 0.06 7.1 7.71 12.25
4/22/2022 6:00:00 AM 5.44 41.792 0.06 7.09 8.03 12.26
4/22/2022 6:15:00 AM 5.4 41.72 0.06 7.09 8.35 12.28
4/22/2022 6:30:00 AM 5.37 41.666 0.06 7.1 8.39 12.3
4/22/2022 6:45:00 AM 5.34 41.612 0.06 7.1 8.12 12.33
4/22/2022 7:00:00 AM 5.33 41.594 0.06 7.11 8.34 12.35
4/22/2022 7:15:00 AM 5.32 41.576 0.06 7.11 8.12 12.38
4/22/2022 7:30:00 AM 5.32 41.576 0.06 7.12 8 12.4
4/22/2022 7:45:00 AM 5.34 41.612 0.06 7.13 8.01 12.41
4/22/2022 8:00:00 AM 5.38 41.684 0.06 7.13 8.96 12.42
4/22/2022 8:15:00 AM 5.44 41.792 0.06 7.13 9.28 12.42
4/22/2022 8:30:00 AM 5.53 41.954 0.06 7.14 8.25 12.41
4/22/2022 8:45:00 AM 5.62 42.116 0.06 7.15 8.29 12.4
4/22/2022 9:00:00 AM 5.7 42.26 0.059 7.16 8.47 12.38
4/22/2022 9:15:00 AM 5.82 42.476 0.059 7.16 9.16 12.36
4/22/2022 9:30:00 AM 5.95 42.71 0.059 7.17 9.17 12.32
4/22/2022 9:45:00 AM 6.11 42.998 0.059 7.16 9.43 12.28
4/22/2022 10:00:00 AM 6.27 43.286 0.059 7.17 9.56 12.24
4/22/2022 10:15:00 AM 6.45 43.61 0.059 7.17 9.28 12.2
4/22/2022 10:30:00 AM 6.64 43.952 0.059 7.17 9.06 12.14
4/22/2022 10:45:00 AM 6.8 44.24 0.059 7.17 8.86 12.09
4/22/2022 11:00:00 AM 6.99 44.582 0.059 7.17 9.06 12.04
4/22/2022 11:15:00 AM 7.16 44.888 0.059 7.17 8.86 11.98
4/22/2022 11:30:00 AM 7.35 45.23 0.059 7.17 10.13 11.92
4/22/2022 11:45:00 AM 7.56 45.608 0.059 7.17 9.29 11.86
4/22/2022 12:00:00 PM 7.76 45.968 0.059 7.18 9.91 11.8
4/22/2022 12:15:00 PM 7.92 46.256 0.059 7.17 10.64 11.74
4/22/2022 12:30:00 PM 8.08 46.544 0.058 7.18 9.93 11.69
4/22/2022 12:45:00 PM 8.24 46.832 0.058 7.18 10.8 11.65
4/22/2022 1:00:00 PM 8.42 47.156 0.058 7.19 11.56 11.59
4/22/2022 1:15:00 PM 8.6 47.48 0.058 7.18 11.23 11.53
4/22/2022 1:30:00 PM 8.78 47.804 0.058 7.17 9.88 11.48
4/22/2022 1:45:00 PM 8.94 48.092 0.058 7.19 10.78 11.44
4/22/2022 2:00:00 PM 9.1 48.38 0.058 7.19 10.35 11.38
4/22/2022 2:15:00 PM 9.21 48.578 0.058 7.19 10.09 11.33
4/22/2022 2:30:00 PM 9.29 48.722 0.058 7.19 10.5 11.31
4/22/2022 2:45:00 PM 9.34 48.812 0.058 7.19 11.08 11.28
4/22/2022 3:00:00 PM 9.38 48.884 0.058 7.19 11.47 11.27
4/22/2022 3:15:00 PM 9.41 48.938 0.058 7.19 12.36 11.26
4/22/2022 3:30:00 PM 9.41 48.938 0.058 7.19 11.47 11.25
4/22/2022 3:45:00 PM 9.36 48.848 0.058 7.2 11.57 11.26
4/22/2022 4:00:00 PM 9.33 48.794 0.058 7.2 11.25 11.26
4/22/2022 4:15:00 PM 9.29 48.722 0.059 7.2 11.21 11.26
4/22/2022 4:30:00 PM 9.22 48.596 0.059 7.2 11.43 11.27
4/22/2022 4:45:00 PM 9.16 48.488 0.059 7.2 11.3 11.29
4/22/2022 5:00:00 PM 9.09 48.362 0.059 7.19 11.19 11.31
4/22/2022 5:15:00 PM 9.02 48.236 0.059 7.2 10.8 11.33
4/22/2022 5:30:00 PM 8.98 48.164 0.059 7.2 11.48 11.35
4/22/2022 5:45:00 PM 8.94 48.092 0.059 7.2 10.97 11.34
4/22/2022 6:00:00 PM 8.9 48.02 0.059 7.2 12.09 11.35
4/22/2022 6:15:00 PM 8.85 47.93 0.059 7.19 11.3 11.35
4/22/2022 6:30:00 PM 8.8 47.84 0.059 7.19 11.73 11.35
4/22/2022 6:45:00 PM 8.75 47.75 0.059 7.18 11.07 11.35
4/22/2022 7:00:00 PM 8.69 47.642 0.059 7.17 11.45 11.34
4/22/2022 7:15:00 PM 8.64 47.552 0.059 7.16 10.94 11.35
4/22/2022 7:30:00 PM 8.59 47.462 0.059 7.16 10.95 11.34
4/22/2022 7:45:00 PM 8.52 47.336 0.059 7.14 11.21 11.34
4/22/2022 8:00:00 PM 8.45 47.21 0.059 7.13 10.74 11.35
4/22/2022 8:15:00 PM 8.37 47.066 0.059 7.13 10.87 11.37
4/22/2022 8:30:00 PM 8.29 46.922 0.059 7.12 11.12 11.39
4/22/2022 8:45:00 PM 8.21 46.778 0.06 7.13 11.43 11.42
4/22/2022 9:00:00 PM 8.12 46.616 0.06 7.12 11.6 11.44
4/22/2022 9:15:00 PM 8.03 46.454 0.06 7.12 12.07 11.46
4/22/2022 9:30:00 PM 7.94 46.292 0.06 7.12 11.59 11.49
4/22/2022 9:45:00 PM 7.85 46.13 0.06 7.12 11.37 11.52
4/22/2022 10:00:00 PM 7.77 45.986 0.06 7.12 11.23 11.55
4/22/2022 10:15:00 PM 7.7 45.86 0.06 7.12 11.08 11.58
4/22/2022 10:30:00 PM 7.62 45.716 0.06 7.12 10.94 11.6
4/22/2022 10:45:00 PM 7.54 45.572 0.06 7.12 11.18 11.63
4/22/2022 11:00:00 PM 7.45 45.41 0.06 7.11 10.89 11.65
4/22/2022 11:15:00 PM 7.38 45.284 0.06 7.12 10.51 11.66
4/22/2022 11:30:00 PM 7.32 45.176 0.06 7.11 10.6 11.69
4/22/2022 11:45:00 PM 7.26 45.068 0.06 7.11 10.36 11.7
4/23/2022 12:00:00 AM 7.21 44.978 0.06 7.12 11.03 11.72
4/23/2022 12:15:00 AM 7.16 44.888 0.06 7.12 10.79 11.74
4/23/2022 12:30:00 AM 7.12 44.816 0.06 7.12 10.5 11.76
4/23/2022 12:45:00 AM 7.08 44.744 0.06 7.11 10.23 11.77
4/23/2022 1:00:00 AM 7.04 44.672 0.06 7.11 10.65 11.78
4/23/2022 1:15:00 AM 6.99 44.582 0.06 7.11 9.9 11.79
4/23/2022 1:30:00 AM 6.95 44.51 0.06 7.11 9.52 11.8
4/23/2022 1:45:00 AM 6.92 44.456 0.06 7.11 9.53 11.82
4/23/2022 2:00:00 AM 6.88 44.384 0.06 7.11 9.24 11.82
4/23/2022 2:15:00 AM 6.85 44.33 0.06 7.1 9.45 11.83
4/23/2022 2:30:00 AM 6.82 44.276 0.06 7.11 8.85 11.83
4/23/2022 2:45:00 AM 6.79 44.222 0.06 7.11 9.77 11.84
4/23/2022 3:00:00 AM 6.76 44.168 0.06 7.1 9.66 11.85
4/23/2022 3:15:00 AM 6.73 44.114 0.06 7.11 9.69 11.86
4/23/2022 3:30:00 AM 6.71 44.078 0.06 7.09 9.42 11.86
4/23/2022 3:45:00 AM 6.68 44.024 0.06 7.08 9.97 11.87
4/23/2022 4:00:00 AM 6.66 43.988 0.06 7.1 9.41 11.88
4/23/2022 4:15:00 AM 6.64 43.952 0.06 7.1 8.72 11.88
4/23/2022 4:30:00 AM 6.61 43.898 0.06 7.1 8.01 11.89
4/23/2022 4:45:00 AM 6.59 43.862 0.06 7.09 8.78 11.89
4/23/2022 5:00:00 AM 6.58 43.844 0.06 7.1 7.83 11.9
4/23/2022 5:15:00 AM 6.56 43.808 0.06 7.1 8.13 11.9
4/23/2022 5:30:00 AM 6.54 43.772 0.06 7.1 9.17 11.9
4/23/2022 5:45:00 AM 6.53 43.754 0.06 7.09 8.52 11.91
4/23/2022 6:00:00 AM 6.51 43.718 0.06 7.1 8.95 11.92
4/23/2022 6:15:00 AM 6.49 43.682 0.06 7.1 8.76 11.92
4/23/2022 6:30:00 AM 6.47 43.646 0.06 7.11 8.96 11.93
4/23/2022 6:45:00 AM 6.46 43.628 0.06 7.12 8.69 11.95
4/23/2022 7:00:00 AM 6.45 43.61 0.059 7.11 8.34 11.96
4/23/2022 7:15:00 AM 6.45 43.61 0.059 7.11 9.16 11.98
4/23/2022 7:30:00 AM 6.45 43.61 0.059 7.11 9.34 11.99
4/23/2022 7:45:00 AM 6.46 43.628 0.059 7.12 9.91 12.01
4/23/2022 8:00:00 AM 6.49 43.682 0.059 7.14 10.24 12.04
4/23/2022 8:15:00 AM 6.52 43.736 0.059 7.13 9.17 12.03
4/23/2022 8:30:00 AM 6.53 43.754 0.059 7.13 9.58 12.02
4/23/2022 8:45:00 AM 6.56 43.808 0.059 7.15 9 12.03
4/23/2022 9:00:00 AM 6.62 43.916 0.059 7.16 8.78 12.02
4/23/2022 9:15:00 AM 6.65 43.97 0.059 7.16 9.61 12
4/23/2022 9:30:00 AM 6.67 44.006 0.059 7.16 9.08 12
4/23/2022 9:45:00 AM 6.78 44.204 0.059 7.16 9.62 11.99
4/23/2022 10:00:00 AM 6.92 44.456 0.059 7.17 10.07 11.97
4/23/2022 10:15:00 AM 7.01 44.618 0.059 7.18 9.58 11.94
4/23/2022 10:30:00 AM 7.14 44.852 0.059 7.18 9.93 11.91
4/23/2022 10:45:00 AM 7.3 45.14 0.058 7.18 9.93 11.85
4/23/2022 11:00:00 AM 7.35 45.23 0.058 7.19 9.79 11.82
4/23/2022 11:15:00 AM 7.4 45.32 0.058 7.19 10.61 11.81
4/23/2022 11:30:00 AM 7.69 45.842 0.058 7.19 10.16 11.77
4/23/2022 11:45:00 AM 7.92 46.256 0.058 7.19 9.86 11.67
4/23/2022 12:00:00 PM 8.11 46.598 0.058 7.19 10.29 11.62
4/23/2022 12:15:00 PM 8.19 46.742 0.058 7.19 9.81 11.59
4/23/2022 12:30:00 PM 8.17 46.706 0.058 7.19 11.05 11.58
4/23/2022 12:45:00 PM 8.33 46.994 0.058 7.2 9.69 11.55
4/23/2022 1:00:00 PM 8.57 47.426 0.058 7.2 10.9 11.47
4/23/2022 1:15:00 PM 8.58 47.444 0.058 7.2 10.73 11.45
4/23/2022 1:30:00 PM 8.55 47.39 0.058 7.2 10.74 11.43
4/23/2022 1:45:00 PM 8.48 47.264 0.058 7.2 10.67 11.42
4/23/2022 2:00:00 PM 8.47 47.246 0.058 7.19 10.32 11.43
4/23/2022 2:15:00 PM 8.54 47.372 0.058 7.2 11.19 11.43
4/23/2022 2:30:00 PM 8.63 47.534 0.058 7.2 10.43 11.4
4/23/2022 2:45:00 PM 8.69 47.642 0.058 7.2 11.91 11.38
4/23/2022 3:00:00 PM 8.75 47.75 0.058 7.17 10.69 11.37
4/23/2022 3:15:00 PM 8.78 47.804 0.058 7.18 11.52 11.35
4/23/2022 3:30:00 PM 8.78 47.804 0.058 7.17 16.68 11.34
4/23/2022 3:45:00 PM 8.81 47.858 0.058 7.22 11.16 11.34
4/23/2022 4:00:00 PM 8.89 48.002 0.058 7.21 11.92 11.33
4/23/2022 4:15:00 PM 9.02 48.236 0.058 7.21 12.29 11.31
4/23/2022 4:30:00 PM 9.09 48.362 0.058 7.21 11.89 11.26
4/23/2022 4:45:00 PM 9.09 48.362 0.058 7.21 12.64 11.24
4/23/2022 5:00:00 PM 9.07 48.326 0.058 7.21 12.19 11.23
4/23/2022 5:15:00 PM 9.05 48.29 0.058 7.21 12.32 11.23
4/23/2022 5:30:00 PM 9.03 48.254 0.058 7.21 11.53 11.23
4/23/2022 5:45:00 PM 9 48.2 0.058 7.2 12.45 11.24
4/23/2022 6:00:00 PM 8.98 48.164 0.058 7.2 11.39 11.24
4/23/2022 6:15:00 PM 8.95 48.11 0.058 7.2 12.18 11.23
4/23/2022 6:30:00 PM 8.93 48.074 0.059 7.2 11.91 11.23
4/23/2022 6:45:00 PM 8.9 48.02 0.059 7.17 11.81 11.22
4/23/2022 7:00:00 PM 8.88 47.984 0.059 7.18 11.91 11.22
4/23/2022 7:15:00 PM 8.85 47.93 0.059 7.18 11.1 11.22
4/23/2022 7:30:00 PM 8.82 47.876 0.059 7.16 11.81 11.21
4/23/2022 7:45:00 PM 8.78 47.804 0.059 7.12 11.79 11.2
4/23/2022 8:00:00 PM 8.74 47.732 0.059 7.13 11.34 11.19
4/23/2022 8:15:00 PM 8.71 47.678 0.059 7.13 11.47 11.18
4/23/2022 8:30:00 PM 8.69 47.642 0.059 7.12 12.15 11.19
4/23/2022 8:45:00 PM 8.66 47.588 0.059 7.12 11.9 11.2
4/23/2022 9:00:00 PM 8.61 47.498 0.059 7.13 12.74 11.21
4/23/2022 9:15:00 PM 8.56 47.408 0.059 7.12 11.96 11.23
4/23/2022 9:30:00 PM 8.51 47.318 0.059 7.12 11.7 11.25
4/23/2022 9:45:00 PM 8.46 47.228 0.059 7.12 11.22 11.26
4/23/2022 10:00:00 PM 8.42 47.156 0.059 7.13 12.38 11.27
4/23/2022 10:15:00 PM 8.39 47.102 0.059 7.13 12.41 11.29
4/23/2022 10:30:00 PM 8.34 47.012 0.059 7.12 11.93 11.3
4/23/2022 10:45:00 PM 8.28 46.904 0.059 7.12 11.16 11.32
4/23/2022 11:00:00 PM 8.23 46.814 0.06 7.13 10.23 11.34
4/23/2022 11:15:00 PM 8.19 46.742 0.06 7.13 11.36 11.35
4/23/2022 11:30:00 PM 8.14 46.652 0.06 7.12 11.95 11.36
4/23/2022 11:45:00 PM 8.09 46.562 0.06 7.1 10.39 11.36
4/24/2022 12:00:00 AM 8.04 46.472 0.06 7.12 10.67 11.38
4/24/2022 12:15:00 AM 8 46.4 0.06 7.12 10.78 11.39
4/24/2022 12:30:00 AM 7.96 46.328 0.06 7.11 10.49 11.4
4/24/2022 12:45:00 AM 7.92 46.256 0.06 7.11 10.2 11.41
4/24/2022 1:00:00 AM 7.86 46.148 0.06 7.11 9.93 11.43
4/24/2022 1:15:00 AM 7.81 46.058 0.06 7.11 10.66 11.44
4/24/2022 1:30:00 AM 7.76 45.968 0.06 7.12 10.59 11.45
4/24/2022 1:45:00 AM 7.71 45.878 0.06 7.11 10.55 11.47
4/24/2022 2:00:00 AM 7.66 45.788 0.06 7.1 10.21 11.48
4/24/2022 2:15:00 AM 7.62 45.716 0.06 7.12 10.1 11.49
4/24/2022 2:30:00 AM 7.58 45.644 0.06 7.11 10.15 11.51
4/24/2022 2:45:00 AM 7.55 45.59 0.06 7.11 10.21 11.52
4/24/2022 3:00:00 AM 7.53 45.554 0.06 7.11 10.38 11.52
4/24/2022 3:15:00 AM 7.5 45.5 0.059 7.11 10.58 11.52
4/24/2022 3:30:00 AM 7.46 45.428 0.059 7.11 10.38 11.54
4/24/2022 3:45:00 AM 7.43 45.374 0.059 7.11 10.58 11.54
4/24/2022 4:00:00 AM 7.4 45.32 0.059 7.1 9.81 11.55
4/24/2022 4:15:00 AM 7.37 45.266 0.059 7.11 9.88 11.55
4/24/2022 4:30:00 AM 7.35 45.23 0.059 7.11 10.21 11.56
4/24/2022 4:45:00 AM 7.34 45.212 0.059 7.1 9.27 11.57
4/24/2022 5:00:00 AM 7.33 45.194 0.058 7.1 10.85 11.58
4/24/2022 5:15:00 AM 7.32 45.176 0.059 7.06 9.52 11.58
4/24/2022 5:30:00 AM 7.31 45.158 0.06 7.03 9.34 11.58
4/24/2022 5:45:00 AM 7.3 45.14 0.058 7.04 3.42 11.58
4/24/2022 6:00:00 AM 7.3 45.14 0.059 7.07 2.7 11.59
4/24/2022 6:15:00 AM 7.28 45.104 0.059 7.07 4.53 11.6
4/24/2022 6:30:00 AM 7.27 45.086 0.059 7.08 10.89 11.61
4/24/2022 6:45:00 AM 7.27 45.086 0.06 7.08 9.35 11.62
4/24/2022 7:00:00 AM 7.28 45.104 0.059 7.11 9.94 11.64
4/24/2022 7:15:00 AM 7.28 45.104 0.059 7.1 10.24 11.66
4/24/2022 7:30:00 AM 7.28 45.104 0.059 7.07 8.02 11.67
4/24/2022 7:45:00 AM 7.31 45.158 0.059 7.08 10.5 11.69
4/24/2022 8:00:00 AM 7.35 45.23 0.059 7.14 10.21 11.7
4/24/2022 8:15:00 AM 7.43 45.374 0.059 7.16 9.72 11.7
4/24/2022 8:30:00 AM 7.52 45.536 0.059 7.17 10.26 11.69
4/24/2022 8:45:00 AM 7.63 45.734 0.059 7.13 9.9 11.68
4/24/2022 9:00:00 AM 7.75 45.95 0.059 7.15 10.72 11.66
4/24/2022 9:15:00 AM 7.88 46.184 0.059 7.17 10.61 11.62
4/24/2022 9:30:00 AM 8.03 46.454 0.059 7.19 10.59 11.58
4/24/2022 9:45:00 AM 8.2 46.76 0.02 7.17 10.09 11.55
4/24/2022 10:00:00 AM 8.4 47.12 0.059 7.18 9.59 11.5
4/24/2022 10:15:00 AM 8.61 47.498 0.059 7.2 10.39 11.43
4/24/2022 10:30:00 AM 8.83 47.894 0.058 7.16 6.4 11.39
4/24/2022 10:45:00 AM 9.06 48.308 0.059 7.2 10.36 11.33
4/24/2022 11:00:00 AM 9.3 48.74 0.059 7.22 10.37 11.27
4/24/2022 11:15:00 AM 9.54 49.172 0.058 7.18 10.1 11.21
4/24/2022 11:30:00 AM 9.8 49.64 0.058 7.18 10.36 11.13
4/24/2022 11:45:00 AM 10.07 50.126 0.058 7.16 10.36 11.05
4/24/2022 12:00:00 PM 10.33 50.594 0.058 7.17 10.92 10.99
4/24/2022 12:15:00 PM 10.58 51.044 0.058 7.2 11.26 10.91
4/24/2022 12:30:00 PM 10.83 51.494 0.058 7.17 10.94 10.86
4/24/2022 12:45:00 PM 11.08 51.944 0.057 7.18 10.78 10.79
4/24/2022 1:00:00 PM 11.32 52.376 0.058 7.22 11.55 10.71
4/24/2022 1:15:00 PM 11.58 52.844 0.058 7.21 11.45 10.66
4/24/2022 1:30:00 PM 11.82 53.276 0.058 7.22 10.83 10.57
4/24/2022 1:45:00 PM 12.04 53.672 0.058 7.22 12.93 10.53
4/24/2022 2:00:00 PM 12.28 54.104 0.058 7.23 11.77 10.47
4/24/2022 2:15:00 PM 12.35 54.23 0.058 7.23 11.51 10.4
4/24/2022 2:30:00 PM 12.48 54.464 0.058 7.24 11.39 10.38
4/24/2022 2:45:00 PM 12.66 54.788 0.058 7.24 11.69 10.35
4/24/2022 3:00:00 PM 12.81 55.058 0.058 7.24 12.18 10.32
4/24/2022 3:15:00 PM 12.91 55.238 0.058 7.23 11.64 10.28
4/24/2022 3:30:00 PM 12.93 55.274 0.058 7.24 12.35 10.27
4/24/2022 3:45:00 PM 12.83 55.094 0.058 7.23 13.92 10.28
4/24/2022 4:00:00 PM 12.85 55.13 0.058 7.23 12.41 10.26
4/24/2022 4:15:00 PM 12.73 54.914 0.058 7.2 15.8 10.26
4/24/2022 4:30:00 PM 12.74 54.932 0.058 7.21 12.43 10.29
4/24/2022 4:45:00 PM 12.71 54.878 0.058 7.23 12.73 10.25
4/24/2022 5:00:00 PM 12.66 54.788 0.058 7.22 12.96 10.26
4/24/2022 5:15:00 PM 12.63 54.734 0.059 7.21 12.5 10.27
4/24/2022 5:30:00 PM 12.63 54.734 0.059 7.22 12.38 10.25
4/24/2022 5:45:00 PM 12.61 54.698 0.059 7.23 13.6 10.25
4/24/2022 6:00:00 PM 12.56 54.608 0.059 7.22 12.12 10.24
4/24/2022 6:15:00 PM 12.51 54.518 0.059 7.21 12.55 10.25
4/24/2022 6:30:00 PM 12.49 54.482 0.059 7.2 12.73 10.26
4/24/2022 6:45:00 PM 12.4 54.32 0.059 7.18 13.84 10.25
4/24/2022 7:00:00 PM 12.32 54.176 0.059 7.17 12.97 10.26
4/24/2022 7:15:00 PM 12.25 54.05 0.059 7.16 13.65 10.27
4/24/2022 7:30:00 PM 12.18 53.924 0.059 7.17 13.62 10.27
4/24/2022 7:45:00 PM 12.12 53.816 0.059 7.15 13.22 10.28
4/24/2022 8:00:00 PM 12.05 53.69 0.06 7.14 13.51 10.28
4/24/2022 8:15:00 PM 11.97 53.546 0.06 7.13 13.43 10.28
4/24/2022 8:30:00 PM 11.89 53.402 0.06 7.12 13.03 10.3
4/24/2022 8:45:00 PM 11.81 53.258 0.06 7.12 13.57 10.33
4/24/2022 9:00:00 PM 11.73 53.114 0.06 7.1 13.97 10.36
4/24/2022 9:15:00 PM 11.66 52.988 0.06 7.12 14.68 10.37
4/24/2022 9:30:00 PM 11.59 52.862 0.06 7.12 13.24 10.41
4/24/2022 9:45:00 PM 11.51 52.718 0.06 7.11 13.27 10.42
4/24/2022 10:00:00 PM 11.45 52.61 0.06 7.12 14.78 10.44
4/24/2022 10:15:00 PM 11.39 52.502 0.06 7.11 13.98 10.45
4/24/2022 10:30:00 PM 11.33 52.394 0.06 7.11 13.17 10.46
4/24/2022 10:45:00 PM 11.27 52.286 0.06 7.13 13.28 10.47
4/24/2022 11:00:00 PM 11.23 52.214 0.06 7.13 13.44 10.49
4/24/2022 11:15:00 PM 11.16 52.088 0.06 7.14 12.44 10.51
4/24/2022 11:30:00 PM 11.09 51.962 0.06 7.09 12.11 10.52
4/24/2022 11:45:00 PM 11.02 51.836 0.06 7.13 13.04 10.54
4/25/2022 12:00:00 AM 10.95 51.71 0.06 7.12 18.68 10.56
4/25/2022 12:15:00 AM 10.89 51.602 0.06 7.14 13.83 10.58
4/25/2022 12:30:00 AM 10.84 51.512 0.06 7.14 16.97 10.59
4/25/2022 12:45:00 AM 10.79 51.422 0.06 7.15 36.43 10.6
4/25/2022 1:00:00 AM 10.72 51.296 0.06 7.11 11.79 10.62
4/25/2022 1:15:00 AM 10.67 51.206 0.06 7.12 12.08 10.62
4/25/2022 1:30:00 AM 10.62 51.116 0.06 7.14 11.95 10.64
4/25/2022 1:45:00 AM 10.57 51.026 0.06 7.12 11.63 10.65
4/25/2022 2:00:00 AM 10.51 50.918 0.06 7.12 12.84 10.67
4/25/2022 2:15:00 AM 10.46 50.828 0.06 7.12 12.26 10.68
4/25/2022 2:30:00 AM 10.41 50.738 0.06 7.12 11.86 10.69
4/25/2022 2:45:00 AM 10.35 50.63 0.06 7.12 11.18 10.71
4/25/2022 3:00:00 AM 10.28 50.504 0.06 7.14 12.22 10.73
4/25/2022 3:15:00 AM 10.2 50.36 0.06 7.13 10.52 10.76
4/25/2022 3:30:00 AM 10.13 50.234 0.06 7.12 11.35 10.77
4/25/2022 3:45:00 AM 10.06 50.108 0.06 7.12 10.58 10.79
4/25/2022 4:00:00 AM 9.99 49.982 0.06 7.12 11.09 10.8
4/25/2022 4:15:00 AM 9.93 49.874 0.06 7.09 10.86 10.81
4/25/2022 4:30:00 AM 9.88 49.784 0.06 7.12 10.88 10.83
4/25/2022 4:45:00 AM 9.82 49.676 0.06 7.11 11.58 10.85
4/25/2022 5:00:00 AM 9.77 49.586 0.06 7.11 10.33 10.86
4/25/2022 5:15:00 AM 9.73 49.514 0.06 7.12 10.91 10.87
4/25/2022 5:30:00 AM 9.67 49.406 0.06 7.09 10.96 10.89
4/25/2022 5:45:00 AM 9.61 49.298 0.06 7.11 13.69 10.91
4/25/2022 6:00:00 AM 9.56 49.208 0.057 7.06 12.03 10.92
4/25/2022 6:15:00 AM 9.5 49.1 0.06 7.13 13.24 10.94
4/25/2022 6:30:00 AM 9.46 49.028 0.06 7.13 11.59 10.97
4/25/2022 6:45:00 AM 9.43 48.974 0.06 7.14 12.23 10.99
4/25/2022 7:00:00 AM 9.4 48.92 0.06 7.15 11.94 11.02
4/25/2022 7:15:00 AM 9.39 48.902 0.06 7.15 11.11 11.05
4/25/2022 7:30:00 AM 9.39 48.902 0.06 7.17 12.19 11.08
4/25/2022 7:45:00 AM 9.4 48.92 0.06 7.19 12.63 11.1
4/25/2022 8:00:00 AM 9.41 48.938 0.06 7.19 12.02 11.1
4/25/2022 8:15:00 AM 9.43 48.974 0.06 7.21 11.51 11.11
4/25/2022 8:30:00 AM 9.46 49.028 0.06 7.22 12.02 11.11
4/25/2022 8:45:00 AM 9.54 49.172 0.059 7.21 12.9 11.12
4/25/2022 9:00:00 AM 9.64 49.352 0.059 7.22 13.3 11.1
4/25/2022 9:15:00 AM 9.73 49.514 0.059 7.22 12.27 11.08
4/25/2022 9:30:00 AM 9.85 49.73 0.059 7.23 12.27 11.05
4/25/2022 9:45:00 AM 10 50 0.059 7.24 11.96 11.02
4/25/2022 10:00:00 AM 10.16 50.288 0.059 7.23 12.12 11
4/25/2022 10:15:00 AM 10.34 50.612 0.059 7.18 11.79 10.96
4/25/2022 10:30:00 AM 10.52 50.936 0.059 7.23 12.41 10.91
4/25/2022 10:45:00 AM 10.7 51.26 0.059 7.23 12.9 10.87
4/25/2022 11:00:00 AM 10.89 51.602 0.059 7.2 12.77 10.84
4/25/2022 11:15:00 AM 11.09 51.962 0.059 7.21 12.36 10.78
4/25/2022 11:30:00 AM 11.29 52.322 0.059 7.22 13.03 10.72
4/25/2022 11:45:00 AM 11.51 52.718 0.059 7.23 12.35 10.68
4/25/2022 12:00:00 PM 11.72 53.096 0.059 7.23 12.64 10.62
4/25/2022 12:15:00 PM 11.91 53.438 0.059 7.21 12.97 10.57
4/25/2022 12:30:00 PM 12.08 53.744 0.059 7.23 15.49 10.53
4/25/2022 12:45:00 PM 12.27 54.086 0.059 7.23 2198.27 10.48
4/25/2022 1:00:00 PM 12.47 54.446 0.059 7.22 12.6 10.42
4/25/2022 1:15:00 PM 12.68 54.824 0.059 7.23 13.28 10.36
4/25/2022 1:30:00 PM 12.87 55.166 0.059 7.24 13.05 10.33
4/25/2022 1:45:00 PM 12.97 55.346 0.059 7.25 12.87 10.29
4/25/2022 2:00:00 PM 13.22 55.796 0.059 7.25 12.45 10.22
4/25/2022 2:15:00 PM 13.35 56.03 0.059 7.26 13.37 10.18
4/25/2022 2:30:00 PM 13.46 56.228 0.059 7.25 12 10.16
4/25/2022 2:45:00 PM 13.54 56.372 0.059 7.26 12.62 10.14
4/25/2022 3:00:00 PM 13.6 56.48 0.059 7.25 12.42 10.11
4/25/2022 3:15:00 PM 13.64 56.552 0.059 7.25 12.66 10.09
4/25/2022 3:30:00 PM 13.67 56.606 0.056 7.22 15.54 10.08
4/25/2022 3:45:00 PM 13.68 56.624 0.059 7.25 13.76 10.06
4/25/2022 4:00:00 PM 13.64 56.552 0.059 7.27 12.78 10.06
4/25/2022 4:15:00 PM 13.61 56.498 0.059 7.26 12.89 10.06
4/25/2022 4:30:00 PM 13.57 56.426 0.059 7.25 12.06 10.06
4/25/2022 4:45:00 PM 13.52 56.336 0.059 7.24 12.76 10.07
4/25/2022 5:00:00 PM 13.45 56.21 0.059 7.25 12.66 10.07
4/25/2022 5:15:00 PM 13.35 56.03 0.059 7.24 13.3 10.08
4/25/2022 5:30:00 PM 13.26 55.868 0.059 7.24 12.42 10.09
4/25/2022 5:45:00 PM 13.14 55.652 0.059 7.24 12.89 10.1
4/25/2022 6:00:00 PM 13.05 55.49 0.06 7.23 12.64 10.14
4/25/2022 6:15:00 PM 13.01 55.418 0.06 7.24 12.3 10.15
4/25/2022 6:30:00 PM 12.95 55.31 0.06 7.23 12.1 10.15
4/25/2022 6:45:00 PM 12.9 55.22 0.06 7.24 12.54 10.18
4/25/2022 7:00:00 PM 12.87 55.166 0.06 7.23 12.77 10.18
4/25/2022 7:15:00 PM 12.77 54.986 0.06 7.22 12.03 10.15
4/25/2022 7:30:00 PM 12.68 54.824 0.06 7.2 12.9 10.15
4/25/2022 7:45:00 PM 12.6 54.68 0.06 7.2 12.87 10.16
4/25/2022 8:00:00 PM 12.51 54.518 0.06 7.18 13.88 10.16
4/25/2022 8:15:00 PM 12.43 54.374 0.06 7.18 13.9 10.18
4/25/2022 8:30:00 PM 12.35 54.23 0.06 7.19 13.26 10.2
4/25/2022 8:45:00 PM 12.26 54.068 0.06 7.16 13.85 10.22
4/25/2022 9:00:00 PM 12.18 53.924 0.06 7.19 13.15 10.25
4/25/2022 9:15:00 PM 12.1 53.78 0.06 7.18 12.58 10.27
4/25/2022 9:30:00 PM 12.03 53.654 0.061 7.18 12.38 10.28
4/25/2022 9:45:00 PM 11.96 53.528 0.061 7.17 12.27 10.3
4/25/2022 10:00:00 PM 11.9 53.42 0.061 7.17 12.63 10.31
4/25/2022 10:15:00 PM 11.83 53.294 0.061 7.18 12.69 10.33
4/25/2022 10:30:00 PM 11.77 53.186 0.061 7.17 11.85 10.34
4/25/2022 10:45:00 PM 11.71 53.078 0.061 7.17 12.53 10.36
4/25/2022 11:00:00 PM 11.65 52.97 0.061 7.17 12.78 10.38
4/25/2022 11:15:00 PM 11.59 52.862 0.061 7.19 14.22 10.39
4/25/2022 11:30:00 PM 11.53 52.754 0.061 7.17 16.81 10.41
4/25/2022 11:45:00 PM 11.47 52.646 0.061 7.17 15.86 10.42
4/26/2022 12:00:00 AM 11.42 52.556 0.061 7.16 11.7 10.43
4/26/2022 12:15:00 AM 11.37 52.466 0.061 7.17 11.51 10.44
4/26/2022 12:30:00 AM 11.32 52.376 0.061 7.17 11.81 10.45
4/26/2022 12:45:00 AM 11.27 52.286 0.061 7.16 11.43 10.46
4/26/2022 1:00:00 AM 11.22 52.196 0.061 7.17 11.29 10.47
4/26/2022 1:15:00 AM 11.17 52.106 0.061 7.16 11.42 10.49
4/26/2022 1:30:00 AM 11.11 51.998 0.061 7.16 10.37 10.5
4/26/2022 1:45:00 AM 11.07 51.926 0.061 7.16 12.09 10.52
4/26/2022 2:00:00 AM 11.01 51.818 0.061 7.16 11.27 10.53
4/26/2022 2:15:00 AM 10.97 51.746 0.061 7.17 10.89 10.54
4/26/2022 2:30:00 AM 10.92 51.656 0.061 7.16 11.47 10.55
4/26/2022 2:45:00 AM 10.88 51.584 0.061 7.16 12.1 10.57
4/26/2022 3:00:00 AM 10.83 51.494 0.061 7.16 10.58 10.58
4/26/2022 3:15:00 AM 10.79 51.422 0.061 7.16 11.05 10.59
4/26/2022 3:30:00 AM 10.75 51.35 0.061 7.16 10.94 10.59
4/26/2022 3:45:00 AM 10.7 51.26 0.061 7.16 10.42 10.61
4/26/2022 4:00:00 AM 10.66 51.188 0.061 7.16 10.6 10.61
4/26/2022 4:15:00 AM 10.62 51.116 0.061 7.14 11.14 10.62
4/26/2022 4:30:00 AM 10.58 51.044 0.061 7.14 11.43 10.63
4/26/2022 4:45:00 AM 10.54 50.972 0.061 7.16 11.47 10.65
4/26/2022 5:00:00 AM 10.5 50.9 0.061 7.16 11.07 10.66
4/26/2022 5:15:00 AM 10.46 50.828 0.061 7.15 10.74 10.67
4/26/2022 5:30:00 AM 10.42 50.756 0.061 7.16 10.57 10.68
4/26/2022 5:45:00 AM 10.38 50.684 0.061 7.15 10.74 10.69
4/26/2022 6:00:00 AM 10.35 50.63 0.061 7.15 11.32 10.7
4/26/2022 6:15:00 AM 10.32 50.576 0.061 7.15 10.46 10.71
4/26/2022 6:30:00 AM 10.29 50.522 0.061 7.15 14.04 10.73
4/26/2022 6:45:00 AM 10.26 50.468 0.061 7.13 17.35 10.74
4/26/2022 7:00:00 AM 10.23 50.414 0.061 7.15 14.52 10.76
4/26/2022 7:15:00 AM 10.21 50.378 0.061 7.15 14.89 10.77
4/26/2022 7:30:00 AM 10.18 50.324 0.061 7.16 14.23 10.78
4/26/2022 7:45:00 AM 10.16 50.288 0.061 7.17 13.12 10.79
4/26/2022 8:00:00 AM 10.13 50.234 0.061 7.17 12.54 10.8
4/26/2022 8:15:00 AM 10.11 50.198 0.061 7.18 12.72 10.81
4/26/2022 8:30:00 AM 10.09 50.162 0.061 7.15 12.38 10.83
4/26/2022 8:45:00 AM 10.08 50.144 0.061 7.16 12.77 10.84
4/26/2022 9:00:00 AM 10.07 50.126 0.061 7.16 13.4 10.85
4/26/2022 9:15:00 AM 10.06 50.108 0.061 7.17 11.77 10.86
4/26/2022 9:30:00 AM 10.05 50.09 0.061 7.19 11.68 10.86
4/26/2022 9:45:00 AM 10.05 50.09 0.061 7.2 11.21 10.89
4/26/2022 10:00:00 AM 10.06 50.108 0.06 7.22 11.43 10.9
4/26/2022 10:15:00 AM 10.06 50.108 0.06 7.2 11.37 10.9
4/26/2022 10:30:00 AM 10.09 50.162 0.06 7.2 10.86 10.92
4/26/2022 10:45:00 AM 10.12 50.216 0.06 7.19 11.21 10.92
4/26/2022 11:00:00 AM 10.15 50.27 0.06 7.21 11.27 10.93
4/26/2022 11:15:00 AM 10.23 50.414 0.06 7.21 11.45 10.92
4/26/2022 11:30:00 AM 10.23 50.414 0.06 7.19 11.16 10.9
4/26/2022 11:45:00 AM 10.25 50.45 0.06 7.23 11.49 10.91
4/26/2022 12:00:00 PM 10.25 50.45 0.06 7.22 11.31 10.9
4/26/2022 12:15:00 PM 10.27 50.486 0.06 7.23 10.98 10.91
4/26/2022 12:30:00 PM 10.35 50.63 0.06 7.24 11.46 10.89
4/26/2022 12:45:00 PM 10.43 50.774 0.06 7.24 11.37 10.86
4/26/2022 1:00:00 PM 10.44 50.792 0.06 7.24 11.67 10.85
4/26/2022 1:15:00 PM 10.47 50.846 0.06 7.23 12.36 10.85
4/26/2022 1:30:00 PM 10.53 50.954 0.06 7.25 12.66 10.84
4/26/2022 1:45:00 PM 10.52 50.936 0.06 7.22 11.83 10.8
4/26/2022 2:00:00 PM 10.47 50.846 0.06 7.25 12.59 10.8
4/26/2022 2:15:00 PM 10.44 50.792 0.06 7.25 11.72 10.8
4/26/2022 2:30:00 PM 10.47 50.846 0.06 7.25 11.61 10.81
4/26/2022 2:45:00 PM 10.52 50.936 0.06 7.24 15.56 10.82
4/26/2022 3:00:00 PM 10.51 50.918 0.06 7.24 18.59 10.78
4/26/2022 3:15:00 PM 10.47 50.846 0.06 7.23 24.74 10.77
4/26/2022 3:30:00 PM 10.42 50.756 0.06 7.21 22.8 10.76
4/26/2022 3:45:00 PM 10.39 50.702 0.06 7.2 21.08 10.76
4/26/2022 4:00:00 PM 10.37 50.666 0.06 7.2 21.08 10.78
4/26/2022 4:15:00 PM 10.35 50.63 0.06 7.21 19.69 10.78
4/26/2022 4:30:00 PM 10.32 50.576 0.06 7.2 19.57 10.77
4/26/2022 4:45:00 PM 10.3 50.54 0.06 7.21 17.83 10.79
4/26/2022 5:00:00 PM 10.3 50.54 0.06 7.21 25.46 10.82
4/26/2022 5:15:00 PM 10.31 50.558 0.06 7.2 29.69 10.8
4/26/2022 5:30:00 PM 10.29 50.522 0.06 7.18 37.63 10.79
4/26/2022 5:45:00 PM 10.26 50.468 0.06 7.19 43.29 10.78
4/26/2022 6:00:00 PM 10.24 50.432 0.06 7.19 34.5 10.79
4/26/2022 6:15:00 PM 10.25 50.45 0.06 7.21 23.79 10.83
4/26/2022 6:30:00 PM 10.23 50.414 0.06 7.21 18.85 10.83
4/26/2022 6:45:00 PM 10.19 50.342 0.032 7.21 17.65 10.81
4/26/2022 7:00:00 PM 10.13 50.234 0.06 7.21 16.33 10.81
4/26/2022 7:15:00 PM 10.08 50.144 0.06 7.18 14.96 10.81
4/26/2022 7:30:00 PM 9.99 49.982 0.061 7.17 14.27 10.79
4/26/2022 7:45:00 PM 9.89 49.802 0.061 7.17 13.42 10.81
4/26/2022 8:00:00 PM 9.8 49.64 0.061 7.17 14.38 10.83
4/26/2022 8:15:00 PM 9.7 49.46 0.061 7.16 13.53 10.85
4/26/2022 8:30:00 PM 9.63 49.334 0.061 7.16 15.47 10.88
4/26/2022 8:45:00 PM 9.55 49.19 0.061 7.15 15.59 10.9
4/26/2022 9:00:00 PM 9.47 49.046 0.061 7.17 13.63 10.92
4/26/2022 9:15:00 PM 9.37 48.866 0.061 7.15 12.84 10.94
4/26/2022 9:30:00 PM 9.27 48.686 0.061 7.14 13.26 10.97
4/26/2022 9:45:00 PM 9.19 48.542 0.061 7.16 11.93 11
4/26/2022 10:00:00 PM 9.11 48.398 0.061 7.16 13.24 11.02
4/26/2022 10:15:00 PM 9.03 48.254 0.061 7.16 11.48 11.05
4/26/2022 10:30:00 PM 8.96 48.128 0.061 7.16 11.37 11.07
4/26/2022 10:45:00 PM 8.89 48.002 0.061 7.15 12.07 11.09
4/26/2022 11:00:00 PM 8.81 47.858 0.061 7.14 13.73 11.11
4/26/2022 11:15:00 PM 8.72 47.696 0.061 7.14 11.29 11.13
4/26/2022 11:30:00 PM 8.65 47.57 0.061 7.16 10.21 11.15
4/26/2022 11:45:00 PM 8.59 47.462 0.061 7.17 10.19 11.17
4/27/2022 12:00:00 AM 8.5 47.3 0.061 7.13 10.79 11.19
4/27/2022 12:15:00 AM 8.42 47.156 0.061 7.14 10.6 11.22
4/27/2022 12:30:00 AM 8.34 47.012 0.061 7.16 11.06 11.24
4/27/2022 12:45:00 AM 8.27 46.886 0.061 7.16 10.81 11.26
4/27/2022 1:00:00 AM 8.21 46.778 0.061 7.16 10.26 11.28
4/27/2022 1:15:00 AM 8.15 46.67 0.061 7.16 11.12 11.3
4/27/2022 1:30:00 AM 8.08 46.544 0.061 7.16 9.96 11.31
4/27/2022 1:45:00 AM 8.01 46.418 0.061 7.18 12.56 11.32
4/27/2022 2:00:00 AM 7.95 46.31 0.061 7.15 9.71 11.34
4/27/2022 2:15:00 AM 7.89 46.202 0.061 7.14 10.33 11.36
4/27/2022 2:30:00 AM 7.83 46.094 0.061 7.14 9.74 11.38
4/27/2022 2:45:00 AM 7.78 46.004 0.061 7.12 10.24 11.39
4/27/2022 3:00:00 AM 7.71 45.878 0.061 7.14 10.56 11.4
4/27/2022 3:15:00 AM 7.62 45.716 0.061 7.11 12.12 11.43
4/27/2022 3:30:00 AM 7.54 45.572 0.061 7.05 22.47 11.45
4/27/2022 3:45:00 AM 7.47 45.446 0.061 6.97 9.44 11.47
4/27/2022 4:00:00 AM 7.39 45.302 0.061 7.01 9.82 11.49
4/27/2022 4:15:00 AM 7.31 45.158 0.061 7.02 9.66 11.51
4/27/2022 4:30:00 AM 7.26 45.068 0.061 7.03 8.88 11.53
4/27/2022 4:45:00 AM 7.19 44.942 0.061 7.03 9.27 11.55
4/27/2022 5:00:00 AM 7.16 44.888 0.061 7.06 8.5 11.56
4/27/2022 5:15:00 AM 7.1 44.78 0.061 7.09 8.74 11.58
4/27/2022 5:30:00 AM 7.03 44.654 0.061 7.09 10.1 11.6
4/27/2022 5:45:00 AM 6.95 44.51 0.061 7.08 12.71 11.63
4/27/2022 6:00:00 AM 6.89 44.402 0.061 7.07 225.86 11.65
4/27/2022 6:15:00 AM 6.86 44.348 0.061 7.09 78.13 11.66
4/27/2022 6:30:00 AM 6.79 44.222 0.061 7.07 31.22 11.67
4/27/2022 6:45:00 AM 6.76 44.168 0.061 7.09 14.52 11.72
4/27/2022 7:00:00 AM 6.75 44.15 0.061 7.1 19.46 11.73
4/27/2022 7:15:00 AM 6.71 44.078 0.061 7.12 12.95 11.78
4/27/2022 7:30:00 AM 6.71 44.078 0.061 7.17 10.03 11.81
4/27/2022 7:45:00 AM 6.7 44.06 0.061 7.16 11.64 11.82
4/27/2022 8:00:00 AM 6.68 44.024 0.061 7.18 9.67 11.84
4/27/2022 8:15:00 AM 6.66 43.988 0.061 7.17 9.27 11.85
4/27/2022 8:30:00 AM 6.68 44.024 0.061 7.18 9.75 11.86
4/27/2022 8:45:00 AM 6.77 44.186 0.061 7.19 9.64 11.85
4/27/2022 9:00:00 AM 6.73 44.114 0.061 7.21 20.3 11.85
4/27/2022 9:15:00 AM 6.62 43.916 0.061 7.2 136.97 11.85
4/27/2022 9:30:00 AM 6.56 43.808 0.06 7.18 8.66 11.89
4/27/2022 9:45:00 AM 6.6 43.88 0.06 7.19 9.57 11.9
4/27/2022 10:00:00 AM 6.53 43.754 0.06 7.18 10.01 11.87
4/27/2022 10:15:00 AM 6.41 43.538 0.06 7.18 8.97 11.91
4/27/2022 10:30:00 AM 6.43 43.574 0.06 7.17 7.63 11.95
4/27/2022 10:45:00 AM 6.93 44.474 0.06 7.2 16.64 11.87
4/27/2022 11:00:00 AM 7.2 44.96 0.06 7.2 14.93 11.75
4/27/2022 11:15:00 AM 6.87 44.366 0.06 7.2 9.28 11.81
4/27/2022 11:30:00 AM 6.59 43.862 0.06 7.21 25.08 11.87
4/27/2022 11:45:00 AM 6.69 44.042 0.06 7.2 8.72 11.89
4/27/2022 12:00:00 PM 6.73 44.114 0.06 7.19 8.11 11.87
4/27/2022 12:15:00 PM 6.82 44.276 0.06 7.21 8.46 11.86
4/27/2022 12:30:00 PM 6.94 44.492 0.06 7.21 7.74 11.84
4/27/2022 12:45:00 PM 7 44.6 0.06 7.21 7.83 11.83
4/27/2022 1:00:00 PM 6.99 44.582 0.06 7.21 7.84 11.8
4/27/2022 1:15:00 PM 6.92 44.456 0.06 7.21 7.93 11.83
4/27/2022 1:30:00 PM 7.09 44.762 0.06 7.23 11.59 11.8
4/27/2022 1:45:00 PM 6.99 44.582 0.06 7.21 7.34 11.75
4/27/2022 2:00:00 PM 6.82 44.276 0.06 7.2 7.52 11.82
4/27/2022 2:15:00 PM 6.94 44.492 0.06 7.22 8.15 11.83
4/27/2022 2:30:00 PM 6.97 44.546 0.06 7.2 8.15 11.79
4/27/2022 2:45:00 PM 6.91 44.438 0.06 7.2 7.68 11.8
4/27/2022 3:00:00 PM 6.83 44.294 0.06 7.2 8.16 11.82
4/27/2022 3:15:00 PM 6.84 44.312 0.06 7.19 8.49 11.83
4/27/2022 3:30:00 PM 6.81 44.258 0.06 7.19 8.09 11.8
4/27/2022 3:45:00 PM 6.72 44.096 0.06 7.19 8.01 11.84
4/27/2022 4:00:00 PM 6.7 44.06 0.06 7.18 7.8 11.85
4/27/2022 4:15:00 PM 6.65 43.97 0.06 7.18 8.53 11.83
4/27/2022 4:30:00 PM 6.57 43.826 0.06 7.17 8.47 11.85
4/27/2022 4:45:00 PM 6.58 43.844 0.06 7.17 8.05 11.89
4/27/2022 5:00:00 PM 6.63 43.934 0.056 7.19 8.43 11.89
4/27/2022 5:15:00 PM 6.5 43.7 0.06 7.18 8.17 11.86
4/27/2022 5:30:00 PM 6.4 43.52 0.06 7.16 8.15 11.92
4/27/2022 5:45:00 PM 6.31 43.358 0.06 7.15 8.36 11.92
4/27/2022 6:00:00 PM 6.24 43.232 0.06 7.08 8.13 11.94
4/27/2022 6:15:00 PM 6.18 43.124 0.06 7.1 8.65 11.94
4/27/2022 6:30:00 PM 6.12 43.016 0.06 7.09 7.85 11.95
4/27/2022 6:45:00 PM 6.07 42.926 0.06 7.1 8.13 11.97
4/27/2022 7:00:00 PM 6.01 42.818 0.06 7.1 8.09 11.97
4/27/2022 7:15:00 PM 5.93 42.674 0.061 7.06 8.09 11.99
4/27/2022 7:30:00 PM 5.85 42.53 0.061 7.08 7.57 12.02
4/27/2022 7:45:00 PM 5.78 42.404 0.061 7.08 7.77 12.04
4/27/2022 8:00:00 PM 5.71 42.278 0.061 7.07 8.53 12.06
4/27/2022 8:15:00 PM 5.63 42.134 0.061 7.08 8.21 12.08
4/27/2022 8:30:00 PM 5.58 42.044 0.061 7.08 8.68 12.09
4/27/2022 8:45:00 PM 5.53 41.954 0.061 7.05 8.01 12.11
4/27/2022 9:00:00 PM 5.49 41.882 0.061 7.07 7.83 12.12
4/27/2022 9:15:00 PM 5.44 41.792 0.061 7.06 7.42 12.14
4/27/2022 9:30:00 PM 5.4 41.72 0.061 7.07 7.67 12.15
4/27/2022 9:45:00 PM 5.35 41.63 0.061 7.06 7.73 12.17
4/27/2022 10:00:00 PM 5.31 41.558 0.061 7.08 7.23 12.18
4/27/2022 10:15:00 PM 5.27 41.486 0.061 7.08 7.06 12.2
4/27/2022 10:30:00 PM 5.22 41.396 0.061 7.08 6.95 12.21
4/27/2022 10:45:00 PM 5.18 41.324 0.061 7.08 6.55 12.23
4/27/2022 11:00:00 PM 5.14 41.252 0.061 7.08 6.75 12.25
4/27/2022 11:15:00 PM 5.11 41.198 0.061 7.09 7.02 12.26
4/27/2022 11:30:00 PM 5.07 41.126 0.061 7.08 6.67 12.27
4/27/2022 11:45:00 PM 5.03 41.054 0.061 7.07 6.47 12.28
4/28/2022 12:00:00 AM 5 41 0.061 7.08 6.01 12.29
4/28/2022 12:15:00 AM 4.97 40.946 0.061 7.08 6.68 12.31
4/28/2022 12:30:00 AM 4.93 40.874 0.061 7.08 5.81 12.32
4/28/2022 12:45:00 AM 4.89 40.802 0.061 7.09 5.89 12.33
4/28/2022 1:00:00 AM 4.85 40.73 0.061 7.09 5.95 12.34
4/28/2022 1:15:00 AM 4.8 40.64 0.061 7.09 6.03 12.35
4/28/2022 1:30:00 AM 4.77 40.586 0.061 7.08 5.77 12.37
4/28/2022 1:45:00 AM 4.74 40.532 0.061 7.09 5.93 12.37
4/28/2022 2:00:00 AM 4.7 40.46 0.061 7.09 5.83 12.39
4/28/2022 2:15:00 AM 4.66 40.388 0.061 7.09 5.61 12.4
4/28/2022 2:30:00 AM 4.62 40.316 0.061 7.09 5.48 12.42
4/28/2022 2:45:00 AM 4.59 40.262 0.061 7.09 5.6 12.43
4/28/2022 3:00:00 AM 4.57 40.226 0.061 7.09 5.71 12.44
4/28/2022 3:15:00 AM 4.54 40.172 0.061 7.09 5.51 12.45
4/28/2022 3:30:00 AM 4.5 40.1 0.061 7.09 5.24 12.46
4/28/2022 3:45:00 AM 4.48 40.064 0.061 7.09 5.36 12.48
4/28/2022 4:00:00 AM 4.46 40.028 0.061 7.1 5.22 12.48
4/28/2022 4:15:00 AM 4.44 39.992 0.061 7.09 5.3 12.49
4/28/2022 4:30:00 AM 4.41 39.938 0.061 7.1 5.56 12.5
4/28/2022 4:45:00 AM 4.38 39.884 0.061 7.1 6.48 12.51
4/28/2022 5:00:00 AM 4.36 39.848 0.061 7.1 5.65 12.52
4/28/2022 5:15:00 AM 4.32 39.776 0.061 7.1 5.67 12.53
4/28/2022 5:30:00 AM 4.29 39.722 0.061 7.1 5.45 12.54
4/28/2022 5:45:00 AM 4.26 39.668 0.061 7.1 5.45 12.55
4/28/2022 6:00:00 AM 4.24 39.632 0.061 7.1 5.24 12.55
4/28/2022 6:15:00 AM 4.21 39.578 0.061 7.09 5.41 12.57
4/28/2022 6:30:00 AM 4.14 39.452 0.061 7.1 5.66 12.6
4/28/2022 6:45:00 AM 4.13 39.434 0.061 7.11 5.51 12.64
4/28/2022 7:00:00 AM 4.12 39.416 0.061 7.12 5.36 12.67
4/28/2022 7:15:00 AM 4.1 39.38 0.061 7.13 5.35 12.69
4/28/2022 7:30:00 AM 4.08 39.344 0.061 7.14 5.14 12.7
4/28/2022 7:45:00 AM 4.08 39.344 0.061 7.15 5.56 12.73
4/28/2022 8:00:00 AM 4.1 39.38 0.061 7.15 5.75 12.74
4/28/2022 8:15:00 AM 4.11 39.398 0.061 7.15 5.72 12.73
4/28/2022 8:30:00 AM 4.1 39.38 0.061 7.16 5.46 12.74
4/28/2022 8:45:00 AM 4.22 39.596 0.061 7.16 5.35 12.73
4/28/2022 9:00:00 AM 4.27 39.686 0.061 7.17 5.8 12.72
4/28/2022 9:15:00 AM 4.42 39.956 0.061 7.18 5.81 12.7
4/28/2022 9:30:00 AM 4.59 40.262 0.061 7.19 5.75 12.65
4/28/2022 9:45:00 AM 4.75 40.55 0.061 7.19 5.33 12.6
4/28/2022 10:00:00 AM 4.92 40.856 0.061 7.2 5.93 12.56
4/28/2022 10:15:00 AM 5.11 41.198 0.061 7.2 5.52 12.5
4/28/2022 10:30:00 AM 5.3 41.54 0.061 7.2 5.57 12.45
4/28/2022 10:45:00 AM 5.49 41.882 0.061 7.2 5.71 12.38
4/28/2022 11:00:00 AM 5.67 42.206 0.061 7.2 6.2 12.33
4/28/2022 11:15:00 AM 5.84 42.512 0.06 7.2 5.69 12.28
4/28/2022 11:30:00 AM 6.03 42.854 0.06 7.2 6.29 12.22
4/28/2022 11:45:00 AM 6.21 43.178 0.06 7.19 6.21 12.16
4/28/2022 12:00:00 PM 6.4 43.52 0.06 7.2 6.26 12.11
4/28/2022 12:15:00 PM 6.56 43.808 0.06 7.21 6.09 12.04
4/28/2022 12:30:00 PM 6.72 44.096 0.06 7.21 6.75 11.99
4/28/2022 12:45:00 PM 6.88 44.384 0.06 7.2 6.65 11.95
4/28/2022 1:00:00 PM 7.03 44.654 0.06 7.21 7.01 11.9
4/28/2022 1:15:00 PM 7.17 44.906 0.06 7.21 6.84 11.85
4/28/2022 1:30:00 PM 7.33 45.194 0.06 7.2 7.01 11.79
4/28/2022 1:45:00 PM 7.46 45.428 0.06 7.2 7.15 11.75
4/28/2022 2:00:00 PM 7.59 45.662 0.06 7.21 7.29 11.71
4/28/2022 2:15:00 PM 7.69 45.842 0.06 7.21 7.63 11.67
4/28/2022 2:30:00 PM 7.77 45.986 0.06 7.21 7.76 11.64
4/28/2022 2:45:00 PM 7.84 46.112 0.06 7.2 7.46 11.61
4/28/2022 3:00:00 PM 7.88 46.184 0.06 7.21 7.82 11.59
4/28/2022 3:15:00 PM 7.92 46.256 0.06 7.21 7.76 11.57
4/28/2022 3:30:00 PM 7.91 46.238 0.06 7.2 8.32 11.57
4/28/2022 3:45:00 PM 7.89 46.202 0.06 7.21 8.09 11.56
4/28/2022 4:00:00 PM 7.81 46.058 0.06 7.21 7.98 11.58
4/28/2022 4:15:00 PM 7.74 45.932 0.06 7.2 8.3 11.59
4/28/2022 4:30:00 PM 7.67 45.806 0.06 7.2 8.69 11.6
4/28/2022 4:45:00 PM 7.62 45.716 0.06 7.2 8.83 11.62
4/28/2022 5:00:00 PM 7.52 45.536 0.06 7.2 8.5 11.63
4/28/2022 5:15:00 PM 7.43 45.374 0.061 7.2 8.52 11.65
4/28/2022 5:30:00 PM 7.29 45.122 0.061 7.2 8.39 11.68
4/28/2022 5:45:00 PM 7.17 44.906 0.061 7.19 8.41 11.71
4/28/2022 6:00:00 PM 7.07 44.726 0.061 7.19 8.36 11.74
4/28/2022 6:15:00 PM 6.96 44.528 0.061 7.18 8.27 11.76
4/28/2022 6:30:00 PM 6.87 44.366 0.061 7.19 8.46 11.78
4/28/2022 6:45:00 PM 6.77 44.186 0.061 7.18 7.74 11.79
4/28/2022 7:00:00 PM 6.68 44.024 0.061 7.17 8.11 11.8
4/28/2022 7:15:00 PM 6.62 43.916 0.061 7.17 7.94 11.82
4/28/2022 7:30:00 PM 6.55 43.79 0.061 7.16 8.19 11.82
4/28/2022 7:45:00 PM 6.5 43.7 0.061 7.15 8.17 11.83
4/28/2022 8:00:00 PM 6.44 43.592 0.061 7.15 8.09 11.84
4/28/2022 8:15:00 PM 6.36 43.448 0.061 7.14 7.95 11.85
4/28/2022 8:30:00 PM 6.3 43.34 0.061 7.14 8.19 11.87
4/28/2022 8:45:00 PM 6.23 43.214 0.061 7.13 8.25 11.89
4/28/2022 9:00:00 PM 6.16 43.088 0.062 7.13 8.1 11.9
4/28/2022 9:15:00 PM 6.09 42.962 0.062 7.13 7.99 11.93
4/28/2022 9:30:00 PM 6.02 42.836 0.062 7.13 7.94 11.95
4/28/2022 9:45:00 PM 5.95 42.71 0.062 7.13 7.15 11.98
4/28/2022 10:00:00 PM 5.88 42.584 0.062 7.13 7.08 12.01
4/28/2022 10:15:00 PM 5.8 42.44 0.062 7.12 7.03 12.03
4/28/2022 10:30:00 PM 5.71 42.278 0.062 7.13 6.62 12.06
4/28/2022 10:45:00 PM 5.63 42.134 0.062 7.13 7.2 12.09
4/28/2022 11:00:00 PM 5.54 41.972 0.062 7.13 6.66 12.11
4/28/2022 11:15:00 PM 5.45 41.81 0.062 7.13 6.45 12.14
4/28/2022 11:30:00 PM 5.36 41.648 0.062 7.13 6.78 12.17
4/28/2022 11:45:00 PM 5.27 41.486 0.062 7.12 6.24 12.2
4/29/2022 12:00:00 AM 5.17 41.306 0.062 7.12 6.52 12.24
4/29/2022 12:15:00 AM 5.08 41.144 0.062 7.12 6.27 12.28
4/29/2022 12:30:00 AM 4.99 40.982 0.062 7.12 6.64 12.3
4/29/2022 12:45:00 AM 4.91 40.838 0.062 7.12 6.52 12.32
4/29/2022 1:00:00 AM 4.83 40.694 0.062 7.11 6.22 12.35
4/29/2022 1:15:00 AM 4.75 40.55 0.062 7.12 5.76 12.38
4/29/2022 1:30:00 AM 4.68 40.424 0.062 7.12 6.18 12.4
4/29/2022 1:45:00 AM 4.6 40.28 0.062 7.12 5.83 12.43
4/29/2022 2:00:00 AM 4.53 40.154 0.062 7.12 5.54 12.46
4/29/2022 2:15:00 AM 4.46 40.028 0.062 7.1 5.7 12.48
4/29/2022 2:30:00 AM 4.4 39.92 0.062 7.03 5.47 12.51
4/29/2022 2:45:00 AM 4.33 39.794 0.062 7.04 5.72 12.53
4/29/2022 3:00:00 AM 4.27 39.686 0.062 7.06 6.33 12.55
4/29/2022 3:15:00 AM 4.21 39.578 0.062 7.06 5.59 12.56
4/29/2022 3:30:00 AM 4.14 39.452 0.062 7.06 5.29 12.59
4/29/2022 3:45:00 AM 4.08 39.344 0.062 7.06 5.44 12.61
4/29/2022 4:00:00 AM 4.02 39.236 0.062 7.04 5.31 12.63
4/29/2022 4:15:00 AM 3.97 39.146 0.062 7.06 5.33 12.65
4/29/2022 4:30:00 AM 3.92 39.056 0.062 7.06 5.14 12.67
4/29/2022 4:45:00 AM 3.87 38.966 0.062 7.07 4.95 12.69
4/29/2022 5:00:00 AM 3.83 38.894 0.062 7.07 5.08 12.7
4/29/2022 5:15:00 AM 3.78 38.804 0.062 7.07 5.13 12.72
4/29/2022 5:30:00 AM 3.73 38.714 0.062 7.07 5.63 12.74
4/29/2022 5:45:00 AM 3.68 38.624 0.062 7.07 4.98 12.75
4/29/2022 6:00:00 AM 3.64 38.552 0.062 7.07 5.4 12.77
4/29/2022 6:15:00 AM 3.59 38.462 0.062 7.08 5.08 12.79
4/29/2022 6:30:00 AM 3.55 38.39 0.062 7.08 5.16 12.83
4/29/2022 6:45:00 AM 3.53 38.354 0.062 7.1 5.2 12.86
4/29/2022 7:00:00 AM 3.51 38.318 0.062 7.11 5.27 12.89
4/29/2022 7:15:00 AM 3.5 38.3 0.062 7.11 5.15 12.91
4/29/2022 7:30:00 AM 3.5 38.3 0.062 7.13 4.88 12.93
4/29/2022 7:45:00 AM 3.54 38.372 0.062 7.13 5.4 12.94
4/29/2022 8:00:00 AM 3.6 38.48 0.062 7.14 4.9 12.93
4/29/2022 8:15:00 AM 3.7 38.66 0.062 7.16 5.22 12.91
4/29/2022 8:30:00 AM 3.82 38.876 0.062 7.16 5 12.9
4/29/2022 8:45:00 AM 3.96 39.128 0.062 7.18 5.07 12.86
4/29/2022 9:00:00 AM 4.11 39.398 0.062 7.19 4.94 12.82
4/29/2022 9:15:00 AM 4.25 39.65 0.062 7.19 5.11 12.78
4/29/2022 9:30:00 AM 4.41 39.938 0.062 7.19 5.34 12.74
4/29/2022 9:45:00 AM 4.6 40.28 0.062 7.2 5.12 12.68
4/29/2022 10:00:00 AM 4.82 40.676 0.062 7.21 5.23 12.61
4/29/2022 10:15:00 AM 5.04 41.072 0.062 7.2 5.01 12.57
4/29/2022 10:30:00 AM 5.27 41.486 0.062 7.21 5.12 12.49
4/29/2022 10:45:00 AM 5.51 41.918 0.061 7.21 5.28 12.41
4/29/2022 11:00:00 AM 5.74 42.332 0.061 7.21 5.39 12.35
4/29/2022 11:15:00 AM 5.95 42.71 0.061 7.21 5.47 12.28
4/29/2022 11:30:00 AM 6.17 43.106 0.061 7.22 5.38 12.21
4/29/2022 11:45:00 AM 6.35 43.43 0.061 7.21 5.62 12.15
4/29/2022 12:00:00 PM 6.58 43.844 0.061 7.21 5.52 12.07
4/29/2022 12:15:00 PM 6.76 44.168 0.061 7.22 5.69 12.01
4/29/2022 12:30:00 PM 6.93 44.474 0.061 7.22 5.8 11.96
4/29/2022 12:45:00 PM 7.13 44.834 0.061 7.22 5.84 11.9
4/29/2022 1:00:00 PM 7.3 45.14 0.061 7.22 6.18 11.83
4/29/2022 1:15:00 PM 7.48 45.464 0.061 7.22 6.41 11.77
4/29/2022 1:30:00 PM 7.66 45.788 0.061 7.21 6.45 11.72
4/29/2022 1:45:00 PM 7.82 46.076 0.061 7.22 6.45 11.66
4/29/2022 2:00:00 PM 7.97 46.346 0.061 7.22 6.67 11.61
4/29/2022 2:15:00 PM 8.1 46.58 0.061 7.22 6.42 11.56
4/29/2022 2:30:00 PM 8.21 46.778 0.061 7.21 7.25 11.52
4/29/2022 2:45:00 PM 8.28 46.904 0.061 7.22 7.06 11.5
4/29/2022 3:00:00 PM 8.33 46.994 0.061 7.21 7.27 11.48
4/29/2022 3:15:00 PM 8.37 47.066 0.061 7.22 7.61 11.46
4/29/2022 3:30:00 PM 8.39 47.102 0.061 7.21 8.19 11.45
4/29/2022 3:45:00 PM 8.37 47.066 0.061 7.22 7.76 11.45
4/29/2022 4:00:00 PM 8.34 47.012 0.061 7.22 7.43 11.45
4/29/2022 4:15:00 PM 8.3 46.94 0.061 7.22 8.3 11.44
4/29/2022 4:30:00 PM 8.26 46.868 0.061 7.22 7.97 11.45
4/29/2022 4:45:00 PM 8.22 46.796 0.061 7.21 8.53 11.45
4/29/2022 5:00:00 PM 8.16 46.688 0.061 7.22 8.39 11.46
4/29/2022 5:15:00 PM 8.07 46.526 0.061 7.21 8.31 11.47
4/29/2022 5:30:00 PM 7.98 46.364 0.061 7.21 8.37 11.49
4/29/2022 5:45:00 PM 7.88 46.184 0.062 7.21 8.73 11.51
4/29/2022 6:00:00 PM 7.76 45.968 0.062 7.19 8.35 11.54
4/29/2022 6:15:00 PM 7.65 45.77 0.062 7.2 8.41 11.56
4/29/2022 6:30:00 PM 7.57 45.626 0.062 7.21 8.18 11.57
4/29/2022 6:45:00 PM 7.49 45.482 0.062 7.2 7.63 11.58
4/29/2022 7:00:00 PM 7.43 45.374 0.062 7.19 8.31 11.59
4/29/2022 7:15:00 PM 7.37 45.266 0.062 7.18 8.55 11.6
4/29/2022 7:30:00 PM 7.3 45.14 0.062 7.18 8.49 11.6
4/29/2022 7:45:00 PM 7.24 45.032 0.062 7.17 7.93 11.61
4/29/2022 8:00:00 PM 7.18 44.924 0.062 7.17 8.37 11.61
4/29/2022 8:15:00 PM 7.11 44.798 0.062 7.16 7.77 11.63
4/29/2022 8:30:00 PM 7.04 44.672 0.062 7.14 8.53 11.64
4/29/2022 8:45:00 PM 6.97 44.546 0.062 7.14 9.05 11.67
4/29/2022 9:00:00 PM 6.9 44.42 0.063 7.14 7.99 11.69
4/29/2022 9:15:00 PM 6.83 44.294 0.063 7.15 8.32 11.71
4/29/2022 9:30:00 PM 6.75 44.15 0.063 7.14 8.24 11.73
4/29/2022 9:45:00 PM 6.67 44.006 0.063 7.14 8.07 11.75
4/29/2022 10:00:00 PM 6.58 43.844 0.063 7.14 7.82 11.78
4/29/2022 10:15:00 PM 6.5 43.7 0.063 7.14 7.4 11.81
4/29/2022 10:30:00 PM 6.42 43.556 0.063 7.14 7.43 11.84
4/29/2022 10:45:00 PM 6.34 43.412 0.063 7.14 7.44 11.87
4/29/2022 11:00:00 PM 6.25 43.25 0.063 7.14 7.38 11.9
4/29/2022 11:15:00 PM 6.17 43.106 0.063 7.14 7.24 11.91
4/29/2022 11:30:00 PM 6.08 42.944 0.063 7.14 6.79 11.94
4/29/2022 11:45:00 PM 6 42.8 0.063 7.14 7.04 11.97
4/30/2022 12:00:00 AM 5.91 42.638 0.063 7.13 6.46 11.99
4/30/2022 12:15:00 AM 5.82 42.476 0.063 7.13 6.86 12.03
4/30/2022 12:30:00 AM 5.73 42.314 0.064 7.13 6.66 12.06
4/30/2022 12:45:00 AM 5.64 42.152 0.064 7.15 6.35 12.09
4/30/2022 1:00:00 AM 5.55 41.99 0.063 7.14 6.49 12.11
4/30/2022 1:15:00 AM 5.47 41.846 0.063 7.14 6.78 12.14
4/30/2022 1:30:00 AM 5.38 41.684 0.063 7.14 6.37 12.17
4/30/2022 1:45:00 AM 5.29 41.522 0.068 7.14 6.11 12.19
4/30/2022 2:00:00 AM 5.2 41.36 0.064 7.14 6.26 12.22
4/30/2022 2:15:00 AM 5.12 41.216 0.064 7.14 6.15 12.26
4/30/2022 2:30:00 AM 5.03 41.054 0.064 7.14 6.13 12.29
4/30/2022 2:45:00 AM 4.95 40.91 0.064 7.12 5.89 12.31
4/30/2022 3:00:00 AM 4.88 40.784 0.064 7.14 5.71 12.33
4/30/2022 3:15:00 AM 4.8 40.64 0.064 7.14 5.71 12.35
4/30/2022 3:30:00 AM 4.73 40.514 0.064 7.14 5.72 12.38
4/30/2022 3:45:00 AM 4.66 40.388 0.064 7.13 5.61 12.41
4/30/2022 4:00:00 AM 4.59 40.262 0.064 7.15 5.91 12.43
4/30/2022 4:15:00 AM 4.52 40.136 0.064 7.12 5.64 12.46
4/30/2022 4:30:00 AM 4.45 40.01 0.064 7.14 5.37 12.48
4/30/2022 4:45:00 AM 4.38 39.884 0.064 7.12 5.36 12.51
4/30/2022 5:00:00 AM 4.31 39.758 0.064 7.13 5.26 12.53
4/30/2022 5:15:00 AM 4.25 39.65 0.064 7.15 5.07 12.55
4/30/2022 5:30:00 AM 4.18 39.524 0.064 7.13 5.57 12.57
4/30/2022 5:45:00 AM 4.11 39.398 0.064 7.14 5.24 12.59
4/30/2022 6:00:00 AM 4.05 39.29 0.064 7.17 5.1 12.61
4/30/2022 6:15:00 AM 4 39.2 0.064 7.17 5.54 12.64
4/30/2022 6:30:00 AM 3.94 39.092 0.064 7.16 5.25 12.68
4/30/2022 6:45:00 AM 3.91 39.038 0.064 7.16 5.42 12.72
4/30/2022 7:00:00 AM 3.88 38.984 0.063 7.12 5.47 12.75
4/30/2022 7:15:00 AM 3.86 38.948 0.063 7.17 5.3 12.79
4/30/2022 7:30:00 AM 3.86 38.948 0.063 7.18 5.22 12.8
4/30/2022 7:45:00 AM 3.87 38.966 0.063 7.11 5.14 12.82
4/30/2022 8:00:00 AM 3.92 39.056 0.063 7.16 5.16 12.81
4/30/2022 8:15:00 AM 4 39.2 0.063 7.16 5.09 12.8
4/30/2022 8:30:00 AM 4.11 39.398 0.063 7.18 5.06 12.78
4/30/2022 8:45:00 AM 4.24 39.632 0.063 7.19 5.09 12.75
4/30/2022 9:00:00 AM 4.39 39.902 0.063 7.22 5.09 12.72
4/30/2022 9:15:00 AM 4.56 40.208 0.063 7.21 5.14 12.67
4/30/2022 9:30:00 AM 4.76 40.568 0.063 7.21 4.93 12.61
4/30/2022 9:45:00 AM 5 41 0.063 7.19 4.75 12.55
4/30/2022 10:00:00 AM 5.25 41.45 0.063 7.21 5.03 12.47
4/30/2022 10:15:00 AM 5.54 41.972 0.063 7.21 4.81 12.39
4/30/2022 10:30:00 AM 5.83 42.494 0.063 7.24 5.31 12.31
4/30/2022 10:45:00 AM 6.09 42.962 0.063 7.24 11.3 12.22
4/30/2022 11:00:00 AM 6.35 43.43 0.063 7.2 5.5 12.16
4/30/2022 11:15:00 AM 6.58 43.844 0.063 7.23 5.46 12.08
4/30/2022 11:30:00 AM 6.8 44.24 0.063 7.24 5.2 12.01
4/30/2022 11:45:00 AM 7.03 44.654 0.063 7.23 6.12 11.95
4/30/2022 12:00:00 PM 7.26 45.068 0.062 7.23 5.82 11.86
4/30/2022 12:15:00 PM 7.48 45.464 0.062 7.23 5.6 11.8
4/30/2022 12:30:00 PM 7.69 45.842 0.062 7.23 6.1 11.74
4/30/2022 12:45:00 PM 7.9 46.22 0.062 7.27 6.03 11.66
4/30/2022 1:00:00 PM 8.09 46.562 0.062 7.24 6.31 11.6
4/30/2022 1:15:00 PM 8.29 46.922 0.062 7.26 6.55 11.55
4/30/2022 1:30:00 PM 8.48 47.264 0.062 7.23 6.13 11.48
4/30/2022 1:45:00 PM 8.65 47.57 0.062 7.26 6.78 11.42
4/30/2022 2:00:00 PM 8.8 47.84 0.062 7.26 6.73 11.37
4/30/2022 2:15:00 PM 8.94 48.092 0.062 7.29 6.88 11.33
4/30/2022 2:30:00 PM 9.04 48.272 0.062 7.24 7.1 11.28
4/30/2022 2:45:00 PM 9.12 48.416 0.062 7.24 7.34 11.24
4/30/2022 3:00:00 PM 9.2 48.56 0.062 7.27 7.04 11.22
4/30/2022 3:15:00 PM 9.25 48.65 0.062 7.21 7.52 11.21
4/30/2022 3:30:00 PM 9.3 48.74 0.062 7.25 7.86 11.18
4/30/2022 3:45:00 PM 9.29 48.722 0.062 7.28 8.07 11.16
4/30/2022 4:00:00 PM 9.25 48.65 0.062 7.25 8.01 11.17
4/30/2022 4:15:00 PM 9.25 48.65 0.062 7.23 8.02 11.18
4/30/2022 4:30:00 PM 9.25 48.65 0.062 7.28 8.2 11.16
4/30/2022 4:45:00 PM 9.2 48.56 0.062 7.26 7.96 11.16
4/30/2022 5:00:00 PM 9.15 48.47 0.062 7.24 8.42 11.17
4/30/2022 5:15:00 PM 9.08 48.344 0.062 7.27 8.9 11.18
4/30/2022 5:30:00 PM 9 48.2 0.063 7.23 8.62 11.19
4/30/2022 5:45:00 PM 8.9 48.02 0.063 7.18 8.5 11.22
4/30/2022 6:00:00 PM 8.85 47.93 0.063 7.27 8.58 11.24
4/30/2022 6:15:00 PM 8.78 47.804 0.063 7.28 8.6 11.24
4/30/2022 6:30:00 PM 8.72 47.696 0.063 7.24 8.26 11.25
4/30/2022 6:45:00 PM 8.64 47.552 0.063 7.22 8.26 11.25
4/30/2022 7:00:00 PM 8.59 47.462 0.063 7.21 8.69 11.27
4/30/2022 7:15:00 PM 8.53 47.354 0.063 7.2 8.21 11.27
4/30/2022 7:30:00 PM 8.48 47.264 0.063 7.18 8.49 11.26
4/30/2022 7:45:00 PM 8.41 47.138 0.063 7.17 8.32 11.26
4/30/2022 8:00:00 PM 8.34 47.012 0.063 7.16 8.37 11.26
4/30/2022 8:15:00 PM 8.27 46.886 0.063 7.14 8.86 11.27
4/30/2022 8:30:00 PM 8.2 46.76 0.064 7.13 8.46 11.28
4/30/2022 8:45:00 PM 8.13 46.634 0.064 7.13 8.27 11.3
4/30/2022 9:00:00 PM 8.06 46.508 0.064 7.14 8.41 11.31
4/30/2022 9:15:00 PM 8 46.4 0.064 7.13 8.18 11.33
4/30/2022 9:30:00 PM 7.94 46.292 0.064 7.13 7.95 11.35
4/30/2022 9:45:00 PM 7.88 46.184 0.064 7.12 8.21 11.37
4/30/2022 10:00:00 PM 7.81 46.058 0.064 7.14 8.03 11.39
4/30/2022 10:15:00 PM 7.74 45.932 0.064 7.13 8.18 11.41
4/30/2022 10:30:00 PM 7.66 45.788 0.064 7.13 7.83 11.44
4/30/2022 10:45:00 PM 7.59 45.662 0.064 7.14 7.98 11.46
4/30/2022 11:00:00 PM 7.51 45.518 0.064 7.13 7.6 11.48
4/30/2022 11:15:00 PM 7.43 45.374 0.064 7.15 7.79 11.5
4/30/2022 11:30:00 PM 7.34 45.212 0.064 7.12 7.37 11.52
4/30/2022 11:45:00 PM 7.25 45.05 0.064 7.13 7.18 11.55
5/1/2022 12:00:00 AM 7.17 44.906 0.064 7.14 7.26 11.58
5/1/2022 12:15:00 AM 7.08 44.744 0.064 7.15 6.95 11.61
5/1/2022 12:30:00 AM 6.99 44.582 0.065 7.13 7.04 11.64
5/1/2022 12:45:00 AM 6.9 44.42 0.065 7.12 6.89 11.67
5/1/2022 1:00:00 AM 6.81 44.258 0.065 7.15 7.09 11.69
5/1/2022 1:15:00 AM 6.72 44.096 0.065 7.15 7.09 11.71
5/1/2022 1:30:00 AM 6.62 43.916 0.065 7.13 7.05 11.74
5/1/2022 1:45:00 AM 6.53 43.754 0.065 7.17 6.6 11.77
5/1/2022 2:00:00 AM 6.44 43.592 0.065 7.15 6.87 11.81
5/1/2022 2:15:00 AM 6.34 43.412 0.065 7.15 6.87 11.84
5/1/2022 2:30:00 AM 6.25 43.25 0.065 7.11 6.87 11.86
5/1/2022 2:45:00 AM 6.16 43.088 0.065 7.14 6.45 11.88
5/1/2022 3:00:00 AM 6.07 42.926 0.065 7.14 6.48 11.91
5/1/2022 3:15:00 AM 5.98 42.764 0.065 7.14 6.35 11.94
5/1/2022 3:30:00 AM 5.89 42.602 0.065 7.13 6.44 11.97
5/1/2022 3:45:00 AM 5.8 42.44 0.065 7.16 6.5 12
5/1/2022 4:00:00 AM 5.7 42.26 0.065 7.15 6.1 12.04
5/1/2022 4:15:00 AM 5.61 42.098 0.065 7.15 6.33 12.07
5/1/2022 4:30:00 AM 5.52 41.936 0.065 7.18 6.04 12.09
5/1/2022 4:45:00 AM 5.44 41.792 0.065 7.18 8.88 12.11
5/1/2022 5:00:00 AM 5.35 41.63 0.065 7.18 6.58 12.14
5/1/2022 5:15:00 AM 5.27 41.486 0.065 7.13 6.06 12.17
5/1/2022 5:30:00 AM 5.19 41.342 0.065 7.19 6.23 12.2
5/1/2022 5:45:00 AM 5.11 41.198 0.065 7.2 6.31 12.22
5/1/2022 6:00:00 AM 5.04 41.072 0.065 7.19 5.94 12.25
5/1/2022 6:15:00 AM 4.98 40.964 0.065 7.2 5.77 12.28
5/1/2022 6:30:00 AM 4.93 40.874 0.065 7.11 5.96 12.32
5/1/2022 6:45:00 AM 4.9 40.82 0.065 7.15 6.15 12.35
5/1/2022 7:00:00 AM 4.88 40.784 0.065 7.14 5.84 12.39
5/1/2022 7:15:00 AM 4.88 40.784 0.065 7.13 5.69 12.41
5/1/2022 7:30:00 AM 4.88 40.784 0.065 7.15 5.87 12.43
5/1/2022 7:45:00 AM 4.92 40.856 0.065 7.16 5.74 12.43
5/1/2022 8:00:00 AM 4.99 40.982 0.065 7.18 5.45 12.43
5/1/2022 8:15:00 AM 5.12 41.216 0.064 7.19 5.62 12.41
5/1/2022 8:30:00 AM 5.27 41.486 0.064 7.2 5.61 12.36
5/1/2022 8:45:00 AM 5.41 41.738 0.064 7.21 5.42 12.32
5/1/2022 9:00:00 AM 5.51 41.918 0.064 7.21 5.68 12.29
5/1/2022 9:15:00 AM 5.68 42.224 0.064 7.22 5.42 12.27
5/1/2022 9:30:00 AM 5.86 42.548 0.064 7.22 7.1 12.21
5/1/2022 9:45:00 AM 6.03 42.854 0.064 7.22 6.13 12.15
5/1/2022 10:00:00 AM 6.2 43.16 0.064 7.23 6.17 12.11
5/1/2022 10:15:00 AM 6.59 43.862 0.064 7.23 6.05 12.02
5/1/2022 10:30:00 AM 6.85 44.33 0.064 7.24 5.77 11.92
5/1/2022 10:45:00 AM 7.12 44.816 0.064 7.24 5.75 11.87
5/1/2022 11:00:00 AM 7.47 45.446 0.064 7.23 5.76 11.77
5/1/2022 11:15:00 AM 7.78 46.004 0.064 7.25 5.91 11.69
5/1/2022 11:30:00 AM 7.91 46.238 0.064 7.27 6.31 11.61
5/1/2022 11:45:00 AM 7.65 45.77 0.064 7.26 6.19 11.63
5/1/2022 12:00:00 PM 7.48 45.464 0.064 7.26 6.35 11.68
5/1/2022 12:15:00 PM 7.46 45.428 0.064 7.27 6.64 11.69
5/1/2022 12:30:00 PM 7.53 45.554 0.064 7.22 6.61 11.69
5/1/2022 12:45:00 PM 7.64 45.752 0.063 7.26 6.74 11.66
5/1/2022 1:00:00 PM 7.65 45.77 0.063 7.28 6.51 11.62
5/1/2022 1:15:00 PM 7.6 45.68 0.064 7.26 6.69 11.6
5/1/2022 1:30:00 PM 7.57 45.626 0.064 7.24 6.82 11.6
5/1/2022 1:45:00 PM 7.57 45.626 0.064 7.26 6.75 11.59
5/1/2022 2:00:00 PM 7.55 45.59 0.064 7.25 6.88 11.57
5/1/2022 2:15:00 PM 7.55 45.59 0.064 7.23 7.12 11.58
5/1/2022 2:30:00 PM 7.58 45.644 0.064 7.22 7 11.59
5/1/2022 2:45:00 PM 7.6 45.68 0.064 7.25 7.43 11.58
5/1/2022 3:00:00 PM 7.63 45.734 0.064 7.24 7.5 11.59
5/1/2022 3:15:00 PM 7.63 45.734 0.064 7.25 7.32 11.56
5/1/2022 3:30:00 PM 7.65 45.77 0.064 7.22 7.45 11.55
5/1/2022 3:45:00 PM 7.68 45.824 0.064 7.23 7.55 11.56
5/1/2022 4:00:00 PM 7.69 45.842 0.064 7.23 7.65 11.54
5/1/2022 4:15:00 PM 7.67 45.806 0.064 7.25 7.87 11.5
5/1/2022 4:30:00 PM 7.67 45.806 0.064 7.24 7.69 11.53
5/1/2022 4:45:00 PM 7.7 45.86 0.064 7.2 7.48 11.53
5/1/2022 5:00:00 PM 7.77 45.986 0.064 7.26 7.77 11.53
5/1/2022 5:15:00 PM 7.79 46.022 0.064 7.26 7.35 11.51
5/1/2022 5:30:00 PM 7.78 46.004 0.064 7.25 7.36 11.48
5/1/2022 5:45:00 PM 7.79 46.022 0.064 7.2 7.33 11.5
5/1/2022 6:00:00 PM 7.8 46.04 0.064 7.24 7.28 11.48
5/1/2022 6:15:00 PM 7.79 46.022 0.064 7.22 7.27 11.45
5/1/2022 6:30:00 PM 7.77 45.986 0.064 7.18 7.01 11.44
5/1/2022 6:45:00 PM 7.76 45.968 0.064 7.22 7.41 11.43
5/1/2022 7:00:00 PM 7.75 45.95 0.064 7.21 7.78 11.42
5/1/2022 7:15:00 PM 7.75 45.95 0.064 7.19 7.4 11.42
5/1/2022 7:30:00 PM 7.75 45.95 0.064 7.19 7.92 11.41
5/1/2022 7:45:00 PM 7.75 45.95 0.064 7.2 7.79 11.41
5/1/2022 8:00:00 PM 7.75 45.95 0.065 7.19 7.65 11.39
5/1/2022 8:15:00 PM 7.74 45.932 0.065 7.19 7.67 11.39
5/1/2022 8:30:00 PM 7.73 45.914 0.065 7.17 7.81 11.38
5/1/2022 8:45:00 PM 7.73 45.914 0.065 7.17 7.57 11.38
5/1/2022 9:00:00 PM 7.73 45.914 0.065 7.17 7.69 11.39
5/1/2022 9:15:00 PM 7.73 45.914 0.065 7.15 7.6 11.38
5/1/2022 9:30:00 PM 7.74 45.932 0.065 7.18 7.79 11.39
5/1/2022 9:45:00 PM 7.74 45.932 0.065 7.16 7.47 11.38
5/1/2022 10:00:00 PM 7.75 45.95 0.065 7.18 7.31 11.38
5/1/2022 10:15:00 PM 7.78 46.004 0.065 7.18 7 11.38
5/1/2022 10:30:00 PM 7.79 46.022 0.065 7.17 7.23 11.37
5/1/2022 10:45:00 PM 7.8 46.04 0.065 7.18 7.27 11.36
5/1/2022 11:00:00 PM 7.8 46.04 0.065 7.18 7.25 11.36
5/1/2022 11:15:00 PM 7.8 46.04 0.065 7.16 6.64 11.36
5/1/2022 11:30:00 PM 7.82 46.076 0.065 7.18 6.81 11.35
5/1/2022 11:45:00 PM 7.83 46.094 0.065 7.16 7.11 11.35
5/2/2022 12:00:00 AM 7.85 46.13 0.065 7.17 7.14 11.34
5/2/2022 12:15:00 AM 7.86 46.148 0.065 7.15 7.23 11.34
5/2/2022 12:30:00 AM 7.88 46.184 0.065 7.16 7.41 11.33
5/2/2022 12:45:00 AM 7.87 46.166 0.065 7.17 7.98 11.33
5/2/2022 1:00:00 AM 7.88 46.184 0.065 7.16 8.81 11.32
5/2/2022 1:15:00 AM 7.89 46.202 0.065 7.16 9.32 11.33
5/2/2022 1:30:00 AM 7.89 46.202 0.066 7.16 13.69 11.32
5/2/2022 1:45:00 AM 7.9 46.22 0.067 7.11 18.48 11.32
5/2/2022 2:00:00 AM 7.89 46.202 0.067 7.16 10.3 11.32
5/2/2022 2:15:00 AM 7.89 46.202 0.067 7.15 9.72 11.32
5/2/2022 2:30:00 AM 7.88 46.184 0.067 7.17 9.56 11.32
5/2/2022 2:45:00 AM 7.88 46.184 0.067 7.14 10.08 11.32
5/2/2022 3:00:00 AM 7.89 46.202 0.066 7.15 8.78 11.32
5/2/2022 3:15:00 AM 7.89 46.202 0.066 7.16 8.48 11.31
5/2/2022 3:30:00 AM 7.9 46.22 0.066 7.15 8.18 11.32
5/2/2022 3:45:00 AM 7.91 46.238 0.066 7.16 8.25 11.31
5/2/2022 4:00:00 AM 7.92 46.256 0.066 7.16 7.96 11.32
5/2/2022 4:15:00 AM 7.92 46.256 0.066 7.16 8.48 11.32
5/2/2022 4:30:00 AM 7.92 46.256 0.066 7.15 8.04 11.31
5/2/2022 4:45:00 AM 7.92 46.256 0.066 7.17 8.14 11.31
5/2/2022 5:00:00 AM 7.92 46.256 0.066 7.16 7.82 11.32
5/2/2022 5:15:00 AM 7.92 46.256 0.066 7.16 8.35 11.31
5/2/2022 5:30:00 AM 7.93 46.274 0.066 7.15 7.93 11.31
5/2/2022 5:45:00 AM 7.93 46.274 0.066 7.16 8.28 11.31
5/2/2022 6:00:00 AM 7.93 46.274 0.066 7.13 8.13 11.31
5/2/2022 6:15:00 AM 7.93 46.274 0.066 7.15 8.29 11.31
5/2/2022 6:30:00 AM 7.93 46.274 0.066 7.16 8.27 11.32
5/2/2022 6:45:00 AM 7.94 46.292 0.066 7.16 8.15 11.34
5/2/2022 7:00:00 AM 7.96 46.328 0.067 7.17 8.4 11.37
5/2/2022 7:15:00 AM 7.99 46.382 0.067 7.19 8.18 11.37
5/2/2022 7:30:00 AM 8.01 46.418 0.067 7.21 8.54 11.38
5/2/2022 7:45:00 AM 8.03 46.454 0.067 7.2 8.63 11.38
5/2/2022 8:00:00 AM 8.08 46.544 0.067 7.23 8.19 11.4
5/2/2022 8:15:00 AM 8.12 46.616 0.067 7.21 8.07 11.38
5/2/2022 8:30:00 AM 8.17 46.706 0.067 7.24 8.16 11.39
5/2/2022 8:45:00 AM 8.21 46.778 0.066 7.25 8.17 11.39
5/2/2022 9:00:00 AM 8.27 46.886 0.066 7.25 8.54 11.39
5/2/2022 9:15:00 AM 8.31 46.958 0.066 7.21 8.05 11.38
5/2/2022 9:30:00 AM 8.43 47.174 0.066 7.25 8.4 11.38
5/2/2022 9:45:00 AM 8.81 47.858 0.066 7.27 8.62 11.33
5/2/2022 10:00:00 AM 8.91 48.038 0.066 7.26 8.55 11.29
5/2/2022 10:15:00 AM 8.98 48.164 0.066 7.28 8.17 11.24
5/2/2022 10:30:00 AM 9.19 48.542 0.066 7.27 8.72 11.22
5/2/2022 10:45:00 AM 9.25 48.65 0.066 7.27 8.72 11.17
5/2/2022 11:00:00 AM 9.08 48.344 0.066 7.24 8.6 11.15
5/2/2022 11:15:00 AM 8.97 48.146 0.066 7.27 8.51 11.17
5/2/2022 11:30:00 AM 8.88 47.984 0.066 7.21 8.04 11.14
5/2/2022 11:45:00 AM 8.83 47.894 0.066 7.15 8.43 11.15
5/2/2022 12:00:00 PM 8.83 47.894 0.066 7.19 8.36 11.16
5/2/2022 12:15:00 PM 8.9 48.02 0.066 7.2 8.19 11.21
5/2/2022 12:30:00 PM 8.96 48.128 0.066 7.22 8.35 11.2
5/2/2022 12:45:00 PM 9.02 48.236 0.066 7.24 8.3 11.2
5/2/2022 1:00:00 PM 9.25 48.65 0.065 7.23 8.43 11.18
5/2/2022 1:15:00 PM 9.45 49.01 0.065 7.26 8.37 11.14
5/2/2022 1:30:00 PM 9.46 49.028 0.065 7.25 9.2 11.11
5/2/2022 1:45:00 PM 9.6 49.28 0.065 7.25 8.88 11.11
5/2/2022 2:00:00 PM 9.96 49.928 0.065 7.27 8.77 11.03
5/2/2022 2:15:00 PM 10.29 50.522 0.065 7.27 8.65 10.94
5/2/2022 2:30:00 PM 10.45 50.81 0.065 7.26 9.25 10.9
5/2/2022 2:45:00 PM 10.62 51.116 0.065 7.28 9.03 10.84
5/2/2022 3:00:00 PM 10.53 50.954 0.065 7.27 8.98 10.84
5/2/2022 3:15:00 PM 10.48 50.864 0.065 7.28 9.41 10.85
5/2/2022 3:30:00 PM 10.44 50.792 0.065 7.29 9.49 10.85
5/2/2022 3:45:00 PM 10.39 50.702 0.065 7.26 9.17 10.86
5/2/2022 4:00:00 PM 10.34 50.612 0.065 7.27 9.52 10.86
5/2/2022 4:15:00 PM 10.34 50.612 0.065 7.28 9.5 10.87
5/2/2022 4:30:00 PM 10.3 50.54 0.065 7.26 9.41 10.85
5/2/2022 4:45:00 PM 10.33 50.594 0.065 7.25 9.14 10.87
5/2/2022 5:00:00 PM 10.34 50.612 0.065 7.27 9.47 10.85
5/2/2022 5:15:00 PM 10.43 50.774 0.065 7.27 9.35 10.84
5/2/2022 5:30:00 PM 10.42 50.756 0.065 7.27 9.31 10.82
5/2/2022 5:45:00 PM 10.34 50.612 0.065 7.25 9.6 10.82
5/2/2022 6:00:00 PM 10.31 50.558 0.065 7.25 9.05 10.85
5/2/2022 6:15:00 PM 10.3 50.54 0.065 7.26 9.32 10.85
5/2/2022 6:30:00 PM 10.27 50.486 0.065 7.28 9.21 10.85
5/2/2022 6:45:00 PM 10.21 50.378 0.065 7.23 9.38 10.84
5/2/2022 7:00:00 PM 10.15 50.27 0.065 7.23 9.24 10.84
5/2/2022 7:15:00 PM 10.08 50.144 0.066 7.22 9.14 10.82
5/2/2022 7:30:00 PM 10.02 50.036 0.066 7.2 8.82 10.81
5/2/2022 7:45:00 PM 9.97 49.946 0.066 7.18 9.48 10.81
5/2/2022 8:00:00 PM 9.92 49.856 0.066 7.17 9.57 10.8
5/2/2022 8:15:00 PM 9.87 49.766 0.066 7.16 9.65 10.81
5/2/2022 8:30:00 PM 9.83 49.694 0.066 7.15 9.27 10.82
5/2/2022 8:45:00 PM 9.79 49.622 0.066 7.14 9.71 10.83
5/2/2022 9:00:00 PM 9.76 49.568 0.066 7.14 9.49 10.84
5/2/2022 9:15:00 PM 9.73 49.514 0.066 7.14 9.34 10.85
5/2/2022 9:30:00 PM 9.7 49.46 0.066 7.11 9.35 10.86
5/2/2022 9:45:00 PM 9.64 49.352 0.067 7.12 9.35 10.88
5/2/2022 10:00:00 PM 9.56 49.208 0.067 7.13 8.84 10.9
5/2/2022 10:15:00 PM 9.49 49.082 0.067 7.14 8.97 10.91
5/2/2022 10:30:00 PM 9.43 48.974 0.067 7.12 9.28 10.93
5/2/2022 10:45:00 PM 9.37 48.866 0.067 7.12 8.95 10.94
5/2/2022 11:00:00 PM 9.31 48.758 0.067 7.13 9.08 10.95
5/2/2022 11:15:00 PM 9.27 48.686 0.067 7.13 8.87 10.97
5/2/2022 11:30:00 PM 9.25 48.65 0.067 7.13 8.79 10.98
5/2/2022 11:45:00 PM 9.21 48.578 0.067 7.13 8.84 10.98
5/3/2022 12:00:00 AM 9.19 48.542 0.067 7.13 8.84 11
5/3/2022 12:15:00 AM 9.16 48.488 0.067 7.13 9.57 11
5/3/2022 12:30:00 AM 9.12 48.416 0.067 7.13 9.04 11.02
5/3/2022 12:45:00 AM 9.06 48.308 0.067 7.13 8.62 11.04
5/3/2022 1:00:00 AM 8.98 48.164 0.067 7.13 8.69 11.06
5/3/2022 1:15:00 AM 8.91 48.038 0.067 7.12 8.97 11.08
5/3/2022 1:30:00 AM 8.83 47.894 0.067 7.12 8.53 11.1
5/3/2022 1:45:00 AM 8.77 47.786 0.067 7.13 8.51 11.11
5/3/2022 2:00:00 AM 8.7 47.66 0.067 7.13 8.69 11.13
5/3/2022 2:15:00 AM 8.64 47.552 0.067 7.13 8.46 11.14
5/3/2022 2:30:00 AM 8.58 47.444 0.067 7.13 8.32 11.16
5/3/2022 2:45:00 AM 8.52 47.336 0.067 7.14 8.18 11.18
5/3/2022 3:00:00 AM 8.46 47.228 0.067 7.13 8.51 11.2
5/3/2022 3:15:00 AM 8.39 47.102 0.067 7.13 8.4 11.22
5/3/2022 3:30:00 AM 8.32 46.976 0.067 7.14 8.47 11.24
5/3/2022 3:45:00 AM 8.27 46.886 0.067 7.13 8.08 11.26
5/3/2022 4:00:00 AM 8.21 46.778 0.067 7.14 7.99 11.28
5/3/2022 4:15:00 AM 8.14 46.652 0.067 7.11 8.21 11.29
5/3/2022 4:30:00 AM 8.07 46.526 0.067 7.14 8.23 11.31
5/3/2022 4:45:00 AM 8.01 46.418 0.067 7.13 8.02 11.32
5/3/2022 5:00:00 AM 7.93 46.274 0.067 7.12 8.2 11.34
5/3/2022 5:15:00 AM 7.87 46.166 0.067 7.13 8.45 11.37
5/3/2022 5:30:00 AM 7.81 46.058 0.067 7.12 8.35 11.38
5/3/2022 5:45:00 AM 7.74 45.932 0.067 7.14 8.18 11.41
5/3/2022 6:00:00 AM 7.69 45.842 0.067 7.14 8.74 11.43
5/3/2022 6:15:00 AM 7.63 45.734 0.067 7.15 8.61 11.46
5/3/2022 6:30:00 AM 7.61 45.698 0.067 7.16 8.54 11.49
5/3/2022 6:45:00 AM 7.59 45.662 0.067 7.17 8.56 11.53
5/3/2022 7:00:00 AM 7.58 45.644 0.067 7.18 8.29 11.57
5/3/2022 7:15:00 AM 7.6 45.68 0.067 7.19 8.34 11.61
5/3/2022 7:30:00 AM 7.62 45.716 0.067 7.21 8.25 11.62
5/3/2022 7:45:00 AM 7.65 45.77 0.067 7.23 8.26 11.64
5/3/2022 8:00:00 AM 7.69 45.842 0.067 7.21 8.23 11.61
5/3/2022 8:15:00 AM 7.7 45.86 0.067 7.23 8.52 11.6
5/3/2022 8:30:00 AM 7.8 46.04 0.067 7.25 8.58 11.62
5/3/2022 8:45:00 AM 7.96 46.328 0.067 7.26 8.57 11.58
5/3/2022 9:00:00 AM 8.06 46.508 0.067 7.26 8.14 11.55
5/3/2022 9:15:00 AM 8.17 46.706 0.067 7.27 8.68 11.54
5/3/2022 9:30:00 AM 8.35 47.03 0.067 7.28 10.43 11.51
5/3/2022 9:45:00 AM 8.54 47.372 0.067 7.29 9.96 11.44
5/3/2022 10:00:00 AM 8.7 47.66 0.066 7.28 9.8 11.4
5/3/2022 10:15:00 AM 8.84 47.912 0.066 7.29 9.35 11.37
5/3/2022 10:30:00 AM 8.99 48.182 0.066 7.29 9.31 11.33
5/3/2022 10:45:00 AM 9.16 48.488 0.066 7.3 9.18 11.27
5/3/2022 11:00:00 AM 9.4 48.92 0.066 7.3 9.52 11.22
5/3/2022 11:15:00 AM 9.58 49.244 0.066 7.3 9.31 11.17
5/3/2022 11:30:00 AM 9.75 49.55 0.066 7.3 9.73 11.12
5/3/2022 11:45:00 AM 9.89 49.802 0.066 7.31 9.66 11.08
5/3/2022 12:00:00 PM 9.88 49.784 0.066 7.3 9.66 11.05
5/3/2022 12:15:00 PM 9.81 49.658 0.066 7.3 9.83 11.05
5/3/2022 12:30:00 PM 9.92 49.856 0.066 7.3 10.01 11.05
5/3/2022 12:45:00 PM 10.09 50.162 0.066 7.3 9.88 11.01
5/3/2022 1:00:00 PM 10.23 50.414 0.066 7.3 10.04 10.98
5/3/2022 1:15:00 PM 10.37 50.666 0.066 7.32 10.19 10.94
5/3/2022 1:30:00 PM 10.51 50.918 0.066 7.31 10.09 10.9
5/3/2022 1:45:00 PM 10.56 51.008 0.066 7.31 10.33 10.87
5/3/2022 2:00:00 PM 10.56 51.008 0.066 7.31 10.59 10.85
5/3/2022 2:15:00 PM 10.56 51.008 0.066 7.31 11.03 10.85
5/3/2022 2:30:00 PM 10.59 51.062 0.066 7.31 10.72 10.84
5/3/2022 2:45:00 PM 10.59 51.062 0.066 7.3 10.39 10.82
5/3/2022 3:00:00 PM 10.56 51.008 0.066 7.3 10.8 10.81
5/3/2022 3:15:00 PM 10.53 50.954 0.066 7.3 10.54 10.8
5/3/2022 3:30:00 PM 10.54 50.972 0.066 7.29 11.04 10.81
5/3/2022 3:45:00 PM 10.52 50.936 0.066 7.31 12.45 10.78
5/3/2022 4:00:00 PM 10.52 50.936 0.066 7.29 10.09 10.79
5/3/2022 4:15:00 PM 10.53 50.954 0.066 7.29 10.41 10.79
5/3/2022 4:30:00 PM 10.53 50.954 0.066 7.29 10.33 10.77
5/3/2022 4:45:00 PM 10.53 50.954 0.066 7.28 10.21 10.77
5/3/2022 5:00:00 PM 10.53 50.954 0.066 7.28 10.57 10.76
5/3/2022 5:15:00 PM 10.56 51.008 0.066 7.28 10.43 10.77
5/3/2022 5:30:00 PM 10.62 51.116 0.066 7.28 10.21 10.76
5/3/2022 5:45:00 PM 10.63 51.134 0.066 7.29 9.86 10.72
5/3/2022 6:00:00 PM 10.64 51.152 0.059 7.29 10.62 10.71
5/3/2022 6:15:00 PM 10.64 51.152 0.066 7.28 9.88 10.69
5/3/2022 6:30:00 PM 10.66 51.188 0.066 7.28 10.25 10.69
5/3/2022 6:45:00 PM 10.67 51.206 0.066 7.27 10.4 10.68
5/3/2022 7:00:00 PM 10.66 51.188 0.066 7.3 10.27 10.66
5/3/2022 7:15:00 PM 10.63 51.134 0.066 7.25 10.1 10.64
5/3/2022 7:30:00 PM 10.62 51.116 0.067 7.24 9.97 10.62
5/3/2022 7:45:00 PM 10.58 51.044 0.067 7.23 10.03 10.61
5/3/2022 8:00:00 PM 10.54 50.972 0.067 7.21 9.94 10.59
5/3/2022 8:15:00 PM 10.49 50.882 0.067 7.23 10.14 10.59
5/3/2022 8:30:00 PM 10.47 50.846 0.067 7.2 10.32 10.6
5/3/2022 8:45:00 PM 10.47 50.846 0.067 7.19 10.75 10.6
5/3/2022 9:00:00 PM 10.47 50.846 0.067 7.19 10.38 10.6
5/3/2022 9:15:00 PM 10.47 50.846 0.067 7.2 10.63 10.6
5/3/2022 9:30:00 PM 10.47 50.846 0.067 7.18 11.1 10.6
5/3/2022 9:45:00 PM 10.44 50.792 0.067 7.17 11.15 10.61
5/3/2022 10:00:00 PM 10.41 50.738 0.067 7.16 12.26 10.62
5/3/2022 10:15:00 PM 10.39 50.702 0.067 7.16 11.66 10.62
5/3/2022 10:30:00 PM 10.38 50.684 0.068 7.17 11.62 10.62
5/3/2022 10:45:00 PM 10.36 50.648 0.068 7.17 11.26 10.63
5/3/2022 11:00:00 PM 10.33 50.594 0.068 7.18 11.7 10.64
5/3/2022 11:15:00 PM 10.32 50.576 0.068 7.18 11.19 10.64
5/3/2022 11:30:00 PM 10.3 50.54 0.068 7.18 11.13 10.65
5/3/2022 11:45:00 PM 10.28 50.504 0.068 7.21 11.16 10.65
5/4/2022 12:00:00 AM 10.28 50.504 0.068 7.18 10.9 10.65
5/4/2022 12:15:00 AM 10.27 50.486 0.068 7.17 11.03 10.65
5/4/2022 12:30:00 AM 10.29 50.522 0.068 7.18 11.05 10.65
5/4/2022 12:45:00 AM 10.29 50.522 0.068 7.18 10.79 10.65
5/4/2022 1:00:00 AM 10.3 50.54 0.068 7.19 11.18 10.64
5/4/2022 1:15:00 AM 10.29 50.522 0.068 7.19 10.75 10.65
5/4/2022 1:30:00 AM 10.29 50.522 0.068 7.19 10.35 10.65
5/4/2022 1:45:00 AM 10.29 50.522 0.068 7.2 10.37 10.64
5/4/2022 2:00:00 AM 10.28 50.504 0.068 7.19 10.42 10.64
5/4/2022 2:15:00 AM 10.27 50.486 0.068 7.19 10.55 10.65
5/4/2022 2:30:00 AM 10.25 50.45 0.068 7.19 9.78 10.65
5/4/2022 2:45:00 AM 10.23 50.414 0.068 7.19 10.05 10.65
5/4/2022 3:00:00 AM 10.21 50.378 0.068 7.18 10.59 10.65
5/4/2022 3:15:00 AM 10.19 50.342 0.068 7.19 9.96 10.66
5/4/2022 3:30:00 AM 10.19 50.342 0.068 7.19 10.07 10.67
5/4/2022 3:45:00 AM 10.18 50.324 0.068 7.2 9.96 10.67
5/4/2022 4:00:00 AM 10.18 50.324 0.068 7.19 10 10.67
5/4/2022 4:15:00 AM 10.16 50.288 0.068 7.19 10.2 10.68
5/4/2022 4:30:00 AM 10.15 50.27 0.069 7.19 10.35 10.68
5/4/2022 4:45:00 AM 10.13 50.234 0.069 7.19 9.93 10.68
5/4/2022 5:00:00 AM 10.12 50.216 0.069 7.19 9.64 10.69
5/4/2022 5:15:00 AM 10.1 50.18 0.069 7.2 9.64 10.69
5/4/2022 5:30:00 AM 10.08 50.144 0.069 7.2 10.39 10.69
5/4/2022 5:45:00 AM 10.05 50.09 0.069 7.19 10.04 10.69
5/4/2022 6:00:00 AM 10.03 50.054 0.069 7.18 9.95 10.7
5/4/2022 6:15:00 AM 10.02 50.036 0.069 7.19 9.76 10.7
5/4/2022 6:30:00 AM 10 50 0.069 7.19 10.33 10.71
5/4/2022 6:45:00 AM 9.98 49.964 0.069 7.18 10.05 10.72
5/4/2022 7:00:00 AM 9.96 49.928 0.069 7.19 10.18 10.74
5/4/2022 7:15:00 AM 9.95 49.91 0.069 7.19 10.29 10.75
5/4/2022 7:30:00 AM 9.93 49.874 0.069 7.18 10.09 10.75
5/4/2022 7:45:00 AM 9.92 49.856 0.069 7.18 10.17 10.77
5/4/2022 8:00:00 AM 9.92 49.856 0.069 7.2 10.59 10.81
5/4/2022 8:15:00 AM 9.92 49.856 0.069 7.19 10.6 10.79
5/4/2022 8:30:00 AM 9.91 49.838 0.069 7.19 10.79 10.8
5/4/2022 8:45:00 AM 9.91 49.838 0.069 7.19 10.65 10.81
5/4/2022 9:00:00 AM 9.92 49.856 0.069 7.19 10.65 10.83
5/4/2022 9:30:00 AM 9.96 49.928 0.068 7.21 10.55 10.85
5/4/2022 9:45:00 AM 9.98 49.964 0.068 7.21 11.27 10.85
5/4/2022 10:00:00 AM 9.98 49.964 0.068 7.22 10.65 10.84
5/4/2022 10:15:00 AM 10.01 50.018 0.068 7.24 55.81 10.86
5/4/2022 10:30:00 AM 10.07 50.126 0.068 7.24 9.97 10.87
5/4/2022 10:45:00 AM 10.15 50.27 0.068 7.27 15.59 10.87
5/4/2022 11:00:00 AM 10.27 50.486 0.068 7.26 10.92 10.87
5/4/2022 11:15:00 AM 10.31 50.558 0.068 7.27 10.51 10.82
5/4/2022 11:30:00 AM 10.39 50.702 0.068 7.27 10.98 10.83
5/4/2022 11:45:00 AM 10.47 50.846 0.068 7.27 10.8 10.81
5/4/2022 12:00:00 PM 10.7 51.26 0.068 7.29 11.03 10.79
5/4/2022 12:15:00 PM 10.95 51.71 0.068 7.29 10.35 10.74
5/4/2022 12:30:00 PM 11.39 52.502 0.068 7.29 10.48 10.64
5/4/2022 12:45:00 PM 11.84 53.312 0.067 7.3 10.45 10.54
5/4/2022 1:00:00 PM 12.29 54.122 0.067 7.3 11.52 10.46
5/4/2022 1:15:00 PM 12.12 53.816 0.067 7.3 10.84 10.36
5/4/2022 1:30:00 PM 11.89 53.402 0.067 7.28 11 10.42
5/4/2022 1:45:00 PM 11.88 53.384 0.067 7.31 11.45 10.48
5/4/2022 2:00:00 PM 11.91 53.438 0.067 7.3 14.24 10.45
5/4/2022 2:15:00 PM 11.98 53.564 0.067 7.33 11.61 10.46
5/4/2022 2:30:00 PM 12.07 53.726 0.067 7.35 11.12 10.44
5/4/2022 2:45:00 PM 12.24 54.032 0.067 7.32 10.4 10.43
5/4/2022 3:00:00 PM 12.33 54.194 0.067 7.34 11.23 10.38
5/4/2022 3:15:00 PM 12.24 54.032 0.057 7.34 11.51 10.39
5/4/2022 3:30:00 PM 12.12 53.816 0.067 7.33 12.41 10.41
5/4/2022 3:45:00 PM 12.06 53.708 0.067 7.33 11.99 10.43
5/4/2022 4:00:00 PM 12.02 53.636 0.067 7.32 11.36 10.42
5/4/2022 4:15:00 PM 11.96 53.528 0.067 7.32 11.62 10.43
5/4/2022 4:30:00 PM 11.93 53.474 0.067 7.32 11.19 10.45
5/4/2022 4:45:00 PM 11.99 53.582 0.067 7.33 10.86 10.45
5/4/2022 5:00:00 PM 11.99 53.582 0.067 7.34 10.98 10.45
5/4/2022 5:15:00 PM 11.96 53.528 0.067 7.3 10.74 10.44
5/4/2022 5:30:00 PM 11.83 53.294 0.067 7.3 11.32 10.41
5/4/2022 5:45:00 PM 11.69 53.042 0.06 7.3 11.07 10.43
5/4/2022 6:00:00 PM 11.58 52.844 0.067 7.29 10.82 10.45
5/4/2022 6:15:00 PM 11.49 52.682 0.067 7.27 10.77 10.45
5/4/2022 6:30:00 PM 11.4 52.52 0.068 7.27 11.69 10.45
5/4/2022 6:45:00 PM 11.33 52.394 0.068 7.26 11.03 10.47
5/4/2022 7:00:00 PM 11.26 52.268 0.068 7.25 10.53 10.47
5/4/2022 7:15:00 PM 11.2 52.16 0.068 7.26 11.08 10.51
5/4/2022 7:30:00 PM 11.14 52.052 0.068 7.26 10.67 10.52
5/4/2022 7:45:00 PM 11.07 51.926 0.068 7.25 11.17 10.51
5/4/2022 8:00:00 PM 10.99 51.782 0.068 7.24 11.09 10.52
5/4/2022 8:15:00 PM 10.92 51.656 0.069 7.24 10.76 10.53
5/4/2022 8:30:00 PM 10.86 51.548 0.069 7.24 11.24 10.55
5/4/2022 8:45:00 PM 10.8 51.44 0.069 7.23 11.47 10.55
5/4/2022 9:00:00 PM 10.75 51.35 0.069 7.23 10.76 10.57
5/4/2022 9:15:00 PM 10.7 51.26 0.069 7.23 11.6 10.58
5/4/2022 9:30:00 PM 10.65 51.17 0.069 7.24 11.2 10.6
5/4/2022 9:45:00 PM 10.61 51.098 0.069 7.23 10.59 10.62
5/4/2022 10:00:00 PM 10.57 51.026 0.069 7.23 11.27 10.63
5/4/2022 10:15:00 PM 10.53 50.954 0.069 7.22 10.6 10.64
5/4/2022 10:30:00 PM 10.49 50.882 0.069 7.22 10.32 10.65
5/4/2022 10:45:00 PM 10.46 50.828 0.069 7.23 9.56 10.66
5/4/2022 11:00:00 PM 10.42 50.756 0.069 7.23 13.47 10.67
5/4/2022 11:15:00 PM 10.38 50.684 0.069 7.23 9.84 10.68
5/4/2022 11:30:00 PM 10.35 50.63 0.069 7.24 9.56 10.7
5/4/2022 11:45:00 PM 10.32 50.576 0.069 7.23 10.54 10.7
5/5/2022 12:00:00 AM 10.28 50.504 0.069 7.22 10.1 10.71
5/5/2022 12:15:00 AM 10.25 50.45 0.069 7.22 10.3 10.73
5/5/2022 12:30:00 AM 10.22 50.396 0.069 7.22 10.59 10.74
5/5/2022 12:45:00 AM 10.19 50.342 0.069 7.22 10.24 10.75
5/5/2022 1:00:00 AM 10.14 50.252 0.069 7.22 9.76 10.76
5/5/2022 1:15:00 AM 10.08 50.144 0.069 7.21 11.15 10.77
5/5/2022 1:30:00 AM 10.02 50.036 0.069 7.23 10.52 10.78
5/5/2022 1:45:00 AM 9.99 49.982 0.069 7.22 10.35 10.79
5/5/2022 2:00:00 AM 9.95 49.91 0.069 7.19 10.2 10.8
5/5/2022 2:15:00 AM 9.91 49.838 0.069 7.19 10.14 10.8
5/5/2022 2:30:00 AM 9.87 49.766 0.069 7.19 10.07 10.82
5/5/2022 2:45:00 AM 9.8 49.64 0.069 7.19 10.08 10.84
5/5/2022 3:00:00 AM 9.72 49.496 0.069 7.19 10.3 10.86
5/5/2022 3:15:00 AM 9.64 49.352 0.07 7.2 10.31 10.89
5/5/2022 3:30:00 AM 9.56 49.208 0.07 7.2 10.17 10.9
5/5/2022 3:45:00 AM 9.49 49.082 0.07 7.2 9.88 10.92
5/5/2022 4:00:00 AM 9.41 48.938 0.07 7.19 9.77 10.94
5/5/2022 4:15:00 AM 9.34 48.812 0.07 7.2 9.42 10.95
5/5/2022 4:30:00 AM 9.26 48.668 0.07 7.2 9.66 10.97
5/5/2022 4:45:00 AM 9.18 48.524 0.07 7.23 9.9 10.99
5/5/2022 5:00:00 AM 9.11 48.398 0.055 7.2 9.48 11.02
5/5/2022 5:15:00 AM 9.03 48.254 0.07 7.22 9.69 11.04
5/5/2022 5:30:00 AM 8.96 48.128 0.07 7.21 9.79 11.06
5/5/2022 5:45:00 AM 8.88 47.984 0.07 7.21 9.98 11.08
5/5/2022 6:00:00 AM 8.81 47.858 0.07 7.23 10.16 11.11
5/5/2022 6:15:00 AM 8.75 47.75 0.07 7.17 10.29 11.13
5/5/2022 6:30:00 AM 8.72 47.696 0.07 7.19 10.31 11.16
5/5/2022 6:45:00 AM 8.68 47.624 0.07 7.24 10.14 11.2
5/5/2022 7:00:00 AM 8.65 47.57 0.07 7.25 10.42 11.23
5/5/2022 7:15:00 AM 8.62 47.516 0.07 7.19 9.89 11.26
5/5/2022 7:30:00 AM 8.63 47.534 0.07 7.23 10.64 11.28
5/5/2022 7:45:00 AM 8.66 47.588 0.069 7.25 10.32 11.3
5/5/2022 8:00:00 AM 8.72 47.696 0.069 7.27 10.43 11.3
5/5/2022 8:15:00 AM 8.82 47.876 0.069 7.29 10.19 11.31
5/5/2022 8:30:00 AM 8.95 48.11 0.069 7.29 9.6 11.3
5/5/2022 8:45:00 AM 9.08 48.344 0.069 7.34 9.95 11.27
5/5/2022 9:00:00 AM 9.22 48.596 0.069 7.35 9.7 11.25
5/5/2022 9:15:00 AM 9.36 48.848 0.069 7.33 10.12 11.22
5/5/2022 9:30:00 AM 9.51 49.118 0.069 7.31 10.3 11.2
5/5/2022 9:45:00 AM 9.66 49.388 0.069 7.32 10 11.16
5/5/2022 10:00:00 AM 9.82 49.676 0.06 7.34 9.84 11.12
5/5/2022 10:15:00 AM 10.02 50.036 0.069 7.35 9.47 11.07
5/5/2022 10:30:00 AM 10.23 50.414 0.069 7.37 10.19 11.03
5/5/2022 10:45:00 AM 10.44 50.792 0.065 7.34 13 10.97
5/5/2022 11:00:00 AM 10.68 51.224 0.069 7.36 10.14 10.91
5/5/2022 11:15:00 AM 10.81 51.458 0.069 7.33 10.3 10.88
5/5/2022 11:30:00 AM 10.94 51.692 0.069 7.36 9.95 10.85
5/5/2022 11:45:00 AM 11.12 52.016 0.068 7.35 10.01 10.81
5/5/2022 12:00:00 PM 11.26 52.268 0.068 7.34 10.34 10.76
5/5/2022 12:15:00 PM 11.35 52.43 0.068 7.35 10.64 10.74
5/5/2022 12:30:00 PM 11.44 52.592 0.068 7.35 10.68 10.73
5/5/2022 12:45:00 PM 11.48 52.664 0.068 7.37 10.75 10.71
5/5/2022 1:00:00 PM 11.52 52.736 0.068 7.35 11.1 10.7
5/5/2022 1:15:00 PM 11.61 52.898 0.068 7.36 10.05 10.67
5/5/2022 1:30:00 PM 11.68 53.024 0.068 7.36 10.47 10.64
5/5/2022 1:45:00 PM 11.72 53.096 0.068 7.36 10.78 10.62
5/5/2022 2:00:00 PM 11.66 52.988 0.068 7.39 11.25 10.62
5/5/2022 2:15:00 PM 11.75 53.15 0.068 7.35 11.01 10.61
5/5/2022 2:30:00 PM 11.95 53.51 0.068 7.36 10.9 10.56
5/5/2022 2:45:00 PM 12.06 53.708 0.068 7.35 10.67 10.52
5/5/2022 3:00:00 PM 12.11 53.798 0.068 7.35 10.75 10.5
5/5/2022 3:15:00 PM 12.09 53.762 0.068 7.35 11.42 10.5
5/5/2022 3:30:00 PM 11.99 53.582 0.068 7.35 11.1 10.49
5/5/2022 3:45:00 PM 11.98 53.564 0.068 7.36 11.01 10.51
5/5/2022 4:00:00 PM 11.92 53.456 0.068 7.35 10.87 10.49
5/5/2022 4:15:00 PM 11.88 53.384 0.068 7.36 11.29 10.51
5/5/2022 4:30:00 PM 11.84 53.312 0.068 7.36 10.9 10.52
5/5/2022 4:45:00 PM 11.79 53.222 0.068 7.36 11.21 10.51
5/5/2022 5:00:00 PM 11.72 53.096 0.068 7.36 11.46 10.52
5/5/2022 5:15:00 PM 11.64 52.952 0.068 7.34 11.52 10.54
5/5/2022 5:30:00 PM 11.56 52.808 0.068 7.33 10.47 10.56
5/5/2022 5:45:00 PM 11.5 52.7 0.068 7.33 10.78 10.56
5/5/2022 6:00:00 PM 11.43 52.574 0.068 7.32 10.58 10.56
5/5/2022 6:15:00 PM 11.37 52.466 0.069 7.32 11.25 10.55
5/5/2022 6:30:00 PM 11.3 52.34 0.069 7.3 10.82 10.54
5/5/2022 6:45:00 PM 11.25 52.25 0.069 7.3 11.25 10.55
5/5/2022 7:00:00 PM 11.19 52.142 0.069 7.31 10.64 10.55
5/5/2022 7:15:00 PM 11.13 52.034 0.069 7.25 11.13 10.53
5/5/2022 7:30:00 PM 11.07 51.926 0.069 7.25 10.31 10.53
5/5/2022 7:45:00 PM 11.01 51.818 0.069 7.24 10.5 10.52
5/5/2022 8:00:00 PM 10.95 51.71 0.069 7.23 10.68 10.52
5/5/2022 8:15:00 PM 10.89 51.602 0.07 7.22 10.7 10.52
5/5/2022 8:30:00 PM 10.83 51.494 0.07 7.24 10.81 10.53
5/5/2022 8:45:00 PM 10.78 51.404 0.07 7.21 11.05 10.54
5/5/2022 9:00:00 PM 10.72 51.296 0.07 7.21 11.26 10.55
5/5/2022 9:15:00 PM 10.67 51.206 0.07 7.22 10.79 10.56
5/5/2022 9:30:00 PM 10.61 51.098 0.07 7.21 10.46 10.57
5/5/2022 9:45:00 PM 10.57 51.026 0.07 7.2 10.39 10.59
5/5/2022 10:00:00 PM 10.53 50.954 0.07 7.2 10.8 10.6
5/5/2022 10:15:00 PM 10.49 50.882 0.07 7.21 10.67 10.61
5/5/2022 10:30:00 PM 10.45 50.81 0.07 7.2 10.47 10.62
5/5/2022 10:45:00 PM 10.41 50.738 0.07 7.2 9.93 10.64
5/5/2022 11:00:00 PM 10.37 50.666 0.07 7.2 10.22 10.64
5/5/2022 11:15:00 PM 10.34 50.612 0.07 7.19 10.36 10.65
5/5/2022 11:30:00 PM 10.3 50.54 0.07 7.19 9.68 10.66
5/5/2022 11:45:00 PM 10.26 50.468 0.07 7.19 9.54 10.66
5/6/2022 12:00:00 AM 10.22 50.396 0.07 7.19 10.02 10.67
5/6/2022 12:15:00 AM 10.19 50.342 0.07 7.2 10.24 10.68
5/6/2022 12:30:00 AM 10.16 50.288 0.07 7.18 10.49 10.7
5/6/2022 12:45:00 AM 10.12 50.216 0.071 7.2 10.35 10.7
5/6/2022 1:00:00 AM 10.08 50.144 0.071 7.18 9.73 10.71
5/6/2022 1:15:00 AM 10.05 50.09 0.071 7.19 9.97 10.72
5/6/2022 1:30:00 AM 10.01 50.018 0.071 7.19 9.04 10.73
5/6/2022 1:45:00 AM 9.97 49.946 0.071 7.18 9.62 10.74
5/6/2022 2:00:00 AM 9.93 49.874 0.071 7.19 9.7 10.74
5/6/2022 2:15:00 AM 9.89 49.802 0.071 7.19 9.29 10.75
5/6/2022 2:30:00 AM 9.86 49.748 0.071 7.18 9.62 10.76
5/6/2022 2:45:00 AM 9.83 49.694 0.071 7.19 9.3 10.77
5/6/2022 3:00:00 AM 9.8 49.64 0.071 7.19 9.7 10.78
5/6/2022 3:15:00 AM 9.76 49.568 0.071 7.19 9.18 10.79
5/6/2022 3:30:00 AM 9.73 49.514 0.071 7.2 8.63 10.8
5/6/2022 3:45:00 AM 9.69 49.442 0.071 7.18 9.06 10.81
5/6/2022 4:00:00 AM 9.65 49.37 0.071 7.19 8.86 10.83
5/6/2022 4:15:00 AM 9.62 49.316 0.071 7.2 9.69 10.83
5/6/2022 4:30:00 AM 9.58 49.244 0.071 7.21 9.56 10.84
5/6/2022 4:45:00 AM 9.54 49.172 0.071 7.18 9.45 10.85
5/6/2022 5:00:00 AM 9.51 49.118 0.071 7.19 8.85 10.86
5/6/2022 5:15:00 AM 9.48 49.064 0.071 7.2 9.65 10.87
5/6/2022 5:30:00 AM 9.45 49.01 0.071 7.19 9.81 10.87
5/6/2022 5:45:00 AM 9.42 48.956 0.071 7.19 9.38 10.88
5/6/2022 6:00:00 AM 9.4 48.92 0.071 7.19 9.96 10.88
5/6/2022 6:15:00 AM 9.37 48.866 0.07 7.19 10.02 10.89
5/6/2022 6:30:00 AM 9.34 48.812 0.07 7.19 10.88 10.9
5/6/2022 6:45:00 AM 9.32 48.776 0.07 7.2 11.01 10.92
5/6/2022 7:00:00 AM 9.29 48.722 0.07 7.2 11.14 10.93
5/6/2022 7:15:00 AM 9.27 48.686 0.071 7.2 12.25 10.94
5/6/2022 7:30:00 AM 9.26 48.668 0.071 7.21 11.74 10.96
5/6/2022 7:45:00 AM 9.26 48.668 0.071 7.21 11.69 10.99
5/6/2022 8:00:00 AM 9.26 48.668 0.071 7.25 11.19 11
5/6/2022 8:15:00 AM 9.26 48.668 0.071 7.23 12.11 11.02
5/6/2022 8:30:00 AM 9.27 48.686 0.071 7.25 11.84 11.02
5/6/2022 8:45:00 AM 9.27 48.686 0.071 7.24 11.75 11.01
5/6/2022 9:00:00 AM 9.27 48.686 0.071 7.29 11.57 11.01
5/6/2022 9:15:00 AM 9.28 48.704 0.071 7.29 11.3 11.03
5/6/2022 9:30:00 AM 9.3 48.74 0.071 7.26 12.57 11.04
5/6/2022 9:45:00 AM 9.32 48.776 0.071 7.26 15.98 11.04
5/6/2022 10:00:00 AM 9.35 48.83 0.071 7.26 18.66 11.04
5/6/2022 10:15:00 AM 9.38 48.884 0.071 7.28 18.41 11.05
5/6/2022 10:30:00 AM 9.42 48.956 0.071 7.31 20.93 11.04
5/6/2022 10:45:00 AM 9.46 49.028 0.071 7.28 22.42 11.04
5/6/2022 11:00:00 AM 9.5 49.1 0.072 7.29 24.16 11.03
5/6/2022 11:15:00 AM 9.54 49.172 0.072 7.31 25.36 11.02
5/6/2022 11:30:00 AM 9.56 49.208 0.073 7.31 22.55 11.01
5/6/2022 11:45:00 AM 9.59 49.262 0.073 7.31 21.03 11
5/6/2022 12:00:00 PM 9.61 49.298 0.073 7.33 20.78 11
5/6/2022 12:15:00 PM 9.65 49.37 0.073 7.29 23.19 10.99
5/6/2022 12:30:00 PM 9.67 49.406 0.073 7.32 27.59 10.97
5/6/2022 12:45:00 PM 9.69 49.442 0.072 7.31 21.81 10.97
5/6/2022 1:00:00 PM 9.71 49.478 0.072 7.3 21.43 10.96
5/6/2022 1:15:00 PM 9.74 49.532 0.072 7.31 20.39 10.96
5/6/2022 1:30:00 PM 9.77 49.586 0.072 7.31 19.87 10.95
5/6/2022 1:45:00 PM 9.79 49.622 0.072 7.32 22.49 10.93
5/6/2022 2:00:00 PM 9.81 49.658 0.072 7.29 20.06 10.93
5/6/2022 2:15:00 PM 9.83 49.694 0.071 7.31 19.77 10.93
5/6/2022 2:30:00 PM 9.85 49.73 0.072 7.31 20.29 10.92
5/6/2022 2:45:00 PM 9.85 49.73 0.072 7.31 19.3 10.91
5/6/2022 3:00:00 PM 9.83 49.694 0.072 7.3 17.96 10.9
5/6/2022 3:15:00 PM 9.81 49.658 0.072 7.29 18.59 10.9
5/6/2022 3:30:00 PM 9.81 49.658 0.072 7.29 19.67 10.89
5/6/2022 3:45:00 PM 9.82 49.676 0.072 7.3 22.17 10.89
5/6/2022 4:00:00 PM 9.82 49.676 0.073 7.3 24.22 10.89
5/6/2022 4:15:00 PM 9.82 49.676 0.073 7.32 26.02 10.88
5/6/2022 4:30:00 PM 9.82 49.676 0.074 7.32 26.52 10.88
5/6/2022 4:45:00 PM 9.82 49.676 0.075 7.31 29.88 10.87
5/6/2022 5:00:00 PM 9.82 49.676 0.076 7.3 29.99 10.85
5/6/2022 5:15:00 PM 9.82 49.676 0.076 7.33 33.36 10.86
5/6/2022 5:30:00 PM 9.82 49.676 0.076 7.32 34.58 10.85
5/6/2022 5:45:00 PM 9.82 49.676 0.076 7.31 30.54 10.86
5/6/2022 6:00:00 PM 9.81 49.658 0.076 7.32 28.52 10.85
5/6/2022 6:15:00 PM 9.8 49.64 0.076 7.32 25.25 10.84
5/6/2022 6:30:00 PM 9.77 49.586 0.076 7.33 25.66 10.83
5/6/2022 6:45:00 PM 9.74 49.532 0.076 7.3 23.18 10.81
5/6/2022 7:00:00 PM 9.71 49.478 0.075 7.3 22.94 10.82
5/6/2022 7:15:00 PM 9.68 49.424 0.075 7.29 24.04 10.82
5/6/2022 7:30:00 PM 9.66 49.388 0.073 7.28 22.98 10.83
5/6/2022 7:45:00 PM 9.63 49.334 0.075 7.28 21.2 10.83
5/6/2022 8:00:00 PM 9.6 49.28 0.075 7.28 24.34 10.83
5/6/2022 8:15:00 PM 9.58 49.244 0.075 7.28 21.76 10.83
5/6/2022 8:30:00 PM 9.55 49.19 0.075 7.29 23.5 10.83
5/6/2022 8:45:00 PM 9.53 49.154 0.076 7.27 23.25 10.83
5/6/2022 9:00:00 PM 9.51 49.118 0.076 7.28 23.75 10.84
5/6/2022 9:15:00 PM 9.49 49.082 0.076 7.29 22.78 10.84
5/6/2022 9:30:00 PM 9.47 49.046 0.076 7.26 21.17 10.85
5/6/2022 9:45:00 PM 9.45 49.01 0.076 7.27 20.38 10.86
5/6/2022 10:00:00 PM 9.43 48.974 0.077 7.27 19.16 10.86
5/6/2022 10:15:00 PM 9.42 48.956 0.077 7.3 17.56 10.87
5/6/2022 10:30:00 PM 9.4 48.92 0.077 7.29 17.63 10.87
5/6/2022 10:45:00 PM 9.38 48.884 0.076 7.24 17.01 10.87
5/6/2022 11:00:00 PM 9.36 48.848 0.076 7.31 16.16 10.87
5/6/2022 11:15:00 PM 9.34 48.812 0.076 7.27 15.26 10.88
5/6/2022 11:30:00 PM 9.33 48.794 0.076 7.26 15.78 10.88
5/6/2022 11:45:00 PM 9.31 48.758 0.076 7.27 15.51 10.88
5/7/2022 12:00:00 AM 9.3 48.74 0.076 7.25 16.06 10.88
5/7/2022 12:15:00 AM 9.28 48.704 0.076 7.25 16.46 10.89
5/7/2022 12:30:00 AM 9.26 48.668 0.074 7.26 15.45 10.89
5/7/2022 12:45:00 AM 9.24 48.632 0.075 7.27 14.67 10.89
5/7/2022 1:00:00 AM 9.23 48.614 0.075 7.25 13.8 10.9
5/7/2022 1:15:00 AM 9.21 48.578 0.074 7.27 13.2 10.91
5/7/2022 1:30:00 AM 9.2 48.56 0.074 7.24 12.68 10.91
5/7/2022 1:45:00 AM 9.18 48.524 0.074 7.26 12.66 10.91
5/7/2022 2:00:00 AM 9.17 48.506 0.073 7.25 12.28 10.91
5/7/2022 2:15:00 AM 9.15 48.47 0.073 7.28 12.68 10.91
5/7/2022 2:30:00 AM 9.13 48.434 0.073 7.27 12.36 10.92
5/7/2022 2:45:00 AM 9.12 48.416 0.073 7.26 12.22 10.92
5/7/2022 3:00:00 AM 9.11 48.398 0.073 7.23 12.59 10.92
5/7/2022 3:15:00 AM 9.09 48.362 0.073 7.23 12.2 10.93
5/7/2022 3:30:00 AM 9.08 48.344 0.073 7.24 12.93 10.93
5/7/2022 3:45:00 AM 9.06 48.308 0.073 7.23 12.59 10.93
5/7/2022 4:00:00 AM 9.03 48.254 0.073 7.25 12.78 10.94
5/7/2022 4:15:00 AM 9.01 48.218 0.072 7.23 12.65 10.96
5/7/2022 4:30:00 AM 8.98 48.164 0.073 7.24 11.71 10.96
5/7/2022 4:45:00 AM 8.96 48.128 0.073 7.22 11.7 10.96
5/7/2022 5:00:00 AM 8.95 48.11 0.073 7.24 11.71 10.96
5/7/2022 5:15:00 AM 8.94 48.092 0.073 7.23 11.66 10.97
5/7/2022 5:30:00 AM 8.92 48.056 0.073 7.24 11.77 10.97
5/7/2022 5:45:00 AM 8.9 48.02 0.073 7.23 11.67 10.98
5/7/2022 6:00:00 AM 8.88 47.984 0.073 7.2 11.72 10.99
5/7/2022 6:15:00 AM 8.86 47.948 0.073 7.26 11.69 11
5/7/2022 6:30:00 AM 8.83 47.894 0.073 7.28 11.75 11.02
5/7/2022 6:45:00 AM 8.79 47.822 0.072 7.23 11.14 11.04
5/7/2022 7:00:00 AM 8.76 47.768 0.072 7.24 10.7 11.06
5/7/2022 7:15:00 AM 8.73 47.714 0.07 7.26 11.52 11.08
5/7/2022 7:30:00 AM 8.71 47.678 0.072 7.28 10.66 11.09
5/7/2022 7:45:00 AM 8.68 47.624 0.072 7.26 10.58 11.12
5/7/2022 8:00:00 AM 8.65 47.57 0.072 7.32 10.71 11.14
5/7/2022 8:15:00 AM 8.63 47.534 0.072 7.27 10.86 11.16
5/7/2022 8:30:00 AM 8.63 47.534 0.072 7.25 10.62 11.18
5/7/2022 8:45:00 AM 8.63 47.534 0.071 7.29 10.73 11.2
5/7/2022 9:00:00 AM 8.62 47.516 0.071 7.27 11.5 11.22
5/7/2022 9:15:00 AM 8.63 47.534 0.071 7.34 10.56 11.23
5/7/2022 9:30:00 AM 8.61 47.498 0.071 7.3 10.7 11.24
5/7/2022 9:45:00 AM 8.6 47.48 0.071 7.27 10.62 11.25
5/7/2022 10:00:00 AM 8.6 47.48 0.071 7.31